Darstellungsparameter: Aktuell verwendete Einstellungen:
Skalierung der Graphiken ... ?
xyx+y,   Skalierungsfaktor:      Skalierung: Modus: x, Faktor: 1
Darstellungszeitraum ... ?
Vom - - bis: - -   Zeitraum: 30.12.2013 - 29.06.2014
Min/Max/Avg-Anzeige ... ?
Zeige MMA aktuell
Zeige MMA Monat
Zeige MMA alles
Zeige --A aktuell
Zeige --A Monat
Zeige --A alles
Keine MMA-Anzeige
MMA:
Average (ber die Originaldaten)
MMA-Basis: 30.12.2013 - 29.06.2014
Quicknavigation für Darstellung... ?
Tage:      1T, 2T, 3T, 5T -1T -2T -3T -5T +1T +2T +3T +5T
Wochen: 1W, 2W, 3W -1W -2W -3W +1W +2W +3W
Monate: 1M, 3M, 6M -1M -3M -6M +1M +3M +6M
Jahre:    1J, 3J, 5J, 10J -1J -3J -5J -10J +1J +3J +5J +10J
Nutze für die Darstellung ... ?
Originaldaten oder Mittelwerte auf ...
Stundenbasis Tagesbasis Wochenbasis
Monatsbasis Jahresbasis      Datenbasis: Original-Daten
Darstellen als:
Statistik (Auto) Statistik J:M      Darstellung:
Zur Graphik,    zurück zur Übersicht aller Sensoren.
 
Tabellarische Datenbersicht: ?
 
Sensor: Nr:Datum:Temp:Abs-Feuchte:Windchill:Wind:
Aussen-T/F 1 30-12-2013 00:00:00 3.1 C 5.75 g/m*3 0.87 C 8.1 km/h
2 30-12-2013 00:05:00 3.2 C 5.79 g/m*3 0.99 C 8.1 km/h
3 30-12-2013 00:10:00 3.3 C 5.76 g/m*3 1.63 C 6.4 km/h
4 30-12-2013 00:15:00 3.4 C 5.74 g/m*3 3.4 C 3.2 km/h
5 30-12-2013 00:20:00 3.3 C 5.7 g/m*3 3.3 C 1.6 km/h
6 30-12-2013 00:25:00 3.3 C 5.7 g/m*3 3.3 C 3.2 km/h
7 30-12-2013 00:30:00 3.2 C 5.6 g/m*3 3.2 C 1.6 km/h
8 30-12-2013 00:35:00 2.9 C 5.49 g/m*3 2.9 C 3.2 km/h
9 30-12-2013 00:40:00 2.8 C 5.51 g/m*3 2.8 C 3.2 km/h
10 30-12-2013 00:45:00 2.9 C 5.55 g/m*3 2.9 C 3.2 km/h
11 30-12-2013 00:50:00 3.1 C 5.69 g/m*3 3.1 C 0 km/h
12 30-12-2013 00:55:00 3.1 C 5.69 g/m*3 3.1 C 0 km/h
13 30-12-2013 01:00:00 3.2 C 5.72 g/m*3 3.2 C 1.6 km/h
14 30-12-2013 01:05:00 3.2 C 5.72 g/m*3 3.2 C 0 km/h
15 30-12-2013 01:10:00 3.3 C 5.76 g/m*3 3.3 C 0 km/h
16 30-12-2013 01:15:00 3.4 C 5.8 g/m*3 3.4 C 4.8 km/h
17 30-12-2013 01:20:00 3.6 C 5.82 g/m*3 3.6 C 1.6 km/h
18 30-12-2013 01:25:00 3.7 C 5.86 g/m*3 3.7 C 0 km/h
19 30-12-2013 01:30:00 3.7 C 5.86 g/m*3 3.7 C 0 km/h
20 30-12-2013 01:35:00 3.8 C 5.83 g/m*3 3.8 C 3.2 km/h
21 30-12-2013 01:40:00 3.9 C 5.81 g/m*3 1.41 C 9.7 km/h
22 30-12-2013 01:45:00 4.1 C 5.89 g/m*3 4.1 C 4.8 km/h
23 30-12-2013 01:50:00 4.2 C 5.86 g/m*3 4.2 C 4.8 km/h
24 30-12-2013 01:55:00 4.2 C 5.86 g/m*3 4.2 C 3.2 km/h
25 30-12-2013 02:00:00 4.2 C 5.86 g/m*3 4.2 C 3.2 km/h
Sensor: Nr:Datum:Temp:Abs-Feuchte:Windchill:Wind:
Aussen-T/F 26 30-12-2013 02:05:00 4.2 C 5.86 g/m*3 4.2 C 1.6 km/h
27 30-12-2013 02:10:00 4.2 C 5.93 g/m*3 4.2 C 3.2 km/h
28 30-12-2013 02:15:00 4.2 C 5.86 g/m*3 2.67 C 6.4 km/h
29 30-12-2013 02:20:00 4.3 C 5.84 g/m*3 2.78 C 6.4 km/h
30 30-12-2013 02:25:00 4.3 C 5.84 g/m*3 4.3 C 4.8 km/h
31 30-12-2013 02:30:00 4.3 C 5.84 g/m*3 4.3 C 1.6 km/h
32 30-12-2013 02:35:00 4.3 C 5.9 g/m*3 4.3 C 0 km/h
33 30-12-2013 02:40:00 4.3 C 5.84 g/m*3 2.78 C 6.4 km/h
34 30-12-2013 02:45:00 4.3 C 5.84 g/m*3 4.3 C 3.2 km/h
35 30-12-2013 02:50:00 4.3 C 5.84 g/m*3 4.3 C 1.6 km/h
36 30-12-2013 02:55:00 4.3 C 5.84 g/m*3 4.3 C 4.8 km/h
37 30-12-2013 03:00:00 4.3 C 5.84 g/m*3 4.3 C 3.2 km/h
38 30-12-2013 03:05:00 4.1 C 5.82 g/m*3 4.1 C 3.2 km/h
39 30-12-2013 03:10:00 4 C 5.79 g/m*3 4 C 3.2 km/h
40 30-12-2013 03:15:00 4 C 5.79 g/m*3 2.44 C 6.4 km/h
41 30-12-2013 03:20:00 4 C 5.72 g/m*3 4 C 3.2 km/h
42 30-12-2013 03:25:00 3.8 C 5.71 g/m*3 3.8 C 4.8 km/h
43 30-12-2013 03:30:00 3.7 C 5.67 g/m*3 3.7 C 3.2 km/h
44 30-12-2013 03:35:00 3.7 C 5.73 g/m*3 3.7 C 3.2 km/h
45 30-12-2013 03:40:00 3.7 C 5.73 g/m*3 3.7 C 1.6 km/h
46 30-12-2013 03:45:00 3.7 C 5.73 g/m*3 3.7 C 3.2 km/h
47 30-12-2013 03:50:00 3.8 C 5.77 g/m*3 3.8 C 3.2 km/h
48 30-12-2013 03:55:00 3.9 C 5.75 g/m*3 2.32 C 6.4 km/h
49 30-12-2013 04:00:00 4 C 5.85 g/m*3 4 C 4.8 km/h
50 30-12-2013 04:05:00 4 C 5.85 g/m*3 4 C 3.2 km/h
Sensor: Nr:Datum:Temp:Abs-Feuchte:Windchill:Wind:
Aussen-T/F 51 30-12-2013 04:10:00 4.1 C 5.82 g/m*3 4.1 C 3.2 km/h
52 30-12-2013 04:15:00 4.2 C 5.8 g/m*3 1.77 C 9.7 km/h
53 30-12-2013 04:20:00 4.3 C 5.84 g/m*3 4.3 C 3.2 km/h
54 30-12-2013 04:25:00 4.3 C 5.84 g/m*3 4.3 C 0 km/h
55 30-12-2013 04:30:00 4.4 C 5.75 g/m*3 4.4 C 3.2 km/h
56 30-12-2013 04:35:00 4.5 C 5.78 g/m*3 4.5 C 3.2 km/h
57 30-12-2013 04:40:00 4.6 C 5.76 g/m*3 4.6 C 3.2 km/h
58 30-12-2013 04:45:00 4.6 C 5.76 g/m*3 4.6 C 3.2 km/h
59 30-12-2013 04:50:00 4.6 C 5.76 g/m*3 4.6 C 1.6 km/h
60 30-12-2013 04:55:00 4.6 C 5.76 g/m*3 4.6 C 4.8 km/h
61 30-12-2013 05:00:00 4.6 C 5.76 g/m*3 4.6 C 3.2 km/h
62 30-12-2013 05:05:00 4.7 C 5.73 g/m*3 4.7 C 4.8 km/h
63 30-12-2013 05:10:00 4.7 C 5.73 g/m*3 2.76 C 8.1 km/h
64 30-12-2013 05:15:00 4.8 C 5.7 g/m*3 4.8 C 3.2 km/h
65 30-12-2013 05:20:00 4.7 C 5.73 g/m*3 3.25 C 6.4 km/h
66 30-12-2013 05:25:00 4.7 C 5.66 g/m*3 4.7 C 3.2 km/h
67 30-12-2013 05:30:00 4.7 C 5.73 g/m*3 4.7 C 0 km/h
68 30-12-2013 05:35:00 4.7 C 5.8 g/m*3 4.7 C 1.6 km/h
69 30-12-2013 05:40:00 4.6 C 5.76 g/m*3 4.6 C 3.2 km/h
70 30-12-2013 05:45:00 4.6 C 5.76 g/m*3 4.6 C 0 km/h
71 30-12-2013 05:50:00 4.6 C 5.89 g/m*3 4.6 C 1.6 km/h
72 30-12-2013 05:55:00 4.6 C 5.89 g/m*3 4.6 C 1.6 km/h
73 30-12-2013 06:35:00 4.8 C 5.7 g/m*3 4.8 C 4.8 km/h
74 30-12-2013 06:40:00 4.9 C 5.67 g/m*3 4.9 C 3.2 km/h
75 30-12-2013 06:45:00 4.8 C 5.63 g/m*3 4.8 C 3.2 km/h
Sensor: Nr:Datum:Temp:Abs-Feuchte:Windchill:Wind:
Aussen-T/F 76 30-12-2013 06:50:00 4.8 C 5.7 g/m*3 4.8 C 0 km/h
77 30-12-2013 06:55:00 4.8 C 5.7 g/m*3 4.8 C 4.8 km/h
78 30-12-2013 07:00:00 4.8 C 5.63 g/m*3 3.36 C 6.4 km/h
79 30-12-2013 07:05:00 4.8 C 5.63 g/m*3 4.8 C 3.2 km/h
80 30-12-2013 07:10:00 4.8 C 5.63 g/m*3 4.8 C 0 km/h
81 30-12-2013 13:05:00 6 C 5.81 g/m*3 3.92 C 9.7 km/h
82 30-12-2013 13:10:00 6 C 5.81 g/m*3 6 C 3.2 km/h
83 30-12-2013 14:15:00 5.8 C 5.73 g/m*3 4.52 C 6.4 km/h
84 30-12-2013 14:20:00 5.8 C 5.73 g/m*3 5.8 C 3.2 km/h
85 30-12-2013 14:25:00 5.8 C 5.73 g/m*3 5.8 C 1.6 km/h
86 30-12-2013 14:30:00 5.8 C 5.73 g/m*3 5.8 C 4.8 km/h
87 30-12-2013 14:35:00 5.8 C 5.95 g/m*3 4.52 C 6.4 km/h
88 30-12-2013 14:40:00 5.7 C 5.91 g/m*3 5.7 C 0 km/h
89 30-12-2013 14:45:00 5.7 C 5.91 g/m*3 5.7 C 0 km/h
90 30-12-2013 15:40:00 4.7 C 5.86 g/m*3 4.7 C 3.2 km/h
91 30-12-2013 15:45:00 4.7 C 5.86 g/m*3 4.7 C 3.2 km/h
92 30-12-2013 15:50:00 4.7 C 5.86 g/m*3 4.7 C 3.2 km/h
93 30-12-2013 15:55:00 4.7 C 5.86 g/m*3 4.7 C 0 km/h
94 30-12-2013 16:00:00 4.2 C 5.8 g/m*3 4.2 C 1.6 km/h
95 30-12-2013 16:05:00 4.2 C 5.8 g/m*3 4.2 C 1.6 km/h
96 30-12-2013 18:30:00 4.1 C 5.76 g/m*3 4.1 C 4.8 km/h
97 30-12-2013 18:35:00 4.2 C 5.8 g/m*3 4.2 C 3.2 km/h
98 30-12-2013 18:40:00 4.2 C 5.8 g/m*3 4.2 C 0 km/h
99 30-12-2013 20:50:00 3.7 C 5.73 g/m*3 3.7 C 0 km/h
100 30-12-2013 20:55:00 3.7 C 5.73 g/m*3 3.7 C 0 km/h
Sensor: Nr:Datum:Temp:Abs-Feuchte:Windchill:Wind:
Aussen-T/F 101 30-12-2013 21:00:00 3.7 C 5.73 g/m*3 3.7 C 0 km/h
102 30-12-2013 21:05:00 3.7 C 5.73 g/m*3 3.7 C 0 km/h
103 30-12-2013 21:10:00 3.7 C 5.73 g/m*3 3.7 C 0 km/h
104 30-12-2013 21:15:00 3.7 C 5.73 g/m*3 3.7 C 0 km/h
105 30-12-2013 21:20:00 3.7 C 5.73 g/m*3 3.7 C 0 km/h
106 30-12-2013 21:25:00 3.7 C 5.73 g/m*3 3.7 C 0 km/h
107 30-12-2013 21:30:00 3.7 C 5.73 g/m*3 3.7 C 0 km/h
108 30-12-2013 21:35:00 3.7 C 5.73 g/m*3 3.7 C 0 km/h
109 30-12-2013 21:40:00 3.7 C 5.73 g/m*3 3.7 C 0 km/h
110 30-12-2013 21:45:00 3.7 C 5.73 g/m*3 3.7 C 0 km/h
111 30-12-2013 21:50:00 3.7 C 5.73 g/m*3 3.7 C 0 km/h
112 30-12-2013 21:55:00 3.8 C 5.77 g/m*3 3.8 C 0 km/h
113 30-12-2013 22:00:00 3.8 C 5.77 g/m*3 3.8 C 0 km/h
114 30-12-2013 22:05:00 3.8 C 5.77 g/m*3 3.8 C 0 km/h
115 30-12-2013 22:10:00 3.8 C 5.77 g/m*3 3.8 C 0 km/h
116 30-12-2013 22:15:00 3.8 C 5.77 g/m*3 3.8 C 1.6 km/h
117 30-12-2013 22:20:00 3.8 C 5.77 g/m*3 3.8 C 1.6 km/h
118 30-12-2013 22:25:00 3.8 C 5.77 g/m*3 3.8 C 0 km/h
119 30-12-2013 22:30:00 3.8 C 5.77 g/m*3 3.8 C 0 km/h
120 30-12-2013 22:35:00 3.8 C 5.77 g/m*3 3.8 C 0 km/h
121 30-12-2013 22:40:00 3.8 C 5.77 g/m*3 3.8 C 1.6 km/h
122 31-12-2013 01:45:00 3.4 C 5.56 g/m*3 3.4 C 3.2 km/h
123 31-12-2013 01:50:00 3.3 C 5.52 g/m*3 3.3 C 3.2 km/h
124 31-12-2013 01:55:00 3.3 C 5.52 g/m*3 3.3 C 3.2 km/h
125 31-12-2013 02:00:00 3.2 C 5.48 g/m*3 3.2 C 3.2 km/h
Sensor: Nr:Datum:Temp:Abs-Feuchte:Windchill:Wind:
Aussen-T/F 126 31-12-2013 02:05:00 3.2 C 5.48 g/m*3 3.2 C 3.2 km/h
127 31-12-2013 07:05:00 1.1 C 5.23 g/m*3 1.1 C 1.6 km/h
128 31-12-2013 07:10:00 1.1 C 4.96 g/m*3 1.1 C 1.6 km/h
129 31-12-2013 07:15:00 1.1 C 4.91 g/m*3 1.1 C 1.6 km/h
130 31-12-2013 07:20:00 1.1 C 4.96 g/m*3 1.1 C 3.2 km/h
131 31-12-2013 07:25:00 1 C 4.93 g/m*3 1 C 1.6 km/h
132 31-12-2013 07:30:00 1 C 4.93 g/m*3 1 C 0 km/h
133 31-12-2013 07:35:00 1 C 4.93 g/m*3 1 C 1.6 km/h
134 31-12-2013 07:40:00 1 C 4.93 g/m*3 1 C 3.2 km/h
135 31-12-2013 07:45:00 1 C 4.93 g/m*3 1 C 3.2 km/h
136 31-12-2013 07:50:00 0.9 C 4.9 g/m*3 0.9 C 1.6 km/h
137 31-12-2013 07:55:00 1 C 4.93 g/m*3 1 C 3.2 km/h
138 31-12-2013 08:00:00 1 C 4.93 g/m*3 1 C 0 km/h
139 31-12-2013 08:05:00 1 C 4.93 g/m*3 1 C 1.6 km/h
140 31-12-2013 08:10:00 1.1 C 4.96 g/m*3 1.1 C 0 km/h
141 31-12-2013 08:15:00 1.1 C 4.96 g/m*3 1.1 C 1.6 km/h
142 31-12-2013 08:20:00 1.1 C 4.96 g/m*3 1.1 C 0 km/h
143 31-12-2013 08:25:00 1 C 4.93 g/m*3 1 C 0 km/h
144 31-12-2013 08:30:00 1 C 4.93 g/m*3 1 C 0 km/h
145 31-12-2013 08:35:00 1 C 4.93 g/m*3 1 C 0 km/h
146 31-12-2013 08:40:00 1 C 4.93 g/m*3 1 C 0 km/h
147 31-12-2013 08:45:00 1.1 C 4.96 g/m*3 1.1 C 0 km/h
148 31-12-2013 08:50:00 1.2 C 5.05 g/m*3 1.2 C 1.6 km/h
149 31-12-2013 08:55:00 1.3 C 5.09 g/m*3 1.3 C 0 km/h
150 31-12-2013 09:00:00 1.3 C 5.09 g/m*3 1.3 C 0 km/h
Sensor: Nr:Datum:Temp:Abs-Feuchte:Windchill:Wind:
Aussen-T/F 151 31-12-2013 09:05:00 1.2 C 5 g/m*3 1.2 C 0 km/h
152 31-12-2013 09:10:00 1.2 C 5 g/m*3 1.2 C 0 km/h
153 31-12-2013 09:15:00 1.2 C 5 g/m*3 1.2 C 1.6 km/h
154 31-12-2013 09:20:00 1.1 C 4.96 g/m*3 1.1 C 0 km/h
155 31-12-2013 09:25:00 1.1 C 4.96 g/m*3 1.1 C 0 km/h
156 31-12-2013 09:30:00 1.1 C 4.96 g/m*3 1.1 C 0 km/h
157 31-12-2013 09:35:00 1.1 C 4.96 g/m*3 1.1 C 0 km/h
158 31-12-2013 09:40:00 1.1 C 5.02 g/m*3 1.1 C 0 km/h
159 31-12-2013 09:45:00 1.1 C 4.96 g/m*3 1.1 C 0 km/h
160 31-12-2013 09:50:00 1.1 C 5.02 g/m*3 1.1 C 0 km/h
161 31-12-2013 09:55:00 1.2 C 5.05 g/m*3 1.2 C 0 km/h
162 31-12-2013 10:00:00 1.2 C 5.05 g/m*3 1.2 C 0 km/h
163 31-12-2013 10:05:00 1.3 C 5.09 g/m*3 1.3 C 1.6 km/h
164 31-12-2013 10:10:00 1.4 C 5.12 g/m*3 1.4 C 0 km/h
165 31-12-2013 10:15:00 1.5 C 5.16 g/m*3 1.5 C 1.6 km/h
166 31-12-2013 10:20:00 1.6 C 5.19 g/m*3 1.6 C 0 km/h
167 31-12-2013 10:25:00 1.7 C 5.23 g/m*3 1.7 C 0 km/h
168 31-12-2013 10:30:00 1.8 C 5.26 g/m*3 1.8 C 0 km/h
169 31-12-2013 10:35:00 1.9 C 5.3 g/m*3 1.9 C 0 km/h
170 31-12-2013 10:40:00 2.1 C 5.37 g/m*3 2.1 C 0 km/h
171 31-12-2013 10:45:00 2.2 C 5.41 g/m*3 2.2 C 0 km/h
172 31-12-2013 10:50:00 2.3 C 5.44 g/m*3 2.3 C 0 km/h
173 31-12-2013 10:55:00 2.4 C 5.48 g/m*3 2.4 C 0 km/h
174 31-12-2013 11:00:00 2.5 C 5.52 g/m*3 2.5 C 0 km/h
175 31-12-2013 11:05:00 2.6 C 5.56 g/m*3 2.6 C 0 km/h
Sensor: Nr:Datum:Temp:Abs-Feuchte:Windchill:Wind:
Aussen-T/F 176 31-12-2013 11:10:00 2.8 C 5.57 g/m*3 2.8 C 0 km/h
177 31-12-2013 11:15:00 2.8 C 5.57 g/m*3 2.8 C 0 km/h
178 31-12-2013 11:20:00 2.8 C 5.57 g/m*3 2.8 C 3.2 km/h
179 31-12-2013 12:15:00 3.1 C 5.99 g/m*3 3.1 C 1.6 km/h
180 31-12-2013 12:20:00 3.1 C 5.99 g/m*3 3.1 C 3.2 km/h
181 31-12-2013 12:25:00 3.1 C 5.57 g/m*3 3.1 C 1.6 km/h
182 31-12-2013 12:30:00 3.1 C 5.57 g/m*3 3.1 C 3.2 km/h
183 31-12-2013 13:35:00 4.3 C 5.9 g/m*3 4.3 C 1.6 km/h
184 31-12-2013 13:40:00 4.3 C 5.9 g/m*3 4.3 C 1.6 km/h
185 31-12-2013 13:45:00 4.4 C 5.94 g/m*3 4.4 C 1.6 km/h
186 31-12-2013 13:50:00 4.4 C 5.94 g/m*3 4.4 C 0 km/h
187 31-12-2013 18:15:00 3.9 C 5.43 g/m*3 3.9 C 4.8 km/h
188 31-12-2013 18:20:00 3.9 C 5.37 g/m*3 3.9 C 4.8 km/h
189 31-12-2013 18:25:00 3.9 C 5.37 g/m*3 2.32 C 6.4 km/h
190 31-12-2013 18:30:00 4 C 5.4 g/m*3 0.34 C 16.1 km/h
191 31-12-2013 18:35:00 4.2 C 5.41 g/m*3 1.77 C 9.7 km/h
192 31-12-2013 18:40:00 4.3 C 5.38 g/m*3 1.24 C 12.9 km/h
193 31-12-2013 18:45:00 4.3 C 5.38 g/m*3 2.29 C 8.1 km/h
194 31-12-2013 18:50:00 4.4 C 5.42 g/m*3 2.9 C 6.4 km/h
195 31-12-2013 18:55:00 4.4 C 5.42 g/m*3 2.01 C 9.7 km/h
196 31-12-2013 19:00:00 4.4 C 5.35 g/m*3 2.9 C 6.4 km/h
197 31-12-2013 19:05:00 4.5 C 5.39 g/m*3 2.13 C 9.7 km/h
198 31-12-2013 19:10:00 4.6 C 5.43 g/m*3 3.13 C 6.4 km/h
199 31-12-2013 19:15:00 4.6 C 5.36 g/m*3 1.91 C 11.3 km/h
200 31-12-2013 19:20:00 4.7 C 5.4 g/m*3 2.37 C 9.7 km/h
Sensor: Nr:Datum:Temp:Abs-Feuchte:Windchill:Wind:
Aussen-T/F 201 31-12-2013 19:25:00 4.7 C 5.4 g/m*3 2.03 C 11.3 km/h
202 31-12-2013 19:30:00 4.6 C 5.36 g/m*3 3.13 C 6.4 km/h
203 31-12-2013 19:35:00 4.6 C 5.36 g/m*3 4.6 C 4.8 km/h
204 31-12-2013 19:40:00 4.6 C 5.36 g/m*3 3.13 C 6.4 km/h
205 31-12-2013 19:45:00 4.6 C 5.36 g/m*3 2.64 C 8.1 km/h
206 31-12-2013 19:50:00 4.7 C 5.4 g/m*3 2.03 C 11.3 km/h
207 31-12-2013 19:55:00 4.7 C 5.4 g/m*3 2.76 C 8.1 km/h
208 31-12-2013 20:00:00 4.6 C 5.36 g/m*3 2.64 C 8.1 km/h
209 31-12-2013 20:05:00 4.6 C 5.43 g/m*3 3.13 C 6.4 km/h
210 31-12-2013 20:10:00 4.5 C 5.39 g/m*3 2.52 C 8.1 km/h
211 31-12-2013 20:15:00 4.4 C 5.35 g/m*3 2.4 C 8.1 km/h
212 31-12-2013 20:20:00 4.4 C 5.35 g/m*3 2.9 C 6.4 km/h
213 31-12-2013 20:25:00 4.4 C 5.35 g/m*3 2.4 C 8.1 km/h
214 31-12-2013 20:30:00 4.4 C 5.42 g/m*3 2.9 C 6.4 km/h
215 31-12-2013 20:35:00 4.3 C 5.38 g/m*3 4.3 C 3.2 km/h
216 31-12-2013 20:40:00 4.2 C 5.41 g/m*3 4.2 C 3.2 km/h
217 31-12-2013 20:45:00 4.2 C 5.35 g/m*3 4.2 C 3.2 km/h
218 31-12-2013 20:50:00 4.2 C 5.41 g/m*3 4.2 C 3.2 km/h
219 31-12-2013 20:55:00 4.1 C 5.44 g/m*3 4.1 C 3.2 km/h
220 31-12-2013 21:00:00 4 C 5.4 g/m*3 4 C 1.6 km/h
221 31-12-2013 21:05:00 3.9 C 5.37 g/m*3 3.9 C 3.2 km/h
222 31-12-2013 21:10:00 3.9 C 5.37 g/m*3 3.9 C 3.2 km/h
223 31-12-2013 21:15:00 4 C 5.4 g/m*3 4 C 3.2 km/h
224 31-12-2013 21:20:00 3.9 C 5.43 g/m*3 3.9 C 0 km/h
225 31-12-2013 21:25:00 3.9 C 5.43 g/m*3 3.9 C 0 km/h
Sensor: Nr:Datum:Temp:Abs-Feuchte:Windchill:Wind:
Aussen-T/F 226 31-12-2013 21:30:00 3.9 C 5.43 g/m*3 3.9 C 4.8 km/h
227 31-12-2013 21:35:00 3.8 C 5.4 g/m*3 3.8 C 1.6 km/h
228 31-12-2013 21:40:00 3.9 C 5.37 g/m*3 3.9 C 3.2 km/h
229 31-12-2013 21:45:00 3.9 C 5.37 g/m*3 3.9 C 1.6 km/h
230 31-12-2013 21:50:00 4 C 5.4 g/m*3 4 C 4.8 km/h
231 31-12-2013 21:55:00 4 C 5.34 g/m*3 1.18 C 11.3 km/h
232 31-12-2013 22:00:00 4.2 C 5.35 g/m*3 1.77 C 9.7 km/h
233 31-12-2013 22:05:00 4.2 C 5.35 g/m*3 2.17 C 8.1 km/h
234 31-12-2013 22:10:00 4.2 C 5.35 g/m*3 4.2 C 4.8 km/h
235 31-12-2013 22:15:00 4.1 C 5.38 g/m*3 2.55 C 6.4 km/h
236 31-12-2013 22:20:00 4.1 C 5.38 g/m*3 2.55 C 6.4 km/h
237 31-12-2013 22:25:00 3.9 C 5.31 g/m*3 3.9 C 3.2 km/h
238 31-12-2013 22:30:00 3.9 C 5.31 g/m*3 3.9 C 3.2 km/h
239 31-12-2013 22:35:00 3.7 C 5.23 g/m*3 3.7 C 3.2 km/h
240 31-12-2013 22:40:00 3.5 C 5.23 g/m*3 3.5 C 1.6 km/h
241 31-12-2013 22:45:00 3.3 C 5.22 g/m*3 3.3 C 3.2 km/h
242 31-12-2013 22:50:00 3.3 C 5.16 g/m*3 3.3 C 3.2 km/h
243 31-12-2013 22:55:00 3.2 C 5.18 g/m*3 3.2 C 1.6 km/h
244 31-12-2013 23:00:00 3.1 C 5.21 g/m*3 3.1 C 3.2 km/h
245 31-12-2013 23:05:00 2.9 C 5.2 g/m*3 2.9 C 3.2 km/h
246 31-12-2013 23:10:00 2.8 C 5.22 g/m*3 2.8 C 3.2 km/h
247 31-12-2013 23:15:00 2.7 C 5.19 g/m*3 2.7 C 1.6 km/h
248 31-12-2013 23:20:00 2.8 C 5.28 g/m*3 2.8 C 3.2 km/h
249 31-12-2013 23:25:00 2.8 C 5.28 g/m*3 2.8 C 1.6 km/h
250 31-12-2013 23:30:00 2.8 C 5.22 g/m*3 2.8 C 1.6 km/h
Sensor: Nr:Datum:Temp:Abs-Feuchte:Windchill:Wind:
Aussen-T/F 251 31-12-2013 23:35:00 2.8 C 5.28 g/m*3 2.8 C 0 km/h
252 31-12-2013 23:40:00 2.7 C 5.24 g/m*3 2.7 C 3.2 km/h
253 31-12-2013 23:45:00 2.7 C 5.24 g/m*3 2.7 C 1.6 km/h
254 31-12-2013 23:50:00 2.6 C 5.21 g/m*3 2.6 C 1.6 km/h
255 31-12-2013 23:55:00 2.6 C 5.21 g/m*3 2.6 C 1.6 km/h
256 01-01-2014 00:00:00 2.6 C 5.21 g/m*3 2.6 C 1.6 km/h
257 01-01-2014 00:05:00 2.6 C 5.21 g/m*3 2.6 C 1.6 km/h
258 01-01-2014 00:10:00 2.7 C 5.19 g/m*3 2.7 C 1.6 km/h
259 01-01-2014 00:15:00 2.7 C 5.19 g/m*3 2.7 C 3.2 km/h
260 01-01-2014 00:20:00 2.7 C 5.19 g/m*3 2.7 C 0 km/h
261 01-01-2014 00:25:00 2.7 C 5.19 g/m*3 2.7 C 1.6 km/h
262 01-01-2014 00:30:00 2.7 C 5.19 g/m*3 2.7 C 0 km/h
263 01-01-2014 00:35:00 2.6 C 5.15 g/m*3 2.6 C 1.6 km/h
264 01-01-2014 00:40:00 2.6 C 5.15 g/m*3 2.6 C 1.6 km/h
265 01-01-2014 00:45:00 2.6 C 5.21 g/m*3 2.6 C 0 km/h
266 01-01-2014 00:50:00 2.6 C 5.21 g/m*3 2.6 C 3.2 km/h
267 01-01-2014 00:55:00 2.7 C 5.24 g/m*3 2.7 C 1.6 km/h
268 01-01-2014 01:00:00 2.7 C 5.24 g/m*3 2.7 C 3.2 km/h
269 01-01-2014 01:05:00 2.7 C 5.24 g/m*3 2.7 C 0 km/h
270 01-01-2014 01:10:00 2.7 C 5.24 g/m*3 2.7 C 0 km/h
271 01-01-2014 01:15:00 2.8 C 5.28 g/m*3 2.8 C 1.6 km/h
272 01-01-2014 01:20:00 2.8 C 5.28 g/m*3 2.8 C 3.2 km/h
273 01-01-2014 01:25:00 2.9 C 5.32 g/m*3 2.9 C 1.6 km/h
274 01-01-2014 01:30:00 3 C 5.35 g/m*3 3 C 0 km/h
275 01-01-2014 01:35:00 3.1 C 5.39 g/m*3 3.1 C 0 km/h
Sensor: Nr:Datum:Temp:Abs-Feuchte:Windchill:Wind:
Aussen-T/F 276 01-01-2014 01:40:00 3.2 C 5.42 g/m*3 3.2 C 1.6 km/h
277 01-01-2014 01:45:00 3.3 C 5.46 g/m*3 3.3 C 0 km/h
278 01-01-2014 01:50:00 3.4 C 5.5 g/m*3 3.4 C 1.6 km/h
279 01-01-2014 01:55:00 3.4 C 5.5 g/m*3 3.4 C 1.6 km/h
280 01-01-2014 02:00:00 3.4 C 5.44 g/m*3 3.4 C 3.2 km/h
281 01-01-2014 02:05:00 3.4 C 5.44 g/m*3 3.4 C 1.6 km/h
282 01-01-2014 02:10:00 3.4 C 5.44 g/m*3 3.4 C 0 km/h
283 01-01-2014 02:15:00 3.4 C 5.44 g/m*3 3.4 C 1.6 km/h
284 01-01-2014 02:20:00 3.4 C 5.44 g/m*3 3.4 C 0 km/h
285 01-01-2014 02:25:00 3.4 C 5.31 g/m*3 1.23 C 8.1 km/h
286 01-01-2014 02:30:00 3.7 C 5.48 g/m*3 3.7 C 3.2 km/h
287 01-01-2014 02:35:00 3.8 C 5.46 g/m*3 3.8 C 3.2 km/h
288 01-01-2014 02:40:00 3.9 C 5.49 g/m*3 3.9 C 1.6 km/h
289 01-01-2014 02:45:00 4 C 5.53 g/m*3 4 C 1.6 km/h
290 01-01-2014 02:50:00 4.1 C 5.5 g/m*3 2.55 C 6.4 km/h
291 01-01-2014 02:55:00 4.2 C 5.61 g/m*3 4.2 C 3.2 km/h
292 01-01-2014 03:00:00 4.2 C 5.48 g/m*3 4.2 C 4.8 km/h
293 01-01-2014 03:05:00 4.4 C 5.55 g/m*3 4.4 C 3.2 km/h
294 01-01-2014 03:10:00 4.4 C 5.62 g/m*3 4.4 C 0 km/h
295 01-01-2014 03:15:00 4.4 C 5.68 g/m*3 4.4 C 1.6 km/h
296 01-01-2014 03:20:00 4.3 C 5.71 g/m*3 4.3 C 1.6 km/h
297 01-01-2014 03:25:00 4.3 C 5.77 g/m*3 4.3 C 3.2 km/h
298 01-01-2014 03:30:00 4.3 C 5.77 g/m*3 4.3 C 1.6 km/h
299 01-01-2014 03:35:00 4.3 C 5.71 g/m*3 4.3 C 1.6 km/h
300 01-01-2014 03:40:00 4.3 C 5.77 g/m*3 4.3 C 1.6 km/h
Sensor: Nr:Datum:Temp:Abs-Feuchte:Windchill:Wind:
Aussen-T/F 301 01-01-2014 03:45:00 4.4 C 5.81 g/m*3 4.4 C 1.6 km/h
302 01-01-2014 03:50:00 4.5 C 5.78 g/m*3 4.5 C 1.6 km/h
303 01-01-2014 03:55:00 4.6 C 5.82 g/m*3 4.6 C 1.6 km/h
304 01-01-2014 04:00:00 4.6 C 5.89 g/m*3 4.6 C 0 km/h
305 01-01-2014 04:05:00 4.5 C 5.92 g/m*3 4.5 C 3.2 km/h
306 01-01-2014 04:10:00 4.5 C 5.92 g/m*3 4.5 C 3.2 km/h
307 01-01-2014 04:15:00 4.5 C 5.98 g/m*3 4.5 C 0 km/h
308 01-01-2014 04:20:00 4.5 C 5.98 g/m*3 4.5 C 3.2 km/h
309 01-01-2014 04:25:00 4.6 C 6.02 g/m*3 4.6 C 3.2 km/h
310 01-01-2014 04:30:00 4.6 C 6.02 g/m*3 4.6 C 1.6 km/h
311 01-01-2014 04:35:00 4.7 C 6 g/m*3 4.7 C 1.6 km/h
312 01-01-2014 04:40:00 4.7 C 6 g/m*3 4.7 C 0 km/h
313 01-01-2014 04:45:00 4.7 C 6 g/m*3 4.7 C 0 km/h
314 01-01-2014 04:50:00 4.7 C 6 g/m*3 4.7 C 0 km/h
315 01-01-2014 04:55:00 4.7 C 6 g/m*3 4.7 C 1.6 km/h
316 01-01-2014 05:00:00 4.7 C 6.06 g/m*3 4.7 C 0 km/h
317 01-01-2014 05:05:00 4.7 C 6 g/m*3 4.7 C 4.8 km/h
318 01-01-2014 05:10:00 4.8 C 6.04 g/m*3 4.8 C 3.2 km/h
319 01-01-2014 05:15:00 5 C 6.12 g/m*3 5 C 0 km/h
320 01-01-2014 05:20:00 5.1 C 6.16 g/m*3 5.1 C 0 km/h
321 01-01-2014 05:25:00 5.1 C 6.09 g/m*3 3.71 C 6.4 km/h
322 01-01-2014 05:30:00 5.2 C 6.13 g/m*3 5.2 C 0 km/h
323 01-01-2014 05:35:00 5.3 C 6.17 g/m*3 5.3 C 3.2 km/h
324 01-01-2014 05:40:00 5.4 C 6.14 g/m*3 5.4 C 3.2 km/h
325 01-01-2014 05:45:00 5.6 C 6.22 g/m*3 5.6 C 0 km/h
Sensor: Nr:Datum:Temp:Abs-Feuchte:Windchill:Wind:
Aussen-T/F 326 01-01-2014 05:50:00 5.6 C 6.22 g/m*3 5.6 C 0 km/h
327 01-01-2014 05:55:00 5.5 C 6.18 g/m*3 5.5 C 1.6 km/h
328 01-01-2014 06:00:00 5.5 C 6.18 g/m*3 5.5 C 0 km/h
329 01-01-2014 06:05:00 5.5 C 6.18 g/m*3 5.5 C 0 km/h
330 01-01-2014 06:10:00 5.5 C 6.25 g/m*3 5.5 C 0 km/h
331 01-01-2014 06:15:00 5.4 C 6.28 g/m*3 5.4 C 0 km/h
332 01-01-2014 06:20:00 5.4 C 6.35 g/m*3 5.4 C 0 km/h
333 01-01-2014 06:25:00 5.4 C 6.35 g/m*3 5.4 C 0 km/h
334 01-01-2014 06:30:00 5.4 C 6.42 g/m*3 5.4 C 0 km/h
335 01-01-2014 06:35:00 5.4 C 6.42 g/m*3 5.4 C 1.6 km/h
336 01-01-2014 06:40:00 5.5 C 6.46 g/m*3 5.5 C 3.2 km/h
337 01-01-2014 06:45:00 5.6 C 6.5 g/m*3 5.6 C 1.6 km/h
338 01-01-2014 06:50:00 5.6 C 6.5 g/m*3 5.6 C 0 km/h
339 01-01-2014 06:55:00 5.6 C 6.5 g/m*3 5.6 C 1.6 km/h
340 01-01-2014 07:00:00 5.5 C 6.46 g/m*3 5.5 C 0 km/h
341 01-01-2014 07:05:00 5.5 C 6.46 g/m*3 5.5 C 0 km/h
342 01-01-2014 07:10:00 5.5 C 6.46 g/m*3 5.5 C 3.2 km/h
343 01-01-2014 07:15:00 5.6 C 6.5 g/m*3 5.6 C 1.6 km/h
344 01-01-2014 07:20:00 5.6 C 6.5 g/m*3 5.6 C 0 km/h
345 01-01-2014 07:25:00 5.6 C 6.5 g/m*3 5.6 C 0 km/h
346 01-01-2014 07:30:00 5.6 C 6.57 g/m*3 5.6 C 0 km/h
347 01-01-2014 07:35:00 5.6 C 6.57 g/m*3 5.6 C 0 km/h
348 01-01-2014 07:40:00 5.6 C 6.57 g/m*3 5.6 C 0 km/h
349 01-01-2014 07:45:00 5.6 C 6.57 g/m*3 5.6 C 0 km/h
350 01-01-2014 07:50:00 5.6 C 6.57 g/m*3 5.6 C 0 km/h
Sensor: Nr:Datum:Temp:Abs-Feuchte:Windchill:Wind:
Aussen-T/F 351 01-01-2014 07:55:00 5.6 C 6.57 g/m*3 5.6 C 1.6 km/h
352 01-01-2014 08:00:00 5.6 C 6.57 g/m*3 5.6 C 1.6 km/h
353 01-01-2014 08:05:00 5.5 C 6.53 g/m*3 5.5 C 0 km/h
354 01-01-2014 08:10:00 5.4 C 6.49 g/m*3 5.4 C 3.2 km/h
355 01-01-2014 08:15:00 5.2 C 6.33 g/m*3 5.2 C 1.6 km/h
356 01-01-2014 08:20:00 5.1 C 6.36 g/m*3 5.1 C 1.6 km/h
357 01-01-2014 08:25:00 5 C 6.32 g/m*3 5 C 1.6 km/h
358 01-01-2014 08:30:00 4.8 C 6.24 g/m*3 4.8 C 3.2 km/h
359 01-01-2014 08:35:00 4.7 C 6.19 g/m*3 4.7 C 3.2 km/h
360 01-01-2014 08:40:00 4.6 C 6.15 g/m*3 4.6 C 4.8 km/h
361 01-01-2014 08:45:00 4.7 C 6.26 g/m*3 4.7 C 3.2 km/h
362 01-01-2014 08:50:00 4.8 C 6.3 g/m*3 4.8 C 3.2 km/h
363 01-01-2014 08:55:00 4.9 C 6.35 g/m*3 4.9 C 0 km/h
364 01-01-2014 09:00:00 4.9 C 6.35 g/m*3 4.9 C 3.2 km/h
365 01-01-2014 09:05:00 4.9 C 6.35 g/m*3 4.9 C 0 km/h
366 01-01-2014 09:25:00 4.8 C 6.71 g/m*3 4.8 C 0 km/h
367 01-01-2014 09:30:00 5.1 C 6.43 g/m*3 5.1 C 4.8 km/h
368 01-01-2014 09:35:00 5.1 C 6.43 g/m*3 5.1 C 1.6 km/h
369 01-01-2014 09:40:00 5.2 C 6.47 g/m*3 5.2 C 0 km/h
370 01-01-2014 09:45:00 5.2 C 6.47 g/m*3 5.2 C 1.6 km/h
371 01-01-2014 09:50:00 5.3 C 6.52 g/m*3 5.3 C 0 km/h
372 01-01-2014 09:55:00 5.4 C 6.56 g/m*3 5.4 C 0 km/h
373 01-01-2014 10:00:00 5.4 C 6.56 g/m*3 5.4 C 0 km/h
374 01-01-2014 10:05:00 5.7 C 6.62 g/m*3 5.7 C 0 km/h
375 01-01-2014 10:10:00 5.9 C 6.71 g/m*3 5.9 C 0 km/h
Sensor: Nr:Datum:Temp:Abs-Feuchte:Windchill:Wind:
Aussen-T/F 376 01-01-2014 10:15:00 6 C 6.6 g/m*3 6 C 1.6 km/h
377 01-01-2014 10:20:00 6.2 C 6.62 g/m*3 6.2 C 3.2 km/h
378 01-01-2014 10:25:00 6.4 C 6.71 g/m*3 6.4 C 1.6 km/h
379 01-01-2014 10:30:00 6.6 C 6.72 g/m*3 6.6 C 1.6 km/h
380 01-01-2014 10:35:00 6.7 C 6.76 g/m*3 6.7 C 3.2 km/h
381 01-01-2014 10:40:00 6.7 C 6.69 g/m*3 6.7 C 0 km/h
382 01-01-2014 10:45:00 6.7 C 6.69 g/m*3 6.7 C 3.2 km/h
383 01-01-2014 10:50:00 6.8 C 6.73 g/m*3 6.8 C 1.6 km/h
384 01-01-2014 10:55:00 6.8 C 6.73 g/m*3 6.8 C 3.2 km/h
385 01-01-2014 11:00:00 6.7 C 6.69 g/m*3 5.11 C 8.1 km/h
386 01-01-2014 11:05:00 6.7 C 6.69 g/m*3 6.7 C 1.6 km/h
387 01-01-2014 11:10:00 6.7 C 6.69 g/m*3 6.7 C 1.6 km/h
388 01-01-2014 11:15:00 6.8 C 6.73 g/m*3 6.8 C 3.2 km/h
389 01-01-2014 11:20:00 6.9 C 6.77 g/m*3 6.9 C 0 km/h
390 01-01-2014 11:25:00 7.1 C 6.86 g/m*3 7.1 C 4.8 km/h
391 01-01-2014 11:30:00 7.1 C 6.86 g/m*3 7.1 C 3.2 km/h
392 01-01-2014 11:35:00 7.2 C 6.91 g/m*3 7.2 C 4.8 km/h
393 01-01-2014 11:40:00 7.3 C 6.95 g/m*3 7.3 C 1.6 km/h
394 01-01-2014 11:45:00 7.3 C 6.87 g/m*3 7.3 C 1.6 km/h
395 01-01-2014 11:50:00 7.3 C 6.79 g/m*3 7.3 C 0 km/h
396 01-01-2014 11:55:00 7.2 C 6.83 g/m*3 7.2 C 0 km/h
397 01-01-2014 12:00:00 7 C 6.82 g/m*3 7 C 0 km/h
398 01-01-2014 12:05:00 6.8 C 6.88 g/m*3 6.8 C 0 km/h
399 01-01-2014 12:10:00 6.7 C 6.84 g/m*3 6.7 C 1.6 km/h
400 01-01-2014 12:15:00 6.6 C 6.87 g/m*3 6.6 C 1.6 km/h
Sensor: Nr:Datum:Temp:Abs-Feuchte:Windchill:Wind:
Aussen-T/F 401 01-01-2014 12:20:00 6.7 C 6.91 g/m*3 6.7 C 3.2 km/h
402 01-01-2014 12:25:00 6.7 C 6.91 g/m*3 6.7 C 1.6 km/h
403 01-01-2014 12:30:00 6.7 C 6.91 g/m*3 6.7 C 3.2 km/h
404 01-01-2014 12:35:00 6.8 C 6.88 g/m*3 6.8 C 0 km/h
405 01-01-2014 12:40:00 6.9 C 6.77 g/m*3 5.79 C 6.4 km/h
406 01-01-2014 12:45:00 7.1 C 6.63 g/m*3 6.02 C 6.4 km/h
407 01-01-2014 12:50:00 7.6 C 6.61 g/m*3 6.6 C 6.4 km/h
408 01-01-2014 12:55:00 7.9 C 6.74 g/m*3 7.9 C 4.8 km/h
409 01-01-2014 13:00:00 8.2 C 6.62 g/m*3 7.29 C 6.4 km/h
410 01-01-2014 13:05:00 8.4 C 6.79 g/m*3 8.4 C 3.2 km/h
411 01-01-2014 13:10:00 8.6 C 6.62 g/m*3 8.6 C 1.6 km/h
412 01-01-2014 13:15:00 8.7 C 6.57 g/m*3 7.46 C 8.1 km/h
413 01-01-2014 13:20:00 8.8 C 6.61 g/m*3 7.98 C 6.4 km/h
414 01-01-2014 13:25:00 8.8 C 6.7 g/m*3 8.8 C 1.6 km/h
415 01-01-2014 13:30:00 8.8 C 6.79 g/m*3 7.98 C 6.4 km/h
416 01-01-2014 13:35:00 8.8 C 6.7 g/m*3 8.8 C 4.8 km/h
417 01-01-2014 13:40:00 8.8 C 6.7 g/m*3 8.8 C 3.2 km/h
418 01-01-2014 13:45:00 8.8 C 6.7 g/m*3 8.8 C 1.6 km/h
419 01-01-2014 13:50:00 8.8 C 6.79 g/m*3 8.8 C 1.6 km/h
420 01-01-2014 13:55:00 8.8 C 6.79 g/m*3 8.8 C 4.8 km/h
421 01-01-2014 14:00:00 8.8 C 6.7 g/m*3 8.8 C 4.8 km/h
422 01-01-2014 14:05:00 8.8 C 6.79 g/m*3 8.8 C 3.2 km/h
423 01-01-2014 14:10:00 8.8 C 6.7 g/m*3 8.8 C 1.6 km/h
424 01-01-2014 14:15:00 8.8 C 6.79 g/m*3 8.8 C 4.8 km/h
425 01-01-2014 14:20:00 8.9 C 6.75 g/m*3 7.37 C 9.7 km/h
Sensor: Nr:Datum:Temp:Abs-Feuchte:Windchill:Wind:
Aussen-T/F 426 01-01-2014 14:25:00 8.9 C 6.83 g/m*3 8.9 C 3.2 km/h
427 01-01-2014 14:30:00 8.9 C 6.75 g/m*3 8.9 C 4.8 km/h
428 01-01-2014 14:35:00 8.9 C 6.83 g/m*3 7.69 C 8.1 km/h
429 01-01-2014 14:40:00 8.8 C 6.79 g/m*3 7.98 C 6.4 km/h
430 01-01-2014 14:45:00 8.7 C 6.75 g/m*3 8.7 C 4.8 km/h
431 01-01-2014 14:50:00 8.6 C 6.87 g/m*3 8.6 C 0 km/h
432 01-01-2014 14:55:00 8.5 C 6.92 g/m*3 8.5 C 4.8 km/h
433 01-01-2014 15:00:00 8.6 C 6.79 g/m*3 8.6 C 4.8 km/h
434 01-01-2014 15:05:00 8.7 C 6.75 g/m*3 8.7 C 1.6 km/h
435 01-01-2014 15:10:00 8.7 C 6.92 g/m*3 8.7 C 3.2 km/h
436 01-01-2014 15:15:00 8.7 C 6.83 g/m*3 8.7 C 3.2 km/h
437 01-01-2014 15:20:00 8.6 C 6.96 g/m*3 8.6 C 3.2 km/h
438 01-01-2014 15:25:00 8.5 C 6.83 g/m*3 8.5 C 1.6 km/h
439 01-01-2014 15:30:00 8.4 C 6.87 g/m*3 8.4 C 3.2 km/h
440 01-01-2014 15:35:00 8.2 C 6.78 g/m*3 8.2 C 1.6 km/h
441 01-01-2014 15:40:00 8.1 C 6.74 g/m*3 8.1 C 4.8 km/h
442 01-01-2014 15:45:00 8.1 C 6.82 g/m*3 8.1 C 4.8 km/h
443 01-01-2014 15:50:00 8.1 C 6.82 g/m*3 8.1 C 0 km/h
444 01-01-2014 15:55:00 8 C 6.78 g/m*3 8 C 1.6 km/h
445 01-01-2014 16:00:00 7.8 C 6.77 g/m*3 7.8 C 3.2 km/h
446 01-01-2014 16:05:00 7.7 C 6.81 g/m*3 7.7 C 0 km/h
447 01-01-2014 16:10:00 7.6 C 6.77 g/m*3 7.6 C 1.6 km/h
448 01-01-2014 16:15:00 7.6 C 6.77 g/m*3 7.6 C 4.8 km/h
449 01-01-2014 16:20:00 7.5 C 6.72 g/m*3 7.5 C 4.8 km/h
450 01-01-2014 16:25:00 7.6 C 6.77 g/m*3 7.6 C 4.8 km/h
Sensor: Nr:Datum:Temp:Abs-Feuchte:Windchill:Wind:
Aussen-T/F 451 01-01-2014 16:30:00 7.6 C 6.77 g/m*3 7.6 C 3.2 km/h
452 01-01-2014 16:35:00 7.6 C 6.77 g/m*3 7.6 C 4.8 km/h
453 01-01-2014 16:40:00 7.5 C 6.72 g/m*3 5.7 C 9.7 km/h
454 01-01-2014 16:45:00 7.5 C 6.72 g/m*3 7.5 C 4.8 km/h
455 01-01-2014 16:50:00 7.6 C 6.77 g/m*3 7.6 C 3.2 km/h
456 01-01-2014 16:55:00 7.6 C 6.77 g/m*3 5.82 C 9.7 km/h
457 01-01-2014 17:00:00 7.7 C 6.81 g/m*3 6.28 C 8.1 km/h
458 01-01-2014 17:05:00 7.8 C 6.77 g/m*3 6.83 C 6.4 km/h
459 01-01-2014 17:10:00 7.8 C 6.86 g/m*3 6.4 C 8.1 km/h
460 01-01-2014 17:15:00 7.8 C 6.86 g/m*3 7.8 C 4.8 km/h
461 01-01-2014 17:20:00 7.9 C 6.9 g/m*3 7.9 C 4.8 km/h
462 01-01-2014 17:25:00 7.8 C 6.86 g/m*3 7.8 C 3.2 km/h
463 01-01-2014 17:30:00 7.8 C 6.86 g/m*3 7.8 C 3.2 km/h
464 01-01-2014 17:35:00 7.8 C 6.86 g/m*3 7.8 C 4.8 km/h
465 01-01-2014 17:40:00 7.8 C 6.86 g/m*3 7.8 C 3.2 km/h
466 01-01-2014 17:45:00 7.8 C 6.94 g/m*3 6.4 C 8.1 km/h
467 01-01-2014 17:50:00 7.8 C 6.94 g/m*3 6.4 C 8.1 km/h
468 01-01-2014 17:55:00 7.8 C 6.94 g/m*3 6.83 C 6.4 km/h
469 01-01-2014 18:00:00 7.8 C 7.02 g/m*3 6.83 C 6.4 km/h
470 01-01-2014 18:05:00 7.8 C 6.94 g/m*3 7.8 C 3.2 km/h
471 01-01-2014 18:10:00 7.8 C 6.94 g/m*3 5.51 C 12.9 km/h
472 01-01-2014 18:15:00 7.9 C 6.98 g/m*3 6.52 C 8.1 km/h
473 01-01-2014 18:20:00 7.9 C 6.98 g/m*3 7.9 C 4.8 km/h
474 01-01-2014 18:25:00 7.9 C 6.98 g/m*3 6.52 C 8.1 km/h
475 01-01-2014 18:30:00 7.9 C 6.98 g/m*3 6.52 C 8.1 km/h
Sensor: Nr:Datum:Temp:Abs-Feuchte:Windchill:Wind:
Aussen-T/F 476 01-01-2014 18:35:00 8 C 7.03 g/m*3 6.3 C 9.7 km/h
477 01-01-2014 18:40:00 8.1 C 6.99 g/m*3 6.42 C 9.7 km/h
478 01-01-2014 18:45:00 8.1 C 6.99 g/m*3 7.17 C 6.4 km/h
479 01-01-2014 18:50:00 8.1 C 6.99 g/m*3 7.17 C 6.4 km/h
480 01-01-2014 18:55:00 8.1 C 6.99 g/m*3 8.1 C 4.8 km/h
481 01-01-2014 19:00:00 8.1 C 6.91 g/m*3 6.42 C 9.7 km/h
482 01-01-2014 19:05:00 8.1 C 6.91 g/m*3 5.64 C 14.5 km/h
483 01-01-2014 19:10:00 8.2 C 6.95 g/m*3 8.2 C 4.8 km/h
484 01-01-2014 19:15:00 8.2 C 6.95 g/m*3 6.87 C 8.1 km/h
485 01-01-2014 19:20:00 8.2 C 6.95 g/m*3 8.2 C 3.2 km/h
486 01-01-2014 19:25:00 8.1 C 6.91 g/m*3 8.1 C 3.2 km/h
487 01-01-2014 19:30:00 8.1 C 6.91 g/m*3 6.75 C 8.1 km/h
488 01-01-2014 19:35:00 8.1 C 6.91 g/m*3 8.1 C 3.2 km/h
489 01-01-2014 19:40:00 8.1 C 6.82 g/m*3 6.75 C 8.1 km/h
490 01-01-2014 19:45:00 8.2 C 6.95 g/m*3 8.2 C 0 km/h
491 01-01-2014 19:50:00 8.2 C 6.95 g/m*3 7.29 C 6.4 km/h
492 01-01-2014 19:55:00 8.2 C 6.87 g/m*3 8.2 C 4.8 km/h
493 01-01-2014 20:00:00 8.2 C 6.95 g/m*3 8.2 C 3.2 km/h
494 01-01-2014 20:05:00 8.1 C 6.91 g/m*3 8.1 C 3.2 km/h
495 01-01-2014 20:10:00 8.1 C 6.91 g/m*3 6.75 C 8.1 km/h
496 01-01-2014 20:15:00 8.1 C 6.99 g/m*3 7.17 C 6.4 km/h
497 01-01-2014 20:20:00 7.9 C 6.9 g/m*3 7.9 C 1.6 km/h
498 01-01-2014 20:25:00 7.7 C 6.89 g/m*3 7.7 C 4.8 km/h
499 01-01-2014 20:30:00 7.6 C 6.93 g/m*3 7.6 C 4.8 km/h
500 01-01-2014 20:35:00 7.7 C 6.97 g/m*3 7.7 C 3.2 km/h
Sensor: Nr:Datum:Temp:Abs-Feuchte:Windchill:Wind:
Aussen-T/F 501 01-01-2014 20:40:00 7.7 C 6.89 g/m*3 7.7 C 4.8 km/h
502 01-01-2014 20:45:00 7.9 C 6.98 g/m*3 7.9 C 4.8 km/h
503 01-01-2014 20:50:00 7.9 C 6.98 g/m*3 7.9 C 4.8 km/h
504 01-01-2014 20:55:00 8.1 C 6.91 g/m*3 6.75 C 8.1 km/h
505 01-01-2014 21:00:00 8.4 C 6.96 g/m*3 6.49 C 11.3 km/h
506 01-01-2014 21:05:00 8.5 C 7 g/m*3 6.9 C 9.7 km/h
507 01-01-2014 21:10:00 8.6 C 6.96 g/m*3 7.34 C 8.1 km/h
508 01-01-2014 21:15:00 8.6 C 6.96 g/m*3 8.6 C 4.8 km/h
509 01-01-2014 21:20:00 8.7 C 7.01 g/m*3 8.7 C 4.8 km/h
510 01-01-2014 21:25:00 8.7 C 7.01 g/m*3 8.7 C 3.2 km/h
511 01-01-2014 21:30:00 8.6 C 6.96 g/m*3 8.6 C 3.2 km/h
512 01-01-2014 21:35:00 8.4 C 6.96 g/m*3 6.78 C 9.7 km/h
513 01-01-2014 21:40:00 8.4 C 6.96 g/m*3 8.4 C 4.8 km/h
514 01-01-2014 21:45:00 8.5 C 6.92 g/m*3 8.5 C 3.2 km/h
515 01-01-2014 21:50:00 8.3 C 6.91 g/m*3 6.66 C 9.7 km/h
516 01-01-2014 21:55:00 8.3 C 7 g/m*3 7.41 C 6.4 km/h
517 01-01-2014 22:00:00 8.3 C 7 g/m*3 8.3 C 1.6 km/h
518 01-01-2014 22:05:00 8.2 C 6.95 g/m*3 8.2 C 1.6 km/h
519 01-01-2014 22:10:00 8 C 6.94 g/m*3 8 C 4.8 km/h
520 01-01-2014 22:15:00 7.8 C 6.94 g/m*3 6.83 C 6.4 km/h
521 01-01-2014 22:20:00 8 C 6.94 g/m*3 7.06 C 6.4 km/h
522 01-01-2014 22:25:00 8.1 C 6.99 g/m*3 8.1 C 4.8 km/h
523 01-01-2014 22:30:00 8 C 6.94 g/m*3 8 C 3.2 km/h
524 01-01-2014 22:35:00 8.1 C 6.99 g/m*3 8.1 C 4.8 km/h
525 01-01-2014 22:40:00 8.2 C 6.95 g/m*3 6.54 C 9.7 km/h
Sensor: Nr:Datum:Temp:Abs-Feuchte:Windchill:Wind:
Aussen-T/F 526 01-01-2014 22:45:00 8.2 C 7.03 g/m*3 7.29 C 6.4 km/h
527 01-01-2014 22:50:00 8.3 C 7.08 g/m*3 6.99 C 8.1 km/h
528 01-01-2014 22:55:00 8.4 C 7.04 g/m*3 8.4 C 4.8 km/h
529 01-01-2014 23:00:00 8.2 C 7.03 g/m*3 6.54 C 9.7 km/h
530 01-01-2014 23:05:00 8.1 C 6.99 g/m*3 8.1 C 3.2 km/h
531 01-01-2014 23:10:00 7.9 C 6.98 g/m*3 7.9 C 4.8 km/h
532 01-01-2014 23:15:00 7.7 C 6.97 g/m*3 7.7 C 3.2 km/h
533 01-01-2014 23:20:00 7.7 C 6.97 g/m*3 7.7 C 4.8 km/h
534 01-01-2014 23:25:00 7.9 C 6.98 g/m*3 7.9 C 3.2 km/h
535 01-01-2014 23:30:00 8.1 C 7.07 g/m*3 8.1 C 4.8 km/h
536 01-01-2014 23:35:00 8.2 C 7.12 g/m*3 8.2 C 4.8 km/h
537 01-01-2014 23:40:00 8.2 C 7.03 g/m*3 6.54 C 9.7 km/h
538 01-01-2014 23:45:00 8.2 C 7.03 g/m*3 7.29 C 6.4 km/h
539 01-01-2014 23:50:00 8.2 C 7.03 g/m*3 8.2 C 3.2 km/h
540 01-01-2014 23:55:00 8.1 C 6.99 g/m*3 7.17 C 6.4 km/h
541 02-01-2014 00:00:00 8.1 C 7.07 g/m*3 8.1 C 4.8 km/h
542 02-01-2014 00:05:00 8.1 C 6.99 g/m*3 8.1 C 3.2 km/h
543 02-01-2014 00:10:00 8.2 C 7.03 g/m*3 8.2 C 3.2 km/h
544 02-01-2014 00:15:00 8.2 C 7.03 g/m*3 8.2 C 3.2 km/h
545 02-01-2014 00:20:00 8.3 C 7.08 g/m*3 8.3 C 4.8 km/h
546 02-01-2014 00:25:00 8.5 C 7.09 g/m*3 7.22 C 8.1 km/h
547 02-01-2014 00:30:00 8.7 C 7.18 g/m*3 8.7 C 3.2 km/h
548 02-01-2014 00:35:00 8.8 C 7.14 g/m*3 7.25 C 9.7 km/h
549 02-01-2014 00:40:00 9.1 C 7.19 g/m*3 7.61 C 9.7 km/h
550 02-01-2014 00:45:00 9.2 C 7.14 g/m*3 9.2 C 4.8 km/h
Sensor: Nr:Datum:Temp:Abs-Feuchte:Windchill:Wind:
Aussen-T/F 551 02-01-2014 00:50:00 9.2 C 7.23 g/m*3 9.2 C 4.8 km/h
552 02-01-2014 00:55:00 9.2 C 7.14 g/m*3 9.2 C 4.8 km/h
553 02-01-2014 01:00:00 9.2 C 7.14 g/m*3 7.46 C 11.3 km/h
554 02-01-2014 01:05:00 9.2 C 7.14 g/m*3 8.45 C 6.4 km/h
555 02-01-2014 01:10:00 9.2 C 7.23 g/m*3 9.2 C 3.2 km/h
556 02-01-2014 01:15:00 9 C 7.23 g/m*3 9 C 3.2 km/h
557 02-01-2014 01:20:00 8.8 C 7.14 g/m*3 7.58 C 8.1 km/h
558 02-01-2014 01:25:00 8.8 C 7.14 g/m*3 7.58 C 8.1 km/h
559 02-01-2014 01:30:00 8.8 C 7.22 g/m*3 8.8 C 3.2 km/h
560 02-01-2014 01:35:00 8.8 C 7.14 g/m*3 8.8 C 1.6 km/h
561 02-01-2014 01:40:00 8.7 C 7.18 g/m*3 8.7 C 4.8 km/h
562 02-01-2014 01:45:00 8.7 C 7.18 g/m*3 8.7 C 4.8 km/h
563 02-01-2014 01:50:00 8.7 C 7.26 g/m*3 7.87 C 6.4 km/h
564 02-01-2014 01:55:00 8.8 C 7.31 g/m*3 8.8 C 4.8 km/h
565 02-01-2014 02:00:00 9 C 7.32 g/m*3 7.21 C 11.3 km/h
566 02-01-2014 02:05:00 9.1 C 7.28 g/m*3 7.33 C 11.3 km/h
567 02-01-2014 02:10:00 9.3 C 7.37 g/m*3 8.56 C 6.4 km/h
568 02-01-2014 02:15:00 9.4 C 7.42 g/m*3 9.4 C 4.8 km/h
569 02-01-2014 02:20:00 9.4 C 7.42 g/m*3 7.7 C 11.3 km/h
570 02-01-2014 02:25:00 9.6 C 7.51 g/m*3 8.21 C 9.7 km/h
571 02-01-2014 02:30:00 9.6 C 7.42 g/m*3 8.91 C 6.4 km/h
572 02-01-2014 02:35:00 9.6 C 7.51 g/m*3 9.6 C 4.8 km/h
573 02-01-2014 02:40:00 9.4 C 7.42 g/m*3 9.4 C 3.2 km/h
574 02-01-2014 02:45:00 9.4 C 7.42 g/m*3 9.4 C 4.8 km/h
575 02-01-2014 02:50:00 9.4 C 7.51 g/m*3 9.4 C 4.8 km/h
Sensor: Nr:Datum:Temp:Abs-Feuchte:Windchill:Wind:
Aussen-T/F 576 02-01-2014 02:55:00 9.3 C 7.46 g/m*3 9.3 C 4.8 km/h
577 02-01-2014 03:00:00 9.3 C 7.46 g/m*3 8.56 C 6.4 km/h
578 02-01-2014 03:05:00 9.3 C 7.46 g/m*3 7.58 C 11.3 km/h
579 02-01-2014 03:10:00 9.3 C 7.55 g/m*3 9.3 C 4.8 km/h
580 02-01-2014 03:15:00 9.1 C 7.54 g/m*3 9.1 C 3.2 km/h
581 02-01-2014 03:20:00 8.9 C 7.45 g/m*3 7.37 C 9.7 km/h
582 02-01-2014 03:25:00 8.9 C 7.45 g/m*3 8.9 C 4.8 km/h
583 02-01-2014 03:30:00 9.1 C 7.54 g/m*3 9.1 C 4.8 km/h
584 02-01-2014 03:35:00 9.1 C 7.54 g/m*3 9.1 C 3.2 km/h
585 02-01-2014 03:40:00 8.9 C 7.62 g/m*3 8.9 C 0 km/h
586 02-01-2014 03:45:00 8.7 C 7.61 g/m*3 8.7 C 1.6 km/h
587 02-01-2014 03:50:00 8.5 C 7.51 g/m*3 8.5 C 4.8 km/h
588 02-01-2014 03:55:00 8.4 C 7.55 g/m*3 8.4 C 4.8 km/h
589 02-01-2014 04:00:00 8.4 C 7.63 g/m*3 7.52 C 6.4 km/h
590 02-01-2014 04:05:00 8.3 C 7.59 g/m*3 8.3 C 4.8 km/h
591 02-01-2014 04:10:00 8.3 C 7.59 g/m*3 8.3 C 4.8 km/h
592 02-01-2014 04:15:00 8.2 C 7.62 g/m*3 8.2 C 3.2 km/h
593 02-01-2014 04:20:00 8.1 C 7.57 g/m*3 7.17 C 6.4 km/h
594 02-01-2014 04:25:00 8 C 7.61 g/m*3 8 C 3.2 km/h
595 02-01-2014 04:30:00 7.9 C 7.56 g/m*3 7.9 C 4.8 km/h
596 02-01-2014 04:35:00 8 C 7.61 g/m*3 8 C 4.8 km/h
597 02-01-2014 04:40:00 8.1 C 7.57 g/m*3 7.17 C 6.4 km/h
598 02-01-2014 04:45:00 8 C 7.52 g/m*3 8 C 4.8 km/h
599 02-01-2014 04:50:00 8 C 7.52 g/m*3 8 C 4.8 km/h
600 02-01-2014 04:55:00 7.9 C 7.47 g/m*3 7.9 C 3.2 km/h
Sensor: Nr:Datum:Temp:Abs-Feuchte:Windchill:Wind:
Aussen-T/F 601 02-01-2014 05:00:00 7.8 C 7.51 g/m*3 7.8 C 3.2 km/h
602 02-01-2014 05:05:00 7.7 C 7.54 g/m*3 7.7 C 0 km/h
603 02-01-2014 05:10:00 7.7 C 7.54 g/m*3 7.7 C 4.8 km/h
604 02-01-2014 05:15:00 7.7 C 7.54 g/m*3 7.7 C 4.8 km/h
605 02-01-2014 05:20:00 7.7 C 7.54 g/m*3 7.7 C 3.2 km/h
606 02-01-2014 05:25:00 7.7 C 7.54 g/m*3 7.7 C 3.2 km/h
607 02-01-2014 05:30:00 7.6 C 7.57 g/m*3 7.6 C 3.2 km/h
608 02-01-2014 05:35:00 7.6 C 7.57 g/m*3 7.6 C 1.6 km/h
609 02-01-2014 05:40:00 7.7 C 7.62 g/m*3 7.7 C 4.8 km/h
610 02-01-2014 05:45:00 7.7 C 7.62 g/m*3 7.7 C 4.8 km/h
611 02-01-2014 05:50:00 7.7 C 7.62 g/m*3 7.7 C 4.8 km/h
612 02-01-2014 05:55:00 7.7 C 7.62 g/m*3 7.7 C 3.2 km/h
613 02-01-2014 06:00:00 7.7 C 7.62 g/m*3 7.7 C 4.8 km/h
614 02-01-2014 06:05:00 7.7 C 7.62 g/m*3 7.7 C 3.2 km/h
615 02-01-2014 06:10:00 7.7 C 7.62 g/m*3 7.7 C 3.2 km/h
616 02-01-2014 06:15:00 7.7 C 7.7 g/m*3 7.7 C 1.6 km/h
617 02-01-2014 06:20:00 7.7 C 7.7 g/m*3 6.71 C 6.4 km/h
618 02-01-2014 06:25:00 7.7 C 7.7 g/m*3 7.7 C 0 km/h
619 02-01-2014 07:05:00 7.8 C 7.75 g/m*3 7.8 C 1.6 km/h
620 02-01-2014 07:10:00 7.8 C 7.75 g/m*3 7.8 C 1.6 km/h
621 02-01-2014 07:15:00 7.8 C 7.75 g/m*3 6.4 C 8.1 km/h
622 02-01-2014 07:20:00 7.9 C 7.8 g/m*3 7.9 C 3.2 km/h
623 02-01-2014 07:25:00 8 C 7.85 g/m*3 8 C 1.6 km/h
624 02-01-2014 07:30:00 7.9 C 7.8 g/m*3 7.9 C 0 km/h
625 02-01-2014 07:35:00 7.9 C 7.8 g/m*3 7.9 C 4.8 km/h
Sensor: Nr:Datum:Temp:Abs-Feuchte:Windchill:Wind:
Aussen-T/F 626 02-01-2014 07:40:00 7.8 C 7.75 g/m*3 6.83 C 6.4 km/h
627 02-01-2014 07:45:00 7.8 C 7.75 g/m*3 7.8 C 4.8 km/h
628 02-01-2014 07:50:00 7.8 C 7.75 g/m*3 7.8 C 1.6 km/h
629 02-01-2014 07:55:00 7.8 C 7.75 g/m*3 6.83 C 6.4 km/h
630 02-01-2014 08:30:00 8.8 C 8.7 g/m*3 6.97 C 11.3 km/h
631 02-01-2014 08:35:00 8.8 C 7.92 g/m*3 6.97 C 11.3 km/h
632 02-01-2014 08:40:00 8.8 C 7.92 g/m*3 8.8 C 3.2 km/h
633 02-01-2014 09:35:00 8.9 C 7.97 g/m*3 8.1 C 6.4 km/h
634 02-01-2014 09:40:00 8.9 C 7.97 g/m*3 8.9 C 3.2 km/h
635 02-01-2014 09:45:00 9.2 C 8.13 g/m*3 9.2 C 4.8 km/h
636 02-01-2014 09:50:00 9.2 C 8.13 g/m*3 9.2 C 1.6 km/h
637 02-01-2014 09:55:00 9.2 C 8.04 g/m*3 9.2 C 1.6 km/h
638 02-01-2014 10:00:00 9.2 C 8.04 g/m*3 9.2 C 3.2 km/h
639 02-01-2014 10:05:00 9.2 C 8.04 g/m*3 9.2 C 4.8 km/h
640 02-01-2014 10:10:00 9.3 C 8.09 g/m*3 9.3 C 4.8 km/h
641 02-01-2014 10:15:00 9.4 C 8.05 g/m*3 9.4 C 4.8 km/h
642 02-01-2014 10:20:00 9.5 C 8.1 g/m*3 9.5 C 4.8 km/h
643 02-01-2014 10:25:00 9.5 C 8.1 g/m*3 8.79 C 6.4 km/h
644 02-01-2014 10:30:00 9.5 C 8.1 g/m*3 9.5 C 4.8 km/h
645 02-01-2014 10:35:00 9.6 C 8.24 g/m*3 9.6 C 0 km/h
646 02-01-2014 10:40:00 9.7 C 8.39 g/m*3 8.33 C 9.7 km/h
647 02-01-2014 10:45:00 9.7 C 8.39 g/m*3 9.7 C 0 km/h
648 02-01-2014 10:50:00 9.8 C 8.26 g/m*3 9.8 C 4.8 km/h
649 02-01-2014 10:55:00 10 C 8.36 g/m*3 8.99 C 8.1 km/h
650 02-01-2014 11:00:00 10.1 C 8.32 g/m*3 9.48 C 6.4 km/h
Sensor: Nr:Datum:Temp:Abs-Feuchte:Windchill:Wind:
Aussen-T/F 651 02-01-2014 11:05:00 10.2 C 8.47 g/m*3 9.6 C 6.4 km/h
652 02-01-2014 11:10:00 10.2 C 8.47 g/m*3 9.6 C 6.4 km/h
653 02-01-2014 11:15:00 10.3 C 8.52 g/m*3 10.3 C 3.2 km/h
654 02-01-2014 11:20:00 10.3 C 8.52 g/m*3 10.3 C 3.2 km/h
655 02-01-2014 11:25:00 10.3 C 8.52 g/m*3 10.3 C 4.8 km/h
656 02-01-2014 11:30:00 10.4 C 8.58 g/m*3 9.83 C 6.4 km/h
657 02-01-2014 11:35:00 10.4 C 8.48 g/m*3 10.4 C 3.2 km/h
658 02-01-2014 11:40:00 10.5 C 8.53 g/m*3 9.95 C 6.4 km/h
659 02-01-2014 11:45:00 10.6 C 8.69 g/m*3 10.6 C 4.8 km/h
660 02-01-2014 11:50:00 10.6 C 8.59 g/m*3 10.6 C 3.2 km/h
661 02-01-2014 11:55:00 10.7 C 8.55 g/m*3 10.7 C 1.6 km/h
662 02-01-2014 12:00:00 10.7 C 8.45 g/m*3 10.7 C 3.2 km/h
663 02-01-2014 12:05:00 10.8 C 8.5 g/m*3 10.8 C 4.8 km/h
664 02-01-2014 12:10:00 10.9 C 8.45 g/m*3 10.41 C 6.4 km/h
665 02-01-2014 12:15:00 10.9 C 8.26 g/m*3 10.41 C 6.4 km/h
666 02-01-2014 12:20:00 10.9 C 8.26 g/m*3 9.08 C 14.5 km/h
667 02-01-2014 12:25:00 10.9 C 8.26 g/m*3 10.04 C 8.1 km/h
668 02-01-2014 12:30:00 11.2 C 8.21 g/m*3 11.2 C 12.9 km/h
669 02-01-2014 12:35:00 11.2 C 8.31 g/m*3 11.2 C 9.7 km/h
670 02-01-2014 12:40:00 11.2 C 8.31 g/m*3 11.2 C 4.8 km/h
671 02-01-2014 12:45:00 11.2 C 8.21 g/m*3 11.2 C 14.5 km/h
672 02-01-2014 12:50:00 11.2 C 8.21 g/m*3 11.2 C 14.5 km/h
673 02-01-2014 12:55:00 11.1 C 8.16 g/m*3 11.1 C 17.7 km/h
674 02-01-2014 13:00:00 11.1 C 8.06 g/m*3 11.1 C 20.9 km/h
675 02-01-2014 13:05:00 11.1 C 8.16 g/m*3 11.1 C 20.9 km/h
Sensor: Nr:Datum:Temp:Abs-Feuchte:Windchill:Wind:
Aussen-T/F 676 02-01-2014 13:10:00 11 C 8.01 g/m*3 9.63 C 11.3 km/h
677 02-01-2014 13:15:00 11 C 8.01 g/m*3 9.4 C 12.9 km/h
678 02-01-2014 13:20:00 10.9 C 7.96 g/m*3 9.28 C 12.9 km/h
679 02-01-2014 13:25:00 10.9 C 7.96 g/m*3 8.9 C 16.1 km/h
680 02-01-2014 13:30:00 10.8 C 7.81 g/m*3 8.96 C 14.5 km/h
681 02-01-2014 13:35:00 10.8 C 7.91 g/m*3 9.16 C 12.9 km/h
682 02-01-2014 13:40:00 10.8 C 7.91 g/m*3 9.16 C 12.9 km/h
683 02-01-2014 13:45:00 10.8 C 7.91 g/m*3 8.96 C 14.5 km/h
684 02-01-2014 13:50:00 10.7 C 7.86 g/m*3 8.84 C 14.5 km/h
685 02-01-2014 13:55:00 10.8 C 7.81 g/m*3 8.3 C 20.9 km/h
686 02-01-2014 14:00:00 10.7 C 7.76 g/m*3 9.04 C 12.9 km/h
687 02-01-2014 14:05:00 10.7 C 7.86 g/m*3 9.81 C 8.1 km/h
688 02-01-2014 14:10:00 10.7 C 7.76 g/m*3 8.65 C 16.1 km/h
689 02-01-2014 14:15:00 10.8 C 7.81 g/m*3 8.61 C 17.7 km/h
690 02-01-2014 14:20:00 10.7 C 7.76 g/m*3 8.84 C 14.5 km/h
691 02-01-2014 14:25:00 10.7 C 7.76 g/m*3 8.65 C 16.1 km/h
692 02-01-2014 14:30:00 10.6 C 7.71 g/m*3 8.36 C 17.7 km/h
693 02-01-2014 14:35:00 10.6 C 7.81 g/m*3 8.71 C 14.5 km/h
694 02-01-2014 14:40:00 10.6 C 7.81 g/m*3 8.36 C 17.7 km/h
695 02-01-2014 14:45:00 10.4 C 7.9 g/m*3 7.95 C 19.3 km/h
696 02-01-2014 14:50:00 10.1 C 8.04 g/m*3 8.54 C 11.3 km/h
697 02-01-2014 14:55:00 9.9 C 8.03 g/m*3 8.56 C 9.7 km/h
698 02-01-2014 15:00:00 9.8 C 8.07 g/m*3 8.45 C 9.7 km/h
699 02-01-2014 15:05:00 9.7 C 7.93 g/m*3 9.02 C 6.4 km/h
700 02-01-2014 15:10:00 9.6 C 7.97 g/m*3 8.21 C 9.7 km/h
Sensor: Nr:Datum:Temp:Abs-Feuchte:Windchill:Wind:
Aussen-T/F 701 02-01-2014 15:15:00 9.5 C 7.92 g/m*3 8.79 C 6.4 km/h
702 02-01-2014 15:20:00 9.4 C 7.78 g/m*3 8.28 C 8.1 km/h
703 02-01-2014 15:25:00 9.3 C 7.73 g/m*3 9.3 C 4.8 km/h
704 02-01-2014 15:30:00 9.2 C 7.77 g/m*3 8.45 C 6.4 km/h
705 02-01-2014 15:35:00 9.1 C 7.72 g/m*3 7.93 C 8.1 km/h
706 02-01-2014 15:40:00 8.9 C 7.53 g/m*3 7.69 C 8.1 km/h
707 02-01-2014 15:45:00 8.9 C 7.45 g/m*3 7.69 C 8.1 km/h
708 02-01-2014 15:50:00 9.1 C 7.54 g/m*3 6.87 C 14.5 km/h
709 02-01-2014 15:55:00 9 C 7.49 g/m*3 7.81 C 8.1 km/h
710 02-01-2014 16:00:00 8.9 C 7.45 g/m*3 6.85 C 12.9 km/h
711 02-01-2014 16:05:00 8.9 C 7.36 g/m*3 7.69 C 8.1 km/h
712 02-01-2014 16:10:00 9 C 7.41 g/m*3 7.81 C 8.1 km/h
713 02-01-2014 16:15:00 8.9 C 7.36 g/m*3 7.69 C 8.1 km/h
714 02-01-2014 16:20:00 8.8 C 7.31 g/m*3 7.58 C 8.1 km/h
715 02-01-2014 16:25:00 8.8 C 7.31 g/m*3 6.97 C 11.3 km/h
716 02-01-2014 16:30:00 8.8 C 7.31 g/m*3 6.97 C 11.3 km/h
717 02-01-2014 16:35:00 8.7 C 7.26 g/m*3 6.17 C 16.1 km/h
718 02-01-2014 16:40:00 8.6 C 7.3 g/m*3 6.73 C 11.3 km/h
719 02-01-2014 16:45:00 8.7 C 7.26 g/m*3 7.87 C 6.4 km/h
720 02-01-2014 16:50:00 8.3 C 7.25 g/m*3 8.3 C 4.8 km/h
721 02-01-2014 16:55:00 8.1 C 7.16 g/m*3 8.1 C 4.8 km/h
722 02-01-2014 17:00:00 8.1 C 7.16 g/m*3 8.1 C 3.2 km/h
723 02-01-2014 17:05:00 7.8 C 7.02 g/m*3 7.8 C 3.2 km/h
724 02-01-2014 17:10:00 7.7 C 6.97 g/m*3 7.7 C 3.2 km/h
725 02-01-2014 17:15:00 7.7 C 6.97 g/m*3 7.7 C 4.8 km/h
Sensor: Nr:Datum:Temp:Abs-Feuchte:Windchill:Wind:
Aussen-T/F 726 02-01-2014 17:35:00 7.7 C 7.14 g/m*3 6.71 C 6.4 km/h
727 02-01-2014 17:40:00 7.7 C 7.14 g/m*3 7.7 C 3.2 km/h
728 02-01-2014 17:45:00 7.7 C 7.14 g/m*3 6.28 C 8.1 km/h
729 02-01-2014 17:50:00 7.6 C 7.09 g/m*3 7.6 C 4.8 km/h
730 02-01-2014 17:55:00 7.4 C 7.08 g/m*3 7.4 C 3.2 km/h
731 02-01-2014 18:00:00 7.3 C 7.11 g/m*3 7.3 C 3.2 km/h
732 02-01-2014 18:05:00 7.2 C 7.06 g/m*3 7.2 C 3.2 km/h
733 02-01-2014 18:10:00 6.9 C 7.01 g/m*3 6.9 C 3.2 km/h
734 02-01-2014 18:15:00 6.8 C 6.96 g/m*3 6.8 C 3.2 km/h
735 02-01-2014 18:20:00 6.7 C 6.99 g/m*3 6.7 C 3.2 km/h
736 02-01-2014 18:25:00 6.6 C 6.95 g/m*3 6.6 C 3.2 km/h
737 02-01-2014 18:30:00 6.6 C 6.95 g/m*3 6.6 C 3.2 km/h
738 02-01-2014 18:35:00 6.7 C 6.99 g/m*3 6.7 C 3.2 km/h
739 02-01-2014 18:40:00 6.7 C 6.99 g/m*3 6.7 C 1.6 km/h
740 02-01-2014 18:45:00 6.7 C 7.07 g/m*3 6.7 C 1.6 km/h
741 02-01-2014 18:50:00 6.8 C 7.11 g/m*3 6.8 C 1.6 km/h
742 02-01-2014 18:55:00 6.8 C 7.11 g/m*3 6.8 C 3.2 km/h
743 02-01-2014 19:00:00 7 C 7.21 g/m*3 7 C 3.2 km/h
744 02-01-2014 19:05:00 7.2 C 7.3 g/m*3 7.2 C 1.6 km/h
745 02-01-2014 19:10:00 7.2 C 7.3 g/m*3 7.2 C 3.2 km/h
746 02-01-2014 19:15:00 7.3 C 7.35 g/m*3 7.3 C 1.6 km/h
747 02-01-2014 19:20:00 7.2 C 7.3 g/m*3 7.2 C 3.2 km/h
748 02-01-2014 19:25:00 7.1 C 7.25 g/m*3 7.1 C 3.2 km/h
749 02-01-2014 19:30:00 6.9 C 7.16 g/m*3 6.9 C 1.6 km/h
750 02-01-2014 19:35:00 6.7 C 7.07 g/m*3 6.7 C 3.2 km/h
Sensor: Nr:Datum:Temp:Abs-Feuchte:Windchill:Wind:
Aussen-T/F 751 02-01-2014 19:40:00 6.5 C 6.97 g/m*3 6.5 C 3.2 km/h
752 02-01-2014 19:45:00 6.3 C 6.96 g/m*3 6.3 C 4.8 km/h
753 02-01-2014 19:50:00 6.2 C 6.91 g/m*3 6.2 C 4.8 km/h
754 02-01-2014 19:55:00 6.1 C 6.87 g/m*3 6.1 C 4.8 km/h
755 02-01-2014 20:00:00 6.1 C 6.94 g/m*3 6.1 C 3.2 km/h
756 02-01-2014 20:05:00 6.1 C 6.87 g/m*3 6.1 C 3.2 km/h
757 02-01-2014 20:10:00 6.2 C 6.99 g/m*3 6.2 C 3.2 km/h
758 02-01-2014 20:15:00 6.2 C 6.99 g/m*3 6.2 C 3.2 km/h
759 02-01-2014 20:20:00 6.4 C 7.08 g/m*3 6.4 C 1.6 km/h
760 02-01-2014 20:25:00 6.5 C 7.12 g/m*3 6.5 C 3.2 km/h
761 02-01-2014 20:30:00 6.6 C 7.17 g/m*3 6.6 C 1.6 km/h
762 02-01-2014 20:35:00 6.6 C 7.17 g/m*3 6.6 C 3.2 km/h
763 02-01-2014 20:40:00 6.5 C 7.05 g/m*3 6.5 C 3.2 km/h
764 02-01-2014 20:45:00 6.3 C 6.96 g/m*3 6.3 C 3.2 km/h
765 02-01-2014 20:50:00 6.2 C 6.91 g/m*3 6.2 C 3.2 km/h
766 02-01-2014 20:55:00 6.1 C 6.87 g/m*3 6.1 C 3.2 km/h
767 02-01-2014 21:00:00 6.1 C 6.87 g/m*3 6.1 C 3.2 km/h
768 02-01-2014 21:05:00 6.2 C 6.99 g/m*3 6.2 C 3.2 km/h
769 02-01-2014 21:10:00 6.3 C 7.03 g/m*3 6.3 C 1.6 km/h
770 02-01-2014 21:15:00 6.3 C 7.03 g/m*3 6.3 C 3.2 km/h
771 02-01-2014 21:20:00 6.2 C 6.91 g/m*3 6.2 C 1.6 km/h
772 02-01-2014 21:25:00 6.2 C 6.91 g/m*3 6.2 C 3.2 km/h
773 02-01-2014 21:30:00 6.1 C 6.87 g/m*3 6.1 C 3.2 km/h
774 02-01-2014 21:35:00 6 C 6.82 g/m*3 6 C 1.6 km/h
775 02-01-2014 21:40:00 5.9 C 6.78 g/m*3 5.9 C 3.2 km/h
Sensor: Nr:Datum:Temp:Abs-Feuchte:Windchill:Wind:
Aussen-T/F 776 02-01-2014 21:45:00 5.8 C 6.73 g/m*3 5.8 C 3.2 km/h
777 02-01-2014 21:50:00 5.8 C 6.81 g/m*3 5.8 C 1.6 km/h
778 02-01-2014 21:55:00 5.9 C 6.85 g/m*3 5.9 C 3.2 km/h
779 02-01-2014 22:00:00 5.9 C 6.85 g/m*3 5.9 C 3.2 km/h
780 02-01-2014 22:05:00 5.9 C 6.85 g/m*3 5.9 C 3.2 km/h
781 02-01-2014 22:10:00 6.1 C 6.94 g/m*3 6.1 C 3.2 km/h
782 02-01-2014 22:15:00 6.2 C 6.99 g/m*3 6.2 C 3.2 km/h
783 02-01-2014 22:20:00 6.1 C 6.94 g/m*3 6.1 C 1.6 km/h
784 02-01-2014 22:25:00 5.9 C 6.78 g/m*3 5.9 C 3.2 km/h
785 02-01-2014 22:30:00 5.8 C 6.73 g/m*3 5.8 C 3.2 km/h
786 02-01-2014 22:35:00 5.8 C 6.81 g/m*3 5.8 C 1.6 km/h
787 02-01-2014 22:40:00 5.8 C 6.73 g/m*3 5.8 C 0 km/h
788 02-01-2014 22:45:00 5.6 C 6.65 g/m*3 5.6 C 1.6 km/h
789 02-01-2014 22:50:00 5.6 C 6.72 g/m*3 5.6 C 0 km/h
790 02-01-2014 22:55:00 5.5 C 6.67 g/m*3 5.5 C 1.6 km/h
791 02-01-2014 23:00:00 5.4 C 6.63 g/m*3 5.4 C 0 km/h
792 02-01-2014 23:05:00 5.3 C 6.52 g/m*3 5.3 C 0 km/h
793 02-01-2014 23:10:00 5.2 C 6.54 g/m*3 5.2 C 0 km/h
794 02-01-2014 23:15:00 5.1 C 6.43 g/m*3 5.1 C 1.6 km/h
795 02-01-2014 23:20:00 5.1 C 6.5 g/m*3 5.1 C 0 km/h
796 02-01-2014 23:25:00 5.1 C 6.5 g/m*3 5.1 C 0 km/h
797 02-01-2014 23:30:00 5.1 C 6.5 g/m*3 5.1 C 0 km/h
798 02-01-2014 23:35:00 4.9 C 6.41 g/m*3 4.9 C 0 km/h
799 02-01-2014 23:40:00 4.8 C 6.37 g/m*3 4.8 C 0 km/h
800 02-01-2014 23:45:00 4.6 C 6.29 g/m*3 4.6 C 0 km/h
Sensor: Nr:Datum:Temp:Abs-Feuchte:Windchill:Wind:
Aussen-T/F 801 02-01-2014 23:50:00 4.5 C 6.24 g/m*3 4.5 C 0 km/h
802 02-01-2014 23:55:00 4.4 C 6.2 g/m*3 4.4 C 0 km/h
803 03-01-2014 00:00:00 4.4 C 6.2 g/m*3 4.4 C 0 km/h
804 03-01-2014 00:05:00 4.3 C 6.16 g/m*3 4.3 C 0 km/h
805 03-01-2014 00:10:00 4.2 C 6.19 g/m*3 4.2 C 0 km/h
806 03-01-2014 00:15:00 4.2 C 6.19 g/m*3 4.2 C 0 km/h
807 03-01-2014 00:20:00 4.1 C 6.14 g/m*3 4.1 C 0 km/h
808 03-01-2014 00:25:00 4 C 6.1 g/m*3 4 C 0 km/h
809 03-01-2014 00:30:00 4 C 6.1 g/m*3 4 C 1.6 km/h
810 03-01-2014 00:35:00 3.9 C 6.06 g/m*3 3.9 C 1.6 km/h
811 03-01-2014 00:40:00 3.9 C 6.06 g/m*3 3.9 C 0 km/h
812 03-01-2014 00:45:00 3.8 C 6.02 g/m*3 3.8 C 0 km/h
813 03-01-2014 00:50:00 3.7 C 5.98 g/m*3 3.7 C 0 km/h
814 03-01-2014 00:55:00 3.8 C 6.02 g/m*3 3.8 C 0 km/h
815 03-01-2014 01:00:00 3.7 C 5.98 g/m*3 3.7 C 0 km/h
816 03-01-2014 01:05:00 3.7 C 5.98 g/m*3 3.7 C 0 km/h
817 03-01-2014 01:10:00 3.7 C 5.98 g/m*3 3.7 C 0 km/h
818 03-01-2014 01:15:00 3.7 C 5.98 g/m*3 3.7 C 1.6 km/h
819 03-01-2014 01:20:00 3.7 C 5.98 g/m*3 3.7 C 0 km/h
820 03-01-2014 01:25:00 3.7 C 5.98 g/m*3 3.7 C 0 km/h
821 03-01-2014 01:30:00 3.8 C 6.09 g/m*3 3.8 C 0 km/h
822 03-01-2014 01:35:00 3.9 C 6.13 g/m*3 3.9 C 0 km/h
823 03-01-2014 01:40:00 3.9 C 6.13 g/m*3 3.9 C 0 km/h
824 03-01-2014 01:45:00 3.9 C 6.13 g/m*3 3.9 C 0 km/h
825 03-01-2014 01:50:00 3.9 C 6.13 g/m*3 3.9 C 0 km/h
Sensor: Nr:Datum:Temp:Abs-Feuchte:Windchill:Wind:
Aussen-T/F 826 03-01-2014 01:55:00 4.1 C 6.21 g/m*3 4.1 C 1.6 km/h
827 03-01-2014 02:00:00 4.2 C 6.25 g/m*3 4.2 C 3.2 km/h
828 03-01-2014 02:05:00 4.5 C 6.38 g/m*3 4.5 C 3.2 km/h
829 03-01-2014 02:10:00 4.4 C 6.33 g/m*3 4.4 C 3.2 km/h
830 03-01-2014 02:15:00 4.4 C 6.33 g/m*3 4.4 C 0 km/h
831 03-01-2014 02:20:00 4.3 C 6.29 g/m*3 4.3 C 3.2 km/h
832 03-01-2014 02:25:00 4.3 C 6.29 g/m*3 4.3 C 1.6 km/h
833 03-01-2014 02:30:00 4.2 C 6.25 g/m*3 4.2 C 0 km/h
834 03-01-2014 02:35:00 4.2 C 6.25 g/m*3 4.2 C 1.6 km/h
835 03-01-2014 02:40:00 4.4 C 6.33 g/m*3 4.4 C 1.6 km/h
836 03-01-2014 02:45:00 4.5 C 6.38 g/m*3 4.5 C 1.6 km/h
837 03-01-2014 02:50:00 4.6 C 6.42 g/m*3 4.6 C 1.6 km/h
838 03-01-2014 02:55:00 4.7 C 6.46 g/m*3 4.7 C 0 km/h
839 03-01-2014 03:00:00 4.8 C 6.5 g/m*3 4.8 C 3.2 km/h
840 03-01-2014 03:05:00 4.9 C 6.55 g/m*3 4.9 C 3.2 km/h
841 03-01-2014 03:10:00 4.7 C 6.46 g/m*3 4.7 C 0 km/h
842 03-01-2014 03:15:00 4.6 C 6.42 g/m*3 4.6 C 1.6 km/h
843 03-01-2014 03:20:00 4.5 C 6.38 g/m*3 4.5 C 1.6 km/h
844 03-01-2014 03:25:00 4.5 C 6.38 g/m*3 4.5 C 1.6 km/h
845 03-01-2014 03:30:00 4.8 C 6.5 g/m*3 4.8 C 3.2 km/h
846 03-01-2014 03:35:00 5.1 C 6.7 g/m*3 5.1 C 3.2 km/h
847 03-01-2014 03:40:00 5.4 C 6.84 g/m*3 5.4 C 3.2 km/h
848 03-01-2014 03:45:00 5.6 C 6.93 g/m*3 5.6 C 1.6 km/h
849 03-01-2014 03:50:00 5.7 C 6.97 g/m*3 5.7 C 1.6 km/h
850 03-01-2014 03:55:00 5.8 C 6.95 g/m*3 5.8 C 3.2 km/h
Sensor: Nr:Datum:Temp:Abs-Feuchte:Windchill:Wind:
Aussen-T/F 851 03-01-2014 04:00:00 5.9 C 6.99 g/m*3 5.9 C 4.8 km/h
852 03-01-2014 04:05:00 5.9 C 6.99 g/m*3 5.9 C 3.2 km/h
853 03-01-2014 04:10:00 5.9 C 6.99 g/m*3 5.9 C 0 km/h
854 03-01-2014 04:15:00 6 C 7.04 g/m*3 6 C 3.2 km/h
855 03-01-2014 04:20:00 6.1 C 7.09 g/m*3 6.1 C 1.6 km/h
856 03-01-2014 04:25:00 6.1 C 7.01 g/m*3 6.1 C 3.2 km/h
857 03-01-2014 04:30:00 6.1 C 7.01 g/m*3 6.1 C 0 km/h
858 03-01-2014 04:35:00 6.1 C 7.01 g/m*3 4.86 C 6.4 km/h
859 03-01-2014 04:40:00 6.2 C 7.06 g/m*3 6.2 C 4.8 km/h
860 03-01-2014 04:45:00 6.2 C 6.99 g/m*3 6.2 C 4.8 km/h
861 03-01-2014 04:50:00 6.2 C 6.99 g/m*3 6.2 C 4.8 km/h
862 03-01-2014 04:55:00 6.3 C 7.03 g/m*3 6.3 C 4.8 km/h
863 03-01-2014 05:00:00 6.3 C 7.03 g/m*3 4.64 C 8.1 km/h
864 03-01-2014 05:05:00 6.4 C 7 g/m*3 4.75 C 8.1 km/h
865 03-01-2014 05:10:00 6.2 C 6.84 g/m*3 6.2 C 1.6 km/h
866 03-01-2014 05:15:00 6.2 C 6.91 g/m*3 6.2 C 3.2 km/h
867 03-01-2014 05:20:00 6.2 C 6.91 g/m*3 6.2 C 1.6 km/h
868 03-01-2014 05:25:00 6.1 C 6.79 g/m*3 6.1 C 0 km/h
869 03-01-2014 05:30:00 5.9 C 6.71 g/m*3 5.9 C 3.2 km/h
870 03-01-2014 05:35:00 5.7 C 6.69 g/m*3 5.7 C 3.2 km/h
871 03-01-2014 05:40:00 5.6 C 6.65 g/m*3 5.6 C 3.2 km/h
872 03-01-2014 05:45:00 5.5 C 6.67 g/m*3 5.5 C 3.2 km/h
873 03-01-2014 05:50:00 5.5 C 6.67 g/m*3 5.5 C 3.2 km/h
874 03-01-2014 05:55:00 5.5 C 6.67 g/m*3 5.5 C 3.2 km/h
875 03-01-2014 06:00:00 5.6 C 6.79 g/m*3 5.6 C 4.8 km/h
Sensor: Nr:Datum:Temp:Abs-Feuchte:Windchill:Wind:
Aussen-T/F 876 03-01-2014 06:05:00 5.8 C 6.88 g/m*3 5.8 C 4.8 km/h
877 03-01-2014 06:10:00 5.8 C 6.88 g/m*3 5.8 C 3.2 km/h
878 03-01-2014 06:15:00 5.7 C 6.76 g/m*3 5.7 C 0 km/h
879 03-01-2014 06:20:00 5.8 C 6.88 g/m*3 5.8 C 4.8 km/h
880 03-01-2014 06:25:00 5.8 C 6.88 g/m*3 5.8 C 3.2 km/h
881 03-01-2014 06:30:00 5.8 C 6.81 g/m*3 5.8 C 3.2 km/h
882 03-01-2014 06:35:00 5.7 C 6.76 g/m*3 5.7 C 3.2 km/h
883 03-01-2014 06:40:00 5.6 C 6.72 g/m*3 5.6 C 3.2 km/h
884 03-01-2014 06:45:00 5.6 C 6.72 g/m*3 5.6 C 4.8 km/h
885 03-01-2014 06:50:00 5.7 C 6.83 g/m*3 5.7 C 3.2 km/h
886 03-01-2014 06:55:00 5.7 C 6.83 g/m*3 5.7 C 1.6 km/h
887 03-01-2014 07:00:00 5.8 C 6.88 g/m*3 5.8 C 0 km/h
888 03-01-2014 07:05:00 6 C 6.97 g/m*3 6 C 4.8 km/h
889 03-01-2014 07:10:00 6.1 C 7.01 g/m*3 6.1 C 3.2 km/h
890 03-01-2014 07:15:00 6 C 6.97 g/m*3 6 C 3.2 km/h
891 03-01-2014 07:20:00 5.9 C 6.85 g/m*3 5.9 C 3.2 km/h
892 03-01-2014 07:25:00 6 C 6.97 g/m*3 6 C 3.2 km/h
893 03-01-2014 07:30:00 6.1 C 6.94 g/m*3 6.1 C 3.2 km/h
894 03-01-2014 07:35:00 5.9 C 6.85 g/m*3 5.9 C 1.6 km/h
895 03-01-2014 07:40:00 5.8 C 6.81 g/m*3 5.8 C 1.6 km/h
896 03-01-2014 07:45:00 5.8 C 6.81 g/m*3 5.8 C 3.2 km/h
897 03-01-2014 07:50:00 5.8 C 6.88 g/m*3 5.8 C 3.2 km/h
898 03-01-2014 07:55:00 5.8 C 6.88 g/m*3 5.8 C 3.2 km/h
899 03-01-2014 08:00:00 5.9 C 6.92 g/m*3 5.9 C 4.8 km/h
900 03-01-2014 08:05:00 5.9 C 6.92 g/m*3 5.9 C 1.6 km/h
Sensor: Nr:Datum:Temp:Abs-Feuchte:Windchill:Wind:
Aussen-T/F 901 03-01-2014 08:10:00 5.9 C 6.92 g/m*3 5.9 C 0 km/h
902 03-01-2014 08:15:00 5.9 C 6.92 g/m*3 5.9 C 3.2 km/h
903 03-01-2014 08:20:00 6 C 6.97 g/m*3 6 C 0 km/h
904 03-01-2014 08:25:00 6.1 C 7.01 g/m*3 6.1 C 0 km/h
905 03-01-2014 08:30:00 6.2 C 7.06 g/m*3 6.2 C 0 km/h
906 03-01-2014 08:35:00 6.3 C 7.11 g/m*3 6.3 C 0 km/h
907 03-01-2014 08:40:00 6.3 C 7.11 g/m*3 6.3 C 0 km/h
908 03-01-2014 08:45:00 6.4 C 7.15 g/m*3 6.4 C 0 km/h
909 03-01-2014 08:50:00 6.6 C 7.25 g/m*3 6.6 C 3.2 km/h
910 03-01-2014 08:55:00 6.6 C 7.25 g/m*3 6.6 C 1.6 km/h
911 03-01-2014 09:00:00 6.6 C 7.17 g/m*3 6.6 C 3.2 km/h
912 03-01-2014 09:05:00 6.7 C 7.22 g/m*3 6.7 C 3.2 km/h
913 03-01-2014 09:10:00 6.7 C 7.22 g/m*3 6.7 C 3.2 km/h
914 03-01-2014 09:15:00 6.7 C 7.22 g/m*3 6.7 C 3.2 km/h
915 03-01-2014 09:20:00 6.8 C 7.27 g/m*3 6.8 C 3.2 km/h
916 03-01-2014 09:25:00 7 C 7.28 g/m*3 5.9 C 6.4 km/h
917 03-01-2014 09:30:00 7.3 C 7.35 g/m*3 5.81 C 8.1 km/h
918 03-01-2014 09:35:00 7.4 C 7.4 g/m*3 7.4 C 4.8 km/h
919 03-01-2014 09:40:00 7.7 C 7.38 g/m*3 7.7 C 4.8 km/h
920 03-01-2014 09:45:00 8 C 7.44 g/m*3 7.06 C 6.4 km/h
921 03-01-2014 09:50:00 8.3 C 7.59 g/m*3 7.41 C 6.4 km/h
922 03-01-2014 09:55:00 8.6 C 7.56 g/m*3 7.75 C 6.4 km/h
923 03-01-2014 10:00:00 8.9 C 7.62 g/m*3 7.09 C 11.3 km/h
924 03-01-2014 10:05:00 9.2 C 7.68 g/m*3 8.05 C 8.1 km/h
925 03-01-2014 10:10:00 9.3 C 7.73 g/m*3 8.56 C 6.4 km/h
Sensor: Nr:Datum:Temp:Abs-Feuchte:Windchill:Wind:
Aussen-T/F 926 03-01-2014 10:15:00 9.3 C 7.73 g/m*3 8.56 C 6.4 km/h
927 03-01-2014 10:20:00 9.3 C 7.82 g/m*3 7.58 C 11.3 km/h
928 03-01-2014 10:25:00 9.2 C 7.86 g/m*3 8.05 C 8.1 km/h
929 03-01-2014 10:30:00 9.1 C 7.9 g/m*3 9.1 C 4.8 km/h
930 03-01-2014 10:35:00 9.1 C 7.9 g/m*3 9.1 C 0 km/h
931 03-01-2014 10:40:00 9.1 C 7.9 g/m*3 8.33 C 6.4 km/h
932 03-01-2014 10:45:00 9.1 C 7.9 g/m*3 9.1 C 4.8 km/h
933 03-01-2014 10:50:00 9.1 C 7.9 g/m*3 8.33 C 6.4 km/h
934 03-01-2014 10:55:00 9.1 C 7.99 g/m*3 9.1 C 3.2 km/h
935 03-01-2014 11:00:00 9.1 C 7.99 g/m*3 9.1 C 3.2 km/h
936 03-01-2014 11:05:00 9.1 C 7.99 g/m*3 9.1 C 1.6 km/h
937 03-01-2014 11:10:00 9.1 C 7.99 g/m*3 9.1 C 0 km/h
938 03-01-2014 11:15:00 9.1 C 7.99 g/m*3 9.1 C 3.2 km/h
939 03-01-2014 11:20:00 9.2 C 8.04 g/m*3 9.2 C 4.8 km/h
940 03-01-2014 11:25:00 9.2 C 8.04 g/m*3 8.05 C 8.1 km/h
941 03-01-2014 11:30:00 9.3 C 8.09 g/m*3 9.3 C 3.2 km/h
942 03-01-2014 11:35:00 9.3 C 8.09 g/m*3 8.16 C 8.1 km/h
943 03-01-2014 11:40:00 9.3 C 8.09 g/m*3 9.3 C 4.8 km/h
944 03-01-2014 11:45:00 9.3 C 8.09 g/m*3 7.33 C 12.9 km/h
945 03-01-2014 11:50:00 9.7 C 8.3 g/m*3 9.02 C 6.4 km/h
946 03-01-2014 11:55:00 9.7 C 8.3 g/m*3 8.63 C 8.1 km/h
947 03-01-2014 12:00:00 9.7 C 8.3 g/m*3 9.7 C 4.8 km/h
948 03-01-2014 12:05:00 10 C 8.46 g/m*3 8.19 C 12.9 km/h
949 03-01-2014 12:10:00 10.3 C 8.43 g/m*3 9.04 C 9.7 km/h
950 03-01-2014 12:15:00 10.4 C 8.48 g/m*3 8.9 C 11.3 km/h
Sensor: Nr:Datum:Temp:Abs-Feuchte:Windchill:Wind:
Aussen-T/F 951 03-01-2014 12:20:00 10.6 C 8.49 g/m*3 8.92 C 12.9 km/h
952 03-01-2014 12:25:00 10.7 C 8.55 g/m*3 8.65 C 16.1 km/h
953 03-01-2014 12:30:00 10.8 C 8.5 g/m*3 8.78 C 16.1 km/h
954 03-01-2014 12:35:00 10.8 C 8.5 g/m*3 9.38 C 11.3 km/h
955 03-01-2014 12:40:00 10.8 C 8.5 g/m*3 9.16 C 12.9 km/h
956 03-01-2014 12:45:00 10.8 C 8.5 g/m*3 9.16 C 12.9 km/h
957 03-01-2014 12:50:00 10.8 C 8.4 g/m*3 9.16 C 12.9 km/h
958 03-01-2014 12:55:00 10.9 C 8.45 g/m*3 9.28 C 12.9 km/h
959 03-01-2014 13:00:00 10.9 C 8.45 g/m*3 9.28 C 12.9 km/h
960 03-01-2014 13:05:00 10.9 C 8.55 g/m*3 10.04 C 8.1 km/h
961 03-01-2014 13:10:00 10.8 C 8.5 g/m*3 10.8 C 4.8 km/h
962 03-01-2014 13:15:00 10.8 C 8.5 g/m*3 10.29 C 6.4 km/h
963 03-01-2014 13:20:00 10.8 C 8.5 g/m*3 10.29 C 6.4 km/h
964 03-01-2014 13:25:00 10.9 C 8.55 g/m*3 10.41 C 6.4 km/h
965 03-01-2014 13:30:00 11.1 C 8.56 g/m*3 11.1 C 14.5 km/h
966 03-01-2014 13:35:00 11.2 C 8.51 g/m*3 11.2 C 8.1 km/h
967 03-01-2014 13:40:00 11.2 C 8.41 g/m*3 11.2 C 4.8 km/h
968 03-01-2014 13:45:00 11.3 C 8.36 g/m*3 11.3 C 9.7 km/h
969 03-01-2014 13:50:00 11.5 C 8.37 g/m*3 11.5 C 6.4 km/h
970 03-01-2014 13:55:00 11.6 C 8.42 g/m*3 11.6 C 9.7 km/h
971 03-01-2014 14:00:00 11.6 C 8.42 g/m*3 11.6 C 4.8 km/h
972 03-01-2014 14:05:00 11.7 C 8.37 g/m*3 11.7 C 11.3 km/h
973 03-01-2014 14:10:00 11.8 C 8.42 g/m*3 11.8 C 9.7 km/h
974 03-01-2014 14:15:00 11.9 C 8.37 g/m*3 11.9 C 11.3 km/h
975 03-01-2014 14:20:00 12 C 8.42 g/m*3 12 C 8.1 km/h
Sensor: Nr:Datum:Temp:Abs-Feuchte:Windchill:Wind:
Aussen-T/F 976 03-01-2014 14:25:00 12.1 C 8.47 g/m*3 12.1 C 6.4 km/h
977 03-01-2014 14:30:00 12.1 C 8.47 g/m*3 12.1 C 8.1 km/h
978 03-01-2014 14:35:00 12.2 C 8.42 g/m*3 12.2 C 6.4 km/h
979 03-01-2014 14:40:00 12.1 C 8.36 g/m*3 12.1 C 12.9 km/h
980 03-01-2014 14:45:00 12.2 C 8.42 g/m*3 12.2 C 6.4 km/h
981 03-01-2014 14:50:00 12.2 C 8.42 g/m*3 12.2 C 12.9 km/h
982 03-01-2014 14:55:00 12.2 C 8.42 g/m*3 12.2 C 4.8 km/h
983 03-01-2014 15:00:00 12.3 C 8.47 g/m*3 12.3 C 0 km/h
984 03-01-2014 15:05:00 12.2 C 8.31 g/m*3 12.2 C 8.1 km/h
985 03-01-2014 15:10:00 12.2 C 8.42 g/m*3 12.2 C 6.4 km/h
986 03-01-2014 15:15:00 12.2 C 8.31 g/m*3 12.2 C 9.7 km/h
987 03-01-2014 15:20:00 12.2 C 8.42 g/m*3 12.2 C 3.2 km/h
988 03-01-2014 15:25:00 12.1 C 8.47 g/m*3 12.1 C 4.8 km/h
989 03-01-2014 15:30:00 11.8 C 8.42 g/m*3 11.8 C 3.2 km/h
990 03-01-2014 15:35:00 11.6 C 8.42 g/m*3 11.6 C 1.6 km/h
991 03-01-2014 15:40:00 11.5 C 8.26 g/m*3 11.5 C 4.8 km/h
992 03-01-2014 15:45:00 11.5 C 8.26 g/m*3 11.5 C 6.4 km/h
993 03-01-2014 15:50:00 11.5 C 8.37 g/m*3 11.5 C 4.8 km/h
994 03-01-2014 15:55:00 11.3 C 8.26 g/m*3 11.3 C 3.2 km/h
995 03-01-2014 16:00:00 11.2 C 8.41 g/m*3 11.2 C 3.2 km/h
996 03-01-2014 16:05:00 11.2 C 8.31 g/m*3 11.2 C 4.8 km/h
997 03-01-2014 16:10:00 11.2 C 8.31 g/m*3 11.2 C 3.2 km/h
998 03-01-2014 16:15:00 11.3 C 8.36 g/m*3 11.3 C 1.6 km/h
999 03-01-2014 16:20:00 11.3 C 8.36 g/m*3 11.3 C 3.2 km/h
1000 03-01-2014 16:25:00 11.3 C 8.26 g/m*3 11.3 C 8.1 km/h
Sensor: Nr:Datum:Temp:Abs-Feuchte:Windchill:Wind:
Aussen-T/F 1001 03-01-2014 16:30:00 11.4 C 8.31 g/m*3 11.4 C 4.8 km/h
1002 03-01-2014 16:35:00 11.3 C 8.36 g/m*3 11.3 C 4.8 km/h
1003 03-01-2014 16:40:00 11 C 8.21 g/m*3 11 C 3.2 km/h
1004 03-01-2014 16:45:00 10.7 C 8.15 g/m*3 10.7 C 0 km/h
1005 03-01-2014 16:50:00 10.4 C 8.1 g/m*3 9.83 C 6.4 km/h
1006 03-01-2014 16:55:00 10.5 C 8.15 g/m*3 8.8 C 12.9 km/h
1007 03-01-2014 17:00:00 10.9 C 8.26 g/m*3 10.9 C 4.8 km/h
1008 03-01-2014 17:05:00 10.8 C 8.2 g/m*3 9.93 C 8.1 km/h
1009 03-01-2014 17:10:00 10.7 C 8.15 g/m*3 9.81 C 8.1 km/h
1010 03-01-2014 17:15:00 10.7 C 8.15 g/m*3 10.7 C 4.8 km/h
1011 03-01-2014 17:20:00 10.7 C 8.15 g/m*3 9.81 C 8.1 km/h
1012 03-01-2014 17:25:00 10.6 C 8.2 g/m*3 10.6 C 4.8 km/h
1013 03-01-2014 17:30:00 10.8 C 8.2 g/m*3 10.29 C 6.4 km/h
1014 03-01-2014 17:35:00 10.9 C 8.16 g/m*3 10.9 C 4.8 km/h
1015 03-01-2014 17:40:00 11.2 C 8.21 g/m*3 11.2 C 9.7 km/h
1016 03-01-2014 17:45:00 11.2 C 8.21 g/m*3 11.2 C 4.8 km/h
1017 03-01-2014 17:50:00 10.9 C 8.16 g/m*3 10.9 C 4.8 km/h
1018 03-01-2014 17:55:00 10.8 C 8.11 g/m*3 10.8 C 4.8 km/h
1019 03-01-2014 18:00:00 10.9 C 8.16 g/m*3 9.76 C 9.7 km/h
1020 03-01-2014 18:05:00 11.1 C 8.16 g/m*3 11.1 C 1.6 km/h
1021 03-01-2014 18:10:00 10.8 C 8.11 g/m*3 10.29 C 6.4 km/h
1022 03-01-2014 18:15:00 10.7 C 8.15 g/m*3 10.7 C 3.2 km/h
1023 03-01-2014 18:20:00 10.7 C 8.15 g/m*3 9.81 C 8.1 km/h
1024 03-01-2014 18:25:00 10.8 C 8.2 g/m*3 9.93 C 8.1 km/h
1025 03-01-2014 18:30:00 10.9 C 8.16 g/m*3 9.51 C 11.3 km/h
Sensor: Nr:Datum:Temp:Abs-Feuchte:Windchill:Wind:
Aussen-T/F 1026 03-01-2014 18:35:00 10.8 C 8.11 g/m*3 9.16 C 12.9 km/h
1027 03-01-2014 18:40:00 10.9 C 8.16 g/m*3 9.28 C 12.9 km/h
1028 03-01-2014 18:45:00 11.2 C 8.21 g/m*3 11.2 C 3.2 km/h
1029 03-01-2014 18:50:00 11.3 C 8.16 g/m*3 11.3 C 9.7 km/h
1030 03-01-2014 18:55:00 11.5 C 8.26 g/m*3 11.5 C 12.9 km/h
1031 03-01-2014 19:00:00 11.5 C 8.16 g/m*3 11.5 C 12.9 km/h
1032 03-01-2014 19:05:00 11.6 C 8.21 g/m*3 11.6 C 8.1 km/h
1033 03-01-2014 19:10:00 11.8 C 8.21 g/m*3 11.8 C 11.3 km/h
1034 03-01-2014 19:15:00 11.9 C 8.26 g/m*3 11.9 C 4.8 km/h
1035 03-01-2014 19:20:00 11.8 C 8.1 g/m*3 11.8 C 8.1 km/h
1036 03-01-2014 19:25:00 11.8 C 8.1 g/m*3 11.8 C 8.1 km/h
1037 03-01-2014 19:30:00 11.8 C 8.1 g/m*3 11.8 C 9.7 km/h
1038 03-01-2014 19:35:00 11.8 C 8.1 g/m*3 11.8 C 3.2 km/h
1039 03-01-2014 19:40:00 11.9 C 8.15 g/m*3 11.9 C 16.1 km/h
1040 03-01-2014 19:45:00 12 C 8.21 g/m*3 12 C 11.3 km/h
1041 03-01-2014 19:50:00 12.2 C 8.2 g/m*3 12.2 C 14.5 km/h
1042 03-01-2014 19:55:00 12.3 C 8.14 g/m*3 12.3 C 24.1 km/h
1043 03-01-2014 20:00:00 12.4 C 8.19 g/m*3 12.4 C 29 km/h
1044 03-01-2014 20:05:00 12.4 C 8.19 g/m*3 12.4 C 17.7 km/h
1045 03-01-2014 20:10:00 12.3 C 8.14 g/m*3 12.3 C 22.5 km/h
1046 03-01-2014 20:15:00 12.4 C 8.19 g/m*3 12.4 C 27.4 km/h
1047 03-01-2014 20:20:00 12.4 C 8.09 g/m*3 12.4 C 16.1 km/h
1048 03-01-2014 20:25:00 12.4 C 8.09 g/m*3 12.4 C 20.9 km/h
1049 03-01-2014 20:30:00 12.4 C 8.09 g/m*3 12.4 C 17.7 km/h
1050 03-01-2014 20:35:00 12.4 C 7.98 g/m*3 12.4 C 17.7 km/h
Sensor: Nr:Datum:Temp:Abs-Feuchte:Windchill:Wind:
Aussen-T/F 1051 03-01-2014 20:40:00 12.3 C 7.93 g/m*3 12.3 C 12.9 km/h
1052 03-01-2014 20:45:00 12.3 C 7.93 g/m*3 12.3 C 24.1 km/h
1053 03-01-2014 20:50:00 12.4 C 7.87 g/m*3 12.4 C 20.9 km/h
1054 03-01-2014 20:55:00 12.3 C 7.93 g/m*3 12.3 C 22.5 km/h
1055 03-01-2014 21:00:00 12.3 C 7.93 g/m*3 12.3 C 19.3 km/h
1056 03-01-2014 21:05:00 12.2 C 7.99 g/m*3 12.2 C 14.5 km/h
1057 03-01-2014 21:10:00 12.2 C 7.99 g/m*3 12.2 C 20.9 km/h
1058 03-01-2014 21:15:00 12.1 C 7.94 g/m*3 12.1 C 20.9 km/h
1059 03-01-2014 21:20:00 12.1 C 7.94 g/m*3 12.1 C 19.3 km/h
1060 03-01-2014 21:25:00 12.1 C 7.94 g/m*3 12.1 C 19.3 km/h
1061 03-01-2014 21:30:00 12.1 C 7.94 g/m*3 12.1 C 22.5 km/h
1062 03-01-2014 21:35:00 12.1 C 7.83 g/m*3 12.1 C 17.7 km/h
1063 03-01-2014 21:40:00 12 C 7.78 g/m*3 12 C 30.6 km/h
1064 03-01-2014 21:45:00 12 C 7.67 g/m*3 12 C 20.9 km/h
1065 03-01-2014 21:50:00 11.9 C 7.63 g/m*3 11.9 C 20.9 km/h
1066 03-01-2014 21:55:00 11.9 C 7.52 g/m*3 11.9 C 17.7 km/h
1067 03-01-2014 22:00:00 11.8 C 7.58 g/m*3 11.8 C 22.5 km/h
1068 03-01-2014 22:05:00 11.8 C 7.58 g/m*3 11.8 C 19.3 km/h
1069 03-01-2014 22:10:00 11.8 C 7.58 g/m*3 11.8 C 20.9 km/h
1070 03-01-2014 22:15:00 11.8 C 7.58 g/m*3 11.8 C 27.4 km/h
1071 03-01-2014 22:20:00 11.7 C 7.43 g/m*3 11.7 C 20.9 km/h
1072 03-01-2014 22:25:00 11.7 C 7.53 g/m*3 11.7 C 11.3 km/h
1073 03-01-2014 22:30:00 11.6 C 7.48 g/m*3 11.6 C 12.9 km/h
1074 03-01-2014 22:35:00 11.4 C 7.39 g/m*3 11.4 C 14.5 km/h
1075 03-01-2014 22:40:00 11.4 C 7.6 g/m*3 11.4 C 6.4 km/h
Sensor: Nr:Datum:Temp:Abs-Feuchte:Windchill:Wind:
Aussen-T/F 1076 03-01-2014 22:45:00 11.2 C 7.4 g/m*3 11.2 C 9.7 km/h
1077 03-01-2014 22:50:00 11.2 C 7.4 g/m*3 11.2 C 17.7 km/h
1078 03-01-2014 22:55:00 11.2 C 7.3 g/m*3 11.2 C 16.1 km/h
1079 03-01-2014 23:00:00 11.3 C 7.24 g/m*3 11.3 C 14.5 km/h
1080 03-01-2014 23:05:00 11.3 C 7.24 g/m*3 11.3 C 17.7 km/h
1081 03-01-2014 23:10:00 11.2 C 7.1 g/m*3 11.2 C 22.5 km/h
1082 03-01-2014 23:15:00 11.2 C 7.1 g/m*3 11.2 C 19.3 km/h
1083 03-01-2014 23:20:00 11.1 C 6.95 g/m*3 11.1 C 19.3 km/h
1084 03-01-2014 23:25:00 10.9 C 6.86 g/m*3 8.3 C 22.5 km/h
1085 03-01-2014 23:30:00 10.9 C 6.86 g/m*3 9.51 C 11.3 km/h
1086 03-01-2014 23:35:00 10.7 C 6.88 g/m*3 8.84 C 14.5 km/h
1087 03-01-2014 23:40:00 10.6 C 6.73 g/m*3 9.69 C 8.1 km/h
1088 03-01-2014 23:45:00 10.5 C 6.69 g/m*3 8.23 C 17.7 km/h
1089 03-01-2014 23:50:00 10.5 C 6.69 g/m*3 9.02 C 11.3 km/h
1090 03-01-2014 23:55:00 10.4 C 6.65 g/m*3 9.16 C 9.7 km/h
1091 04-01-2014 00:00:00 10.3 C 6.7 g/m*3 7.82 C 19.3 km/h
1092 04-01-2014 00:05:00 10.3 C 6.61 g/m*3 8.16 C 16.1 km/h
1093 04-01-2014 00:10:00 10.3 C 6.61 g/m*3 8.55 C 12.9 km/h
1094 04-01-2014 00:15:00 10.2 C 6.66 g/m*3 9.22 C 8.1 km/h
1095 04-01-2014 00:20:00 9.9 C 6.63 g/m*3 7.85 C 14.5 km/h
1096 04-01-2014 00:25:00 9.7 C 6.64 g/m*3 8.06 C 11.3 km/h
1097 04-01-2014 00:30:00 9.5 C 6.64 g/m*3 8.4 C 8.1 km/h
1098 04-01-2014 00:35:00 9.4 C 6.6 g/m*3 8.68 C 6.4 km/h
1099 04-01-2014 00:40:00 9.4 C 6.6 g/m*3 9.4 C 4.8 km/h
1100 04-01-2014 00:45:00 9.3 C 6.56 g/m*3 8.56 C 6.4 km/h
Sensor: Nr:Datum:Temp:Abs-Feuchte:Windchill:Wind:
Aussen-T/F 1101 04-01-2014 00:50:00 9.2 C 6.61 g/m*3 8.05 C 8.1 km/h
1102 04-01-2014 00:55:00 9.3 C 6.65 g/m*3 7.85 C 9.7 km/h
1103 04-01-2014 01:00:00 9 C 6.61 g/m*3 9 C 1.6 km/h
1104 04-01-2014 01:05:00 8.9 C 6.57 g/m*3 6.62 C 14.5 km/h
1105 04-01-2014 01:10:00 9 C 6.7 g/m*3 9 C 3.2 km/h
1106 04-01-2014 01:15:00 8.8 C 6.61 g/m*3 7.98 C 6.4 km/h
1107 04-01-2014 01:20:00 8.8 C 6.61 g/m*3 8.8 C 3.2 km/h
1108 04-01-2014 01:25:00 8.8 C 6.7 g/m*3 8.8 C 1.6 km/h
1109 04-01-2014 01:30:00 8.6 C 6.7 g/m*3 7.75 C 6.4 km/h
1110 04-01-2014 01:35:00 8.6 C 6.7 g/m*3 8.6 C 3.2 km/h
1111 04-01-2014 01:40:00 8.3 C 6.74 g/m*3 6.99 C 8.1 km/h
1112 04-01-2014 01:45:00 8.1 C 6.74 g/m*3 8.1 C 4.8 km/h
1113 04-01-2014 01:50:00 8.2 C 6.87 g/m*3 7.29 C 6.4 km/h
1114 04-01-2014 01:55:00 7.9 C 6.74 g/m*3 7.9 C 4.8 km/h
1115 04-01-2014 02:00:00 7.8 C 6.77 g/m*3 7.8 C 4.8 km/h
1116 04-01-2014 02:05:00 7.6 C 6.69 g/m*3 7.6 C 3.2 km/h
1117 04-01-2014 02:10:00 7.5 C 6.72 g/m*3 7.5 C 4.8 km/h
1118 04-01-2014 02:15:00 7.5 C 6.72 g/m*3 6.48 C 6.4 km/h
1119 04-01-2014 02:20:00 7.8 C 6.77 g/m*3 6.83 C 6.4 km/h
1120 04-01-2014 02:25:00 7.6 C 6.77 g/m*3 7.6 C 4.8 km/h
1121 04-01-2014 02:30:00 7.4 C 6.68 g/m*3 7.4 C 3.2 km/h
1122 04-01-2014 02:35:00 7.4 C 6.68 g/m*3 7.4 C 3.2 km/h
1123 04-01-2014 02:40:00 7.4 C 6.68 g/m*3 7.4 C 4.8 km/h
1124 04-01-2014 02:45:00 7.4 C 6.68 g/m*3 7.4 C 4.8 km/h
1125 04-01-2014 02:50:00 7.6 C 6.69 g/m*3 7.6 C 3.2 km/h
Sensor: Nr:Datum:Temp:Abs-Feuchte:Windchill:Wind:
Aussen-T/F 1126 04-01-2014 02:55:00 7.7 C 6.65 g/m*3 6.28 C 8.1 km/h
1127 04-01-2014 03:00:00 7.9 C 6.74 g/m*3 7.9 C 4.8 km/h
1128 04-01-2014 03:05:00 7.9 C 6.65 g/m*3 7.9 C 4.8 km/h
1129 04-01-2014 03:10:00 7.9 C 6.65 g/m*3 6.18 C 9.7 km/h
1130 04-01-2014 03:15:00 8.1 C 6.82 g/m*3 8.1 C 1.6 km/h
1131 04-01-2014 03:20:00 7.9 C 6.74 g/m*3 7.9 C 3.2 km/h
1132 04-01-2014 03:25:00 7.8 C 6.77 g/m*3 7.8 C 3.2 km/h
1133 04-01-2014 03:30:00 7.9 C 6.74 g/m*3 6.94 C 6.4 km/h
1134 04-01-2014 03:35:00 8.1 C 6.74 g/m*3 8.1 C 3.2 km/h
1135 04-01-2014 03:40:00 8 C 6.78 g/m*3 8 C 4.8 km/h
1136 04-01-2014 03:45:00 8.1 C 6.82 g/m*3 8.1 C 4.8 km/h
1137 04-01-2014 03:50:00 7.9 C 6.82 g/m*3 7.9 C 3.2 km/h
1138 04-01-2014 03:55:00 7.6 C 6.77 g/m*3 7.6 C 4.8 km/h
1139 04-01-2014 04:00:00 7.3 C 6.72 g/m*3 7.3 C 3.2 km/h
1140 04-01-2014 04:05:00 7.1 C 6.71 g/m*3 7.1 C 4.8 km/h
1141 04-01-2014 04:10:00 7.1 C 6.79 g/m*3 7.1 C 3.2 km/h
1142 04-01-2014 04:15:00 7.2 C 6.83 g/m*3 7.2 C 3.2 km/h
1143 04-01-2014 04:20:00 7.2 C 6.83 g/m*3 7.2 C 1.6 km/h
1144 04-01-2014 04:25:00 7.6 C 6.85 g/m*3 7.6 C 3.2 km/h
1145 04-01-2014 04:30:00 7.6 C 6.85 g/m*3 7.6 C 3.2 km/h
1146 04-01-2014 04:35:00 7.7 C 6.81 g/m*3 7.7 C 1.6 km/h
1147 04-01-2014 04:40:00 7.7 C 6.89 g/m*3 7.7 C 1.6 km/h
1148 04-01-2014 04:45:00 7.6 C 6.85 g/m*3 7.6 C 3.2 km/h
1149 04-01-2014 04:50:00 7.3 C 6.79 g/m*3 7.3 C 1.6 km/h
1150 04-01-2014 04:55:00 7.2 C 6.75 g/m*3 7.2 C 1.6 km/h
Sensor: Nr:Datum:Temp:Abs-Feuchte:Windchill:Wind:
Aussen-T/F 1151 04-01-2014 05:00:00 7.1 C 6.71 g/m*3 7.1 C 3.2 km/h
1152 04-01-2014 05:05:00 6.8 C 6.58 g/m*3 6.8 C 3.2 km/h
1153 04-01-2014 05:10:00 6.6 C 6.64 g/m*3 6.6 C 3.2 km/h
1154 04-01-2014 05:15:00 6.4 C 6.56 g/m*3 6.4 C 3.2 km/h
1155 04-01-2014 05:20:00 6.3 C 6.59 g/m*3 6.3 C 4.8 km/h
1156 04-01-2014 05:25:00 6.2 C 6.55 g/m*3 6.2 C 3.2 km/h
1157 04-01-2014 05:30:00 6 C 6.53 g/m*3 6 C 3.2 km/h
1158 04-01-2014 05:35:00 5.9 C 6.49 g/m*3 5.9 C 3.2 km/h
1159 04-01-2014 05:40:00 5.9 C 6.56 g/m*3 5.9 C 3.2 km/h
1160 04-01-2014 05:45:00 5.8 C 6.52 g/m*3 5.8 C 3.2 km/h
1161 04-01-2014 05:50:00 5.8 C 6.52 g/m*3 5.8 C 1.6 km/h
1162 04-01-2014 05:55:00 5.7 C 6.48 g/m*3 5.7 C 3.2 km/h
1163 04-01-2014 06:00:00 5.6 C 6.43 g/m*3 5.6 C 3.2 km/h
1164 04-01-2014 06:05:00 5.5 C 6.39 g/m*3 5.5 C 3.2 km/h
1165 04-01-2014 06:10:00 5.4 C 6.35 g/m*3 5.4 C 3.2 km/h
1166 04-01-2014 06:15:00 5.3 C 6.31 g/m*3 5.3 C 3.2 km/h
1167 04-01-2014 06:20:00 5.3 C 6.38 g/m*3 5.3 C 3.2 km/h
1168 04-01-2014 06:25:00 5.2 C 6.33 g/m*3 5.2 C 4.8 km/h
1169 04-01-2014 06:30:00 5.2 C 6.33 g/m*3 5.2 C 4.8 km/h
1170 04-01-2014 06:35:00 5.2 C 6.33 g/m*3 5.2 C 3.2 km/h
1171 04-01-2014 06:40:00 5.2 C 6.33 g/m*3 5.2 C 3.2 km/h
1172 04-01-2014 06:45:00 5.2 C 6.4 g/m*3 5.2 C 3.2 km/h
1173 04-01-2014 06:50:00 5.2 C 6.4 g/m*3 5.2 C 3.2 km/h
1174 04-01-2014 06:55:00 5.3 C 6.38 g/m*3 5.3 C 4.8 km/h
1175 04-01-2014 07:00:00 5.3 C 6.38 g/m*3 5.3 C 3.2 km/h
Sensor: Nr:Datum:Temp:Abs-Feuchte:Windchill:Wind:
Aussen-T/F 1176 04-01-2014 07:05:00 5.3 C 6.38 g/m*3 5.3 C 3.2 km/h
1177 04-01-2014 07:10:00 5.4 C 6.49 g/m*3 3.58 C 8.1 km/h
1178 04-01-2014 07:15:00 5.7 C 6.55 g/m*3 4.4 C 6.4 km/h
1179 04-01-2014 07:20:00 5.9 C 6.63 g/m*3 4.63 C 6.4 km/h
1180 04-01-2014 07:25:00 6.2 C 6.62 g/m*3 4.98 C 6.4 km/h
1181 04-01-2014 07:30:00 6.3 C 6.66 g/m*3 6.3 C 4.8 km/h
1182 04-01-2014 07:35:00 6.5 C 6.67 g/m*3 4.87 C 8.1 km/h
1183 04-01-2014 07:40:00 6.7 C 6.69 g/m*3 5.56 C 6.4 km/h
1184 04-01-2014 07:45:00 6.7 C 6.69 g/m*3 6.7 C 4.8 km/h
1185 04-01-2014 07:50:00 6.6 C 6.64 g/m*3 6.6 C 3.2 km/h
1186 04-01-2014 07:55:00 6.7 C 6.69 g/m*3 6.7 C 4.8 km/h
1187 04-01-2014 08:00:00 6.8 C 6.73 g/m*3 5.22 C 8.1 km/h
1188 04-01-2014 08:05:00 6.9 C 6.7 g/m*3 5.34 C 8.1 km/h
1189 04-01-2014 08:10:00 7 C 6.74 g/m*3 5.46 C 8.1 km/h
1190 04-01-2014 08:15:00 7.1 C 6.79 g/m*3 5.58 C 8.1 km/h
1191 04-01-2014 08:20:00 7.2 C 6.83 g/m*3 5.35 C 9.7 km/h
1192 04-01-2014 08:25:00 7.2 C 6.75 g/m*3 7.2 C 4.8 km/h
1193 04-01-2014 08:30:00 7.2 C 6.75 g/m*3 6.13 C 6.4 km/h
1194 04-01-2014 08:35:00 7.2 C 6.75 g/m*3 7.2 C 4.8 km/h
1195 04-01-2014 08:40:00 7.1 C 6.79 g/m*3 5.58 C 8.1 km/h
1196 04-01-2014 08:45:00 6.9 C 6.7 g/m*3 5.79 C 6.4 km/h
1197 04-01-2014 08:50:00 6.8 C 6.65 g/m*3 6.8 C 4.8 km/h
1198 04-01-2014 08:55:00 6.8 C 6.73 g/m*3 6.8 C 4.8 km/h
1199 04-01-2014 09:00:00 6.9 C 6.7 g/m*3 4.68 C 11.3 km/h
1200 04-01-2014 09:05:00 6.9 C 6.7 g/m*3 5.79 C 6.4 km/h
Sensor: Nr:Datum:Temp:Abs-Feuchte:Windchill:Wind:
Aussen-T/F 1201 04-01-2014 09:10:00 6.9 C 6.77 g/m*3 6.9 C 4.8 km/h
1202 04-01-2014 09:15:00 7 C 6.74 g/m*3 7 C 4.8 km/h
1203 04-01-2014 09:20:00 6.9 C 6.77 g/m*3 5.79 C 6.4 km/h
1204 04-01-2014 09:25:00 6.9 C 6.77 g/m*3 6.9 C 4.8 km/h
1205 04-01-2014 09:30:00 7.1 C 6.79 g/m*3 6.02 C 6.4 km/h
1206 04-01-2014 09:35:00 7.3 C 6.87 g/m*3 5.16 C 11.3 km/h
1207 04-01-2014 09:40:00 7.5 C 6.88 g/m*3 6.48 C 6.4 km/h
1208 04-01-2014 09:45:00 7.7 C 6.89 g/m*3 7.7 C 4.8 km/h
1209 04-01-2014 09:50:00 7.7 C 6.89 g/m*3 6.71 C 6.4 km/h
1210 04-01-2014 09:55:00 7.7 C 6.89 g/m*3 7.7 C 4.8 km/h
1211 04-01-2014 10:00:00 7.7 C 6.97 g/m*3 7.7 C 4.8 km/h
1212 04-01-2014 10:05:00 7.7 C 6.97 g/m*3 7.7 C 4.8 km/h
1213 04-01-2014 10:10:00 7.8 C 7.02 g/m*3 6.06 C 9.7 km/h
1214 04-01-2014 10:15:00 7.8 C 7.02 g/m*3 7.8 C 4.8 km/h
1215 04-01-2014 10:20:00 7.8 C 7.02 g/m*3 6.4 C 8.1 km/h
1216 04-01-2014 10:25:00 7.9 C 7.06 g/m*3 6.52 C 8.1 km/h
1217 04-01-2014 10:30:00 7.9 C 7.06 g/m*3 6.52 C 8.1 km/h
1218 04-01-2014 10:35:00 8 C 7.11 g/m*3 6.64 C 8.1 km/h
1219 04-01-2014 10:40:00 8.1 C 7.16 g/m*3 6.75 C 8.1 km/h
1220 04-01-2014 10:45:00 8.1 C 7.16 g/m*3 8.1 C 4.8 km/h
1221 04-01-2014 10:50:00 8.1 C 7.16 g/m*3 7.17 C 6.4 km/h
1222 04-01-2014 10:55:00 8.1 C 7.16 g/m*3 7.17 C 6.4 km/h
1223 04-01-2014 11:00:00 8.2 C 7.12 g/m*3 6.87 C 8.1 km/h
1224 04-01-2014 11:05:00 8.2 C 7.12 g/m*3 6.25 C 11.3 km/h
1225 04-01-2014 11:10:00 8.2 C 7.12 g/m*3 6.54 C 9.7 km/h
Sensor: Nr:Datum:Temp:Abs-Feuchte:Windchill:Wind:
Aussen-T/F 1226 04-01-2014 11:15:00 8.2 C 7.12 g/m*3 6.87 C 8.1 km/h
1227 04-01-2014 11:20:00 8.2 C 7.12 g/m*3 7.29 C 6.4 km/h
1228 04-01-2014 11:25:00 8.2 C 7.12 g/m*3 6.54 C 9.7 km/h
1229 04-01-2014 11:30:00 8.2 C 7.12 g/m*3 7.29 C 6.4 km/h
1230 04-01-2014 11:35:00 8.3 C 7.16 g/m*3 6.99 C 8.1 km/h
1231 04-01-2014 11:40:00 8.3 C 7.16 g/m*3 8.3 C 4.8 km/h
1232 04-01-2014 11:45:00 8.4 C 7.21 g/m*3 8.4 C 4.8 km/h
1233 04-01-2014 11:50:00 8.4 C 7.13 g/m*3 7.52 C 6.4 km/h
1234 04-01-2014 11:55:00 8.5 C 7.17 g/m*3 7.64 C 6.4 km/h
1235 04-01-2014 12:00:00 8.6 C 7.13 g/m*3 8.6 C 4.8 km/h
1236 04-01-2014 12:05:00 8.7 C 7.18 g/m*3 8.7 C 4.8 km/h
1237 04-01-2014 12:10:00 8.7 C 7.18 g/m*3 7.13 C 9.7 km/h
1238 04-01-2014 12:15:00 8.8 C 7.14 g/m*3 8.8 C 4.8 km/h
1239 04-01-2014 12:20:00 8.9 C 7.18 g/m*3 8.9 C 3.2 km/h
1240 04-01-2014 12:25:00 9 C 7.23 g/m*3 9 C 4.8 km/h
1241 04-01-2014 12:30:00 9.1 C 7.28 g/m*3 9.1 C 3.2 km/h
1242 04-01-2014 12:35:00 9.2 C 7.23 g/m*3 8.45 C 6.4 km/h
1243 04-01-2014 12:40:00 9.3 C 7.19 g/m*3 9.3 C 4.8 km/h
1244 04-01-2014 12:45:00 9.4 C 7.33 g/m*3 9.4 C 4.8 km/h
1245 04-01-2014 12:50:00 9.4 C 7.33 g/m*3 9.4 C 3.2 km/h
1246 04-01-2014 12:55:00 9.4 C 7.33 g/m*3 8.68 C 6.4 km/h
1247 04-01-2014 13:00:00 9.4 C 7.24 g/m*3 8.68 C 6.4 km/h
1248 04-01-2014 13:05:00 9.5 C 7.28 g/m*3 7.82 C 11.3 km/h
1249 04-01-2014 13:10:00 9.5 C 7.28 g/m*3 8.79 C 6.4 km/h
1250 04-01-2014 13:15:00 9.5 C 7.28 g/m*3 7.82 C 11.3 km/h
Sensor: Nr:Datum:Temp:Abs-Feuchte:Windchill:Wind:
Aussen-T/F 1251 04-01-2014 13:20:00 9.4 C 7.24 g/m*3 7.7 C 11.3 km/h
1252 04-01-2014 13:25:00 9.4 C 7.33 g/m*3 8.28 C 8.1 km/h
1253 04-01-2014 13:30:00 9.4 C 7.24 g/m*3 8.68 C 6.4 km/h
1254 04-01-2014 13:35:00 9.4 C 7.24 g/m*3 9.4 C 4.8 km/h
1255 04-01-2014 13:40:00 9.4 C 7.33 g/m*3 8.68 C 6.4 km/h
1256 04-01-2014 13:45:00 9.4 C 7.33 g/m*3 9.4 C 4.8 km/h
1257 04-01-2014 13:50:00 9.4 C 7.33 g/m*3 8.28 C 8.1 km/h
1258 04-01-2014 13:55:00 9.3 C 7.28 g/m*3 9.3 C 3.2 km/h
1259 04-01-2014 14:00:00 9.3 C 7.28 g/m*3 9.3 C 4.8 km/h
1260 04-01-2014 14:05:00 9.2 C 7.14 g/m*3 8.05 C 8.1 km/h
1261 04-01-2014 14:10:00 9.2 C 7.23 g/m*3 9.2 C 3.2 km/h
1262 04-01-2014 14:15:00 9.2 C 7.23 g/m*3 9.2 C 4.8 km/h
1263 04-01-2014 14:20:00 9.1 C 7.19 g/m*3 9.1 C 4.8 km/h
1264 04-01-2014 14:25:00 9.1 C 7.28 g/m*3 9.1 C 3.2 km/h
1265 04-01-2014 14:30:00 9.1 C 7.28 g/m*3 9.1 C 0 km/h
1266 04-01-2014 14:35:00 9.1 C 7.28 g/m*3 9.1 C 0 km/h
1267 04-01-2014 14:40:00 8.9 C 7.36 g/m*3 8.9 C 0 km/h
1268 04-01-2014 14:45:00 8.8 C 7.31 g/m*3 8.8 C 0 km/h
1269 04-01-2014 14:50:00 8.8 C 7.57 g/m*3 8.8 C 0 km/h
1270 04-01-2014 14:55:00 8.7 C 7.61 g/m*3 8.7 C 0 km/h
1271 04-01-2014 15:00:00 8.4 C 7.63 g/m*3 8.4 C 0 km/h
1272 04-01-2014 15:05:00 8.3 C 7.67 g/m*3 8.3 C 0 km/h
1273 04-01-2014 15:10:00 8.2 C 7.62 g/m*3 8.2 C 1.6 km/h
1274 04-01-2014 15:15:00 8.1 C 7.66 g/m*3 8.1 C 0 km/h
1275 04-01-2014 15:20:00 7.9 C 7.64 g/m*3 7.9 C 0 km/h
Sensor: Nr:Datum:Temp:Abs-Feuchte:Windchill:Wind:
Aussen-T/F 1276 04-01-2014 15:25:00 7.8 C 7.59 g/m*3 7.8 C 0 km/h
1277 04-01-2014 15:30:00 7.8 C 7.59 g/m*3 7.8 C 0 km/h
1278 04-01-2014 15:35:00 7.7 C 7.62 g/m*3 7.7 C 0 km/h
1279 04-01-2014 15:40:00 7.7 C 7.62 g/m*3 7.7 C 0 km/h
1280 04-01-2014 15:45:00 7.7 C 7.62 g/m*3 7.7 C 0 km/h
1281 04-01-2014 15:50:00 7.6 C 7.57 g/m*3 7.6 C 0 km/h
1282 04-01-2014 15:55:00 7.6 C 7.65 g/m*3 7.6 C 0 km/h
1283 04-01-2014 16:00:00 7.5 C 7.6 g/m*3 7.5 C 0 km/h
1284 04-01-2014 16:05:00 7.4 C 7.55 g/m*3 7.4 C 0 km/h
1285 04-01-2014 16:10:00 7.4 C 7.55 g/m*3 7.4 C 0 km/h
1286 04-01-2014 16:15:00 7.4 C 7.55 g/m*3 7.4 C 0 km/h
1287 04-01-2014 16:20:00 7.3 C 7.51 g/m*3 7.3 C 0 km/h
1288 04-01-2014 16:25:00 7.3 C 7.51 g/m*3 7.3 C 0 km/h
1289 04-01-2014 16:30:00 7.3 C 7.51 g/m*3 7.3 C 0 km/h
1290 04-01-2014 16:35:00 7.2 C 7.54 g/m*3 7.2 C 0 km/h
1291 04-01-2014 16:40:00 7.2 C 7.54 g/m*3 7.2 C 0 km/h
1292 04-01-2014 16:45:00 7.2 C 7.54 g/m*3 7.2 C 0 km/h
1293 04-01-2014 16:50:00 7.1 C 7.49 g/m*3 7.1 C 0 km/h
1294 04-01-2014 16:55:00 7.1 C 7.49 g/m*3 7.1 C 0 km/h
1295 04-01-2014 17:00:00 7 C 7.44 g/m*3 7 C 0 km/h
1296 04-01-2014 17:05:00 6.9 C 7.39 g/m*3 6.9 C 0 km/h
1297 04-01-2014 17:10:00 6.9 C 7.39 g/m*3 6.9 C 0 km/h
1298 04-01-2014 17:15:00 6.8 C 7.34 g/m*3 6.8 C 0 km/h
1299 04-01-2014 17:20:00 6.7 C 7.29 g/m*3 6.7 C 0 km/h
1300 04-01-2014 17:25:00 6.7 C 7.29 g/m*3 6.7 C 1.6 km/h
Sensor: Nr:Datum:Temp:Abs-Feuchte:Windchill:Wind:
Aussen-T/F 1301 04-01-2014 17:30:00 6.6 C 7.25 g/m*3 6.6 C 0 km/h
1302 04-01-2014 17:35:00 6.6 C 7.25 g/m*3 6.6 C 0 km/h
1303 04-01-2014 17:40:00 6.6 C 7.25 g/m*3 6.6 C 0 km/h
1304 04-01-2014 17:45:00 6.6 C 7.25 g/m*3 6.6 C 0 km/h
1305 04-01-2014 17:50:00 6.6 C 7.25 g/m*3 6.6 C 0 km/h
1306 04-01-2014 17:55:00 6.6 C 7.25 g/m*3 6.6 C 1.6 km/h
1307 04-01-2014 18:00:00 6.6 C 7.25 g/m*3 6.6 C 1.6 km/h
1308 04-01-2014 18:05:00 6.7 C 7.37 g/m*3 5.11 C 8.1 km/h
1309 04-01-2014 18:10:00 6.7 C 7.37 g/m*3 6.7 C 4.8 km/h
1310 04-01-2014 18:15:00 6.7 C 7.29 g/m*3 6.7 C 1.6 km/h
1311 04-01-2014 18:20:00 6.7 C 7.29 g/m*3 6.7 C 0 km/h
1312 04-01-2014 18:25:00 6.7 C 7.29 g/m*3 6.7 C 0 km/h
1313 04-01-2014 18:30:00 6.6 C 7.25 g/m*3 6.6 C 1.6 km/h
1314 04-01-2014 18:35:00 6.6 C 7.32 g/m*3 6.6 C 0 km/h
1315 04-01-2014 18:40:00 6.6 C 7.25 g/m*3 6.6 C 0 km/h
1316 04-01-2014 18:45:00 6.7 C 7.37 g/m*3 6.7 C 0 km/h
1317 04-01-2014 18:50:00 6.7 C 7.37 g/m*3 6.7 C 0 km/h
1318 04-01-2014 18:55:00 6.7 C 7.37 g/m*3 6.7 C 0 km/h
1319 04-01-2014 19:00:00 6.8 C 7.42 g/m*3 6.8 C 0 km/h
1320 04-01-2014 19:05:00 6.8 C 7.42 g/m*3 6.8 C 0 km/h
1321 04-01-2014 19:10:00 6.8 C 7.42 g/m*3 6.8 C 3.2 km/h
1322 04-01-2014 19:15:00 6.8 C 7.42 g/m*3 6.8 C 1.6 km/h
1323 04-01-2014 19:20:00 6.8 C 7.42 g/m*3 6.8 C 1.6 km/h
1324 04-01-2014 19:25:00 6.7 C 7.37 g/m*3 6.7 C 1.6 km/h
1325 04-01-2014 19:30:00 6.6 C 7.32 g/m*3 6.6 C 3.2 km/h
Sensor: Nr:Datum:Temp:Abs-Feuchte:Windchill:Wind:
Aussen-T/F 1326 04-01-2014 19:35:00 6.6 C 7.32 g/m*3 6.6 C 1.6 km/h
1327 04-01-2014 19:40:00 6.4 C 7.23 g/m*3 6.4 C 3.2 km/h
1328 04-01-2014 19:45:00 6.3 C 7.11 g/m*3 6.3 C 4.8 km/h
1329 04-01-2014 19:50:00 6.3 C 7.18 g/m*3 6.3 C 3.2 km/h
1330 04-01-2014 19:55:00 6.2 C 7.13 g/m*3 6.2 C 0 km/h
1331 04-01-2014 20:00:00 6.2 C 7.13 g/m*3 6.2 C 0 km/h
1332 04-01-2014 20:05:00 6.3 C 7.18 g/m*3 6.3 C 0 km/h
1333 04-01-2014 20:10:00 6.4 C 7.23 g/m*3 6.4 C 0 km/h
1334 04-01-2014 20:15:00 6.4 C 7.23 g/m*3 6.4 C 0 km/h
1335 04-01-2014 20:20:00 6.6 C 7.32 g/m*3 6.6 C 0 km/h
1336 04-01-2014 20:25:00 6.6 C 7.32 g/m*3 6.6 C 0 km/h
1337 04-01-2014 20:30:00 6.6 C 7.32 g/m*3 6.6 C 0 km/h
1338 04-01-2014 20:35:00 6.7 C 7.37 g/m*3 6.7 C 0 km/h
1339 04-01-2014 20:40:00 6.7 C 7.37 g/m*3 6.7 C 0 km/h
1340 04-01-2014 20:45:00 6.8 C 7.42 g/m*3 6.8 C 0 km/h
1341 04-01-2014 20:50:00 6.8 C 7.42 g/m*3 6.8 C 0 km/h
1342 04-01-2014 20:55:00 6.8 C 7.42 g/m*3 6.8 C 4.8 km/h
1343 04-01-2014 21:00:00 6.8 C 7.42 g/m*3 6.8 C 1.6 km/h
1344 04-01-2014 21:05:00 7 C 7.59 g/m*3 7 C 1.6 km/h
1345 04-01-2014 21:10:00 7.1 C 7.57 g/m*3 7.1 C 4.8 km/h
1346 04-01-2014 21:15:00 7.1 C 7.57 g/m*3 7.1 C 1.6 km/h
1347 04-01-2014 21:20:00 7 C 7.52 g/m*3 7 C 3.2 km/h
1348 04-01-2014 21:25:00 7 C 7.52 g/m*3 7 C 1.6 km/h
1349 04-01-2014 21:30:00 7.1 C 7.57 g/m*3 7.1 C 1.6 km/h
1350 04-01-2014 21:35:00 7 C 7.52 g/m*3 7 C 3.2 km/h
Sensor: Nr:Datum:Temp:Abs-Feuchte:Windchill:Wind:
Aussen-T/F 1351 04-01-2014 21:40:00 6.9 C 7.47 g/m*3 6.9 C 4.8 km/h
1352 04-01-2014 21:45:00 7.1 C 7.57 g/m*3 7.1 C 3.2 km/h
1353 04-01-2014 21:50:00 7.2 C 7.61 g/m*3 7.2 C 1.6 km/h
1354 04-01-2014 21:55:00 7.2 C 7.61 g/m*3 7.2 C 0 km/h
1355 04-01-2014 22:00:00 6.9 C 7.39 g/m*3 6.9 C 0 km/h
1356 04-01-2014 22:05:00 6.8 C 7.34 g/m*3 6.8 C 3.2 km/h
1357 04-01-2014 22:10:00 6.8 C 7.34 g/m*3 6.8 C 1.6 km/h
1358 04-01-2014 22:15:00 6.7 C 7.29 g/m*3 6.7 C 3.2 km/h
1359 04-01-2014 22:20:00 6.8 C 7.34 g/m*3 6.8 C 4.8 km/h
1360 04-01-2014 22:25:00 6.9 C 7.39 g/m*3 6.9 C 3.2 km/h
1361 04-01-2014 22:30:00 6.9 C 7.39 g/m*3 6.9 C 3.2 km/h
1362 04-01-2014 22:35:00 6.9 C 7.39 g/m*3 6.9 C 3.2 km/h
1363 04-01-2014 22:40:00 6.9 C 7.39 g/m*3 6.9 C 3.2 km/h
1364 04-01-2014 22:45:00 6.9 C 7.39 g/m*3 6.9 C 1.6 km/h
1365 04-01-2014 22:50:00 7.1 C 7.57 g/m*3 7.1 C 3.2 km/h
1366 04-01-2014 22:55:00 7.1 C 7.49 g/m*3 7.1 C 3.2 km/h
1367 04-01-2014 23:00:00 7 C 7.44 g/m*3 7 C 3.2 km/h
1368 04-01-2014 23:05:00 7.1 C 7.57 g/m*3 7.1 C 4.8 km/h
1369 04-01-2014 23:10:00 7 C 7.44 g/m*3 7 C 3.2 km/h
1370 04-01-2014 23:15:00 6.9 C 7.39 g/m*3 6.9 C 3.2 km/h
1371 04-01-2014 23:20:00 6.8 C 7.34 g/m*3 6.8 C 3.2 km/h
1372 04-01-2014 23:25:00 6.9 C 7.47 g/m*3 6.9 C 4.8 km/h
1373 04-01-2014 23:30:00 6.9 C 7.47 g/m*3 6.9 C 4.8 km/h
1374 04-01-2014 23:35:00 6.9 C 7.47 g/m*3 6.9 C 4.8 km/h
1375 04-01-2014 23:40:00 6.9 C 7.47 g/m*3 6.9 C 3.2 km/h
Sensor: Nr:Datum:Temp:Abs-Feuchte:Windchill:Wind:
Aussen-T/F 1376 04-01-2014 23:45:00 6.9 C 7.47 g/m*3 6.9 C 3.2 km/h
1377 04-01-2014 23:50:00 6.8 C 7.42 g/m*3 6.8 C 3.2 km/h
1378 04-01-2014 23:55:00 6.8 C 7.42 g/m*3 6.8 C 3.2 km/h
1379 05-01-2014 00:00:00 6.7 C 7.37 g/m*3 6.7 C 1.6 km/h
1380 05-01-2014 00:05:00 6.7 C 7.37 g/m*3 6.7 C 3.2 km/h
1381 05-01-2014 00:10:00 6.8 C 7.42 g/m*3 6.8 C 3.2 km/h
1382 05-01-2014 00:15:00 6.8 C 7.42 g/m*3 6.8 C 3.2 km/h
1383 05-01-2014 00:20:00 6.9 C 7.47 g/m*3 6.9 C 3.2 km/h
1384 05-01-2014 00:25:00 6.9 C 7.47 g/m*3 6.9 C 3.2 km/h
1385 05-01-2014 00:30:00 6.9 C 7.47 g/m*3 6.9 C 3.2 km/h
1386 05-01-2014 00:35:00 6.9 C 7.47 g/m*3 6.9 C 4.8 km/h
1387 05-01-2014 00:40:00 7 C 7.52 g/m*3 7 C 3.2 km/h
1388 05-01-2014 00:45:00 6.9 C 7.47 g/m*3 6.9 C 1.6 km/h
1389 05-01-2014 00:50:00 6.9 C 7.47 g/m*3 6.9 C 3.2 km/h
1390 05-01-2014 00:55:00 6.9 C 7.47 g/m*3 6.9 C 3.2 km/h
1391 05-01-2014 01:00:00 7.1 C 7.57 g/m*3 7.1 C 4.8 km/h
1392 05-01-2014 01:05:00 7.1 C 7.57 g/m*3 7.1 C 1.6 km/h
1393 05-01-2014 01:10:00 7.1 C 7.57 g/m*3 7.1 C 3.2 km/h
1394 05-01-2014 01:15:00 7.2 C 7.61 g/m*3 7.2 C 3.2 km/h
1395 05-01-2014 01:20:00 7.2 C 7.61 g/m*3 7.2 C 4.8 km/h
1396 05-01-2014 01:25:00 7.2 C 7.61 g/m*3 7.2 C 3.2 km/h
1397 05-01-2014 01:30:00 7.3 C 7.66 g/m*3 7.3 C 3.2 km/h
1398 05-01-2014 01:35:00 7.3 C 7.66 g/m*3 7.3 C 3.2 km/h
1399 05-01-2014 01:40:00 7.2 C 7.61 g/m*3 7.2 C 1.6 km/h
1400 05-01-2014 01:45:00 7.3 C 7.66 g/m*3 7.3 C 0 km/h
Sensor: Nr:Datum:Temp:Abs-Feuchte:Windchill:Wind:
Aussen-T/F 1401 05-01-2014 01:50:00 7.3 C 7.66 g/m*3 7.3 C 0 km/h
1402 05-01-2014 01:55:00 7.4 C 7.71 g/m*3 7.4 C 3.2 km/h
1403 05-01-2014 02:00:00 7.5 C 7.76 g/m*3 7.5 C 3.2 km/h
1404 05-01-2014 02:05:00 7.5 C 7.76 g/m*3 7.5 C 3.2 km/h
1405 05-01-2014 02:10:00 7.5 C 7.68 g/m*3 7.5 C 1.6 km/h
1406 05-01-2014 02:15:00 7.6 C 7.73 g/m*3 7.6 C 0 km/h
1407 05-01-2014 02:20:00 7.5 C 7.68 g/m*3 7.5 C 0 km/h
1408 05-01-2014 02:25:00 7.4 C 7.63 g/m*3 7.4 C 1.6 km/h
1409 05-01-2014 02:30:00 7.4 C 7.63 g/m*3 7.4 C 0 km/h
1410 05-01-2014 02:35:00 7.4 C 7.63 g/m*3 7.4 C 1.6 km/h
1411 05-01-2014 02:40:00 7.4 C 7.71 g/m*3 7.4 C 0 km/h
1412 05-01-2014 02:45:00 7.4 C 7.63 g/m*3 7.4 C 3.2 km/h
1413 05-01-2014 02:50:00 7.4 C 7.63 g/m*3 7.4 C 1.6 km/h
1414 05-01-2014 02:55:00 7.4 C 7.63 g/m*3 7.4 C 0 km/h
1415 05-01-2014 03:00:00 7.5 C 7.68 g/m*3 7.5 C 1.6 km/h
1416 05-01-2014 03:05:00 7.6 C 7.73 g/m*3 7.6 C 4.8 km/h
1417 05-01-2014 03:10:00 7.7 C 7.78 g/m*3 7.7 C 3.2 km/h
1418 05-01-2014 03:15:00 7.7 C 7.78 g/m*3 7.7 C 3.2 km/h
1419 05-01-2014 03:20:00 7.8 C 7.83 g/m*3 6.83 C 6.4 km/h
1420 05-01-2014 03:25:00 7.8 C 7.83 g/m*3 6.83 C 6.4 km/h
1421 05-01-2014 03:30:00 7.8 C 7.67 g/m*3 6.83 C 6.4 km/h
1422 05-01-2014 03:35:00 7.8 C 7.67 g/m*3 7.8 C 4.8 km/h
1423 05-01-2014 03:40:00 7.8 C 7.59 g/m*3 5.51 C 12.9 km/h
1424 05-01-2014 03:45:00 7.9 C 7.56 g/m*3 5.63 C 12.9 km/h
1425 05-01-2014 03:50:00 7.8 C 7.51 g/m*3 6.83 C 6.4 km/h
Sensor: Nr:Datum:Temp:Abs-Feuchte:Windchill:Wind:
Aussen-T/F 1426 05-01-2014 03:55:00 7.7 C 7.54 g/m*3 6.28 C 8.1 km/h
1427 05-01-2014 04:00:00 7.7 C 7.54 g/m*3 6.71 C 6.4 km/h
1428 05-01-2014 04:05:00 7.6 C 7.49 g/m*3 7.6 C 4.8 km/h
1429 05-01-2014 04:10:00 7.6 C 7.49 g/m*3 6.6 C 6.4 km/h
1430 05-01-2014 04:15:00 7.5 C 7.44 g/m*3 6.48 C 6.4 km/h
1431 05-01-2014 04:20:00 7.5 C 7.44 g/m*3 7.5 C 4.8 km/h
1432 05-01-2014 04:25:00 7.4 C 7.48 g/m*3 7.4 C 3.2 km/h
1433 05-01-2014 04:30:00 7.3 C 7.43 g/m*3 7.3 C 3.2 km/h
1434 05-01-2014 04:35:00 7.3 C 7.43 g/m*3 7.3 C 3.2 km/h
1435 05-01-2014 04:40:00 7.3 C 7.51 g/m*3 7.3 C 1.6 km/h
1436 05-01-2014 04:45:00 7.2 C 7.46 g/m*3 7.2 C 3.2 km/h
1437 05-01-2014 04:50:00 7.2 C 7.46 g/m*3 7.2 C 1.6 km/h
1438 05-01-2014 04:55:00 7.1 C 7.41 g/m*3 7.1 C 1.6 km/h
1439 05-01-2014 05:00:00 7.1 C 7.49 g/m*3 7.1 C 1.6 km/h
1440 05-01-2014 05:05:00 7.1 C 7.41 g/m*3 7.1 C 1.6 km/h
1441 05-01-2014 05:10:00 7 C 7.44 g/m*3 7 C 0 km/h
1442 05-01-2014 05:15:00 7.1 C 7.49 g/m*3 7.1 C 4.8 km/h
1443 05-01-2014 05:20:00 7.1 C 7.49 g/m*3 7.1 C 4.8 km/h
1444 05-01-2014 05:25:00 7.1 C 7.49 g/m*3 7.1 C 3.2 km/h
1445 05-01-2014 05:30:00 7.2 C 7.46 g/m*3 5.69 C 8.1 km/h
1446 05-01-2014 05:35:00 7.2 C 7.46 g/m*3 7.2 C 3.2 km/h
1447 05-01-2014 05:40:00 7.1 C 7.41 g/m*3 5.58 C 8.1 km/h
1448 05-01-2014 05:45:00 7.1 C 7.41 g/m*3 7.1 C 4.8 km/h
1449 05-01-2014 05:50:00 7.1 C 7.41 g/m*3 7.1 C 3.2 km/h
1450 05-01-2014 05:55:00 7.1 C 7.41 g/m*3 7.1 C 4.8 km/h
Sensor: Nr:Datum:Temp:Abs-Feuchte:Windchill:Wind:
Aussen-T/F 1451 05-01-2014 06:00:00 7 C 7.36 g/m*3 7 C 3.2 km/h
1452 05-01-2014 06:05:00 6.9 C 7.31 g/m*3 6.9 C 4.8 km/h
1453 05-01-2014 06:10:00 6.9 C 7.31 g/m*3 6.9 C 3.2 km/h
1454 05-01-2014 06:15:00 6.9 C 7.31 g/m*3 6.9 C 3.2 km/h
1455 05-01-2014 06:20:00 6.9 C 7.31 g/m*3 6.9 C 3.2 km/h
1456 05-01-2014 06:25:00 6.9 C 7.31 g/m*3 6.9 C 4.8 km/h
1457 05-01-2014 06:30:00 6.9 C 7.31 g/m*3 5.79 C 6.4 km/h
1458 05-01-2014 06:35:00 6.9 C 7.31 g/m*3 6.9 C 4.8 km/h
1459 05-01-2014 06:40:00 7 C 7.36 g/m*3 5.9 C 6.4 km/h
1460 05-01-2014 06:45:00 7 C 7.36 g/m*3 5.9 C 6.4 km/h
1461 05-01-2014 06:50:00 7 C 7.36 g/m*3 7 C 3.2 km/h
1462 05-01-2014 06:55:00 7 C 7.36 g/m*3 7 C 3.2 km/h
1463 05-01-2014 07:00:00 6.9 C 7.31 g/m*3 6.9 C 1.6 km/h
1464 05-01-2014 07:05:00 6.9 C 7.31 g/m*3 6.9 C 4.8 km/h
1465 05-01-2014 07:10:00 6.8 C 7.27 g/m*3 6.8 C 4.8 km/h
1466 05-01-2014 07:15:00 6.8 C 7.27 g/m*3 6.8 C 4.8 km/h
1467 05-01-2014 07:20:00 6.8 C 7.19 g/m*3 4.87 C 9.7 km/h
1468 05-01-2014 07:25:00 6.9 C 7.24 g/m*3 5.79 C 6.4 km/h
1469 05-01-2014 07:30:00 6.9 C 7.08 g/m*3 4.99 C 9.7 km/h
1470 05-01-2014 07:35:00 6.9 C 7.08 g/m*3 4.68 C 11.3 km/h
1471 05-01-2014 07:40:00 6.9 C 6.93 g/m*3 4.99 C 9.7 km/h
1472 05-01-2014 07:45:00 7 C 6.82 g/m*3 5.46 C 8.1 km/h
1473 05-01-2014 07:50:00 6.8 C 6.81 g/m*3 5.67 C 6.4 km/h
1474 05-01-2014 07:55:00 6.7 C 6.84 g/m*3 6.7 C 3.2 km/h
1475 05-01-2014 08:00:00 6.4 C 6.71 g/m*3 4.08 C 11.3 km/h
Sensor: Nr:Datum:Temp:Abs-Feuchte:Windchill:Wind:
Aussen-T/F 1476 05-01-2014 08:05:00 6.3 C 6.66 g/m*3 5.1 C 6.4 km/h
1477 05-01-2014 08:10:00 6.3 C 6.66 g/m*3 5.1 C 6.4 km/h
1478 05-01-2014 08:15:00 6.3 C 6.59 g/m*3 4.64 C 8.1 km/h
1479 05-01-2014 08:20:00 6.3 C 6.59 g/m*3 5.1 C 6.4 km/h
1480 05-01-2014 08:25:00 6.3 C 6.66 g/m*3 6.3 C 4.8 km/h
1481 05-01-2014 08:30:00 6.1 C 6.72 g/m*3 6.1 C 3.2 km/h
1482 05-01-2014 08:35:00 5.9 C 6.63 g/m*3 5.9 C 3.2 km/h
1483 05-01-2014 08:40:00 5.7 C 6.62 g/m*3 5.7 C 3.2 km/h
1484 05-01-2014 08:45:00 5.6 C 6.57 g/m*3 5.6 C 4.8 km/h
1485 05-01-2014 08:50:00 5.4 C 6.49 g/m*3 5.4 C 4.8 km/h
1486 05-01-2014 08:55:00 5.5 C 6.53 g/m*3 5.5 C 4.8 km/h
1487 05-01-2014 09:00:00 5.7 C 6.48 g/m*3 5.7 C 4.8 km/h
1488 05-01-2014 09:05:00 6 C 6.53 g/m*3 4.75 C 6.4 km/h
1489 05-01-2014 09:10:00 6.1 C 6.5 g/m*3 4.86 C 6.4 km/h
1490 05-01-2014 09:15:00 6.2 C 6.55 g/m*3 6.2 C 4.8 km/h
1491 05-01-2014 09:20:00 6.2 C 6.62 g/m*3 6.2 C 3.2 km/h
1492 05-01-2014 09:25:00 6 C 6.53 g/m*3 6 C 3.2 km/h
1493 05-01-2014 09:30:00 5.9 C 6.56 g/m*3 5.9 C 4.8 km/h
1494 05-01-2014 09:35:00 5.9 C 6.49 g/m*3 3.8 C 9.7 km/h
1495 05-01-2014 09:40:00 5.9 C 6.49 g/m*3 5.9 C 4.8 km/h
1496 05-01-2014 09:45:00 5.9 C 6.49 g/m*3 5.9 C 4.8 km/h
1497 05-01-2014 09:50:00 6.1 C 6.5 g/m*3 6.1 C 4.8 km/h
1498 05-01-2014 09:55:00 6.1 C 6.5 g/m*3 6.1 C 4.8 km/h
1499 05-01-2014 10:00:00 6.1 C 6.5 g/m*3 6.1 C 4.8 km/h
1500 05-01-2014 10:05:00 6.1 C 6.5 g/m*3 6.1 C 4.8 km/h
Sensor: Nr:Datum:Temp:Abs-Feuchte:Windchill:Wind:
Aussen-T/F 1501 05-01-2014 10:10:00 6.1 C 6.5 g/m*3 4.04 C 9.7 km/h
1502 05-01-2014 10:15:00 6.2 C 6.55 g/m*3 6.2 C 4.8 km/h
1503 05-01-2014 10:20:00 5.9 C 6.49 g/m*3 5.9 C 4.8 km/h
1504 05-01-2014 10:25:00 6 C 6.39 g/m*3 4.75 C 6.4 km/h
1505 05-01-2014 10:30:00 6.2 C 6.4 g/m*3 3.84 C 11.3 km/h
1506 05-01-2014 10:35:00 6.3 C 6.44 g/m*3 4.64 C 8.1 km/h
1507 05-01-2014 10:40:00 6.2 C 6.47 g/m*3 4.52 C 8.1 km/h
1508 05-01-2014 10:45:00 6.2 C 6.47 g/m*3 6.2 C 4.8 km/h
1509 05-01-2014 10:50:00 6.3 C 6.51 g/m*3 6.3 C 4.8 km/h
1510 05-01-2014 10:55:00 6.3 C 6.51 g/m*3 6.3 C 4.8 km/h
1511 05-01-2014 11:00:00 6.4 C 6.48 g/m*3 5.21 C 6.4 km/h
1512 05-01-2014 11:05:00 6.5 C 6.45 g/m*3 4.51 C 9.7 km/h
1513 05-01-2014 11:10:00 6.7 C 6.38 g/m*3 4.75 C 9.7 km/h
1514 05-01-2014 11:15:00 6.7 C 6.53 g/m*3 5.56 C 6.4 km/h
1515 05-01-2014 11:20:00 6.6 C 6.34 g/m*3 4.63 C 9.7 km/h
1516 05-01-2014 11:25:00 6.6 C 6.27 g/m*3 4.04 C 12.9 km/h
1517 05-01-2014 11:30:00 6.6 C 6.27 g/m*3 4.63 C 9.7 km/h
1518 05-01-2014 11:35:00 6.6 C 6.27 g/m*3 5.44 C 6.4 km/h
1519 05-01-2014 13:00:00 6.6 C 6.34 g/m*3 6.6 C 4.8 km/h
1520 05-01-2014 13:05:00 6.4 C 6.18 g/m*3 3.8 C 12.9 km/h
1521 05-01-2014 13:10:00 6.4 C 6.18 g/m*3 3.11 C 17.7 km/h
1522 05-01-2014 16:40:00 5.7 C 6.05 g/m*3 5.7 C 4.8 km/h
1523 05-01-2014 16:40:00 5.7 C 6.05 g/m*3 5.7 C 4.8 km/h
1524 05-01-2014 16:45:00 5.8 C 6.16 g/m*3 5.8 C 3.2 km/h
1525 05-01-2014 16:45:00 5.8 C 6.16 g/m*3 5.8 C 3.2 km/h
Sensor: Nr:Datum:Temp:Abs-Feuchte:Windchill:Wind:
Aussen-T/F 1526 05-01-2014 16:50:00 5.8 C 6.16 g/m*3 4.05 C 8.1 km/h
1527 05-01-2014 16:50:00 5.8 C 6.16 g/m*3 4.05 C 8.1 km/h
1528 05-01-2014 17:25:00 5.6 C 6.29 g/m*3 5.6 C 0 km/h
1529 05-01-2014 17:30:00 5.6 C 6.29 g/m*3 5.6 C 3.2 km/h
1530 05-01-2014 17:35:00 5.5 C 6.11 g/m*3 5.5 C 4.8 km/h
1531 05-01-2014 17:40:00 5.7 C 6.26 g/m*3 5.7 C 3.2 km/h
1532 05-01-2014 17:45:00 5.6 C 6.22 g/m*3 5.6 C 3.2 km/h
1533 05-01-2014 17:50:00 5.6 C 6.22 g/m*3 5.6 C 1.6 km/h
1534 05-01-2014 17:55:00 5.6 C 6.22 g/m*3 5.6 C 3.2 km/h
1535 05-01-2014 18:00:00 5.6 C 6.15 g/m*3 5.6 C 1.6 km/h
1536 05-01-2014 18:05:00 5.7 C 6.19 g/m*3 5.7 C 0 km/h
1537 05-01-2014 18:10:00 5.8 C 6.16 g/m*3 5.8 C 4.8 km/h
1538 05-01-2014 18:15:00 5.8 C 6.09 g/m*3 5.8 C 3.2 km/h
1539 05-01-2014 18:20:00 6 C 5.95 g/m*3 6 C 4.8 km/h
1540 05-01-2014 18:25:00 6.1 C 6.28 g/m*3 6.1 C 1.6 km/h
1541 05-01-2014 18:30:00 5.8 C 6.23 g/m*3 5.8 C 1.6 km/h
1542 05-01-2014 18:35:00 5.7 C 6.19 g/m*3 5.7 C 0 km/h
1543 05-01-2014 18:40:00 5.7 C 6.12 g/m*3 5.7 C 0 km/h
1544 05-01-2014 18:45:00 5.7 C 6.05 g/m*3 5.7 C 4.8 km/h
1545 05-01-2014 18:50:00 5.8 C 6.3 g/m*3 5.8 C 0 km/h
1546 05-01-2014 18:55:00 5.8 C 6.3 g/m*3 5.8 C 0 km/h
1547 05-01-2014 19:00:00 5.7 C 6.12 g/m*3 5.7 C 0 km/h
1548 05-01-2014 19:05:00 5.7 C 6.19 g/m*3 5.7 C 1.6 km/h
1549 05-01-2014 19:10:00 5.7 C 6.19 g/m*3 5.7 C 3.2 km/h
1550 05-01-2014 19:15:00 5.9 C 6.13 g/m*3 5.9 C 4.8 km/h
Sensor: Nr:Datum:Temp:Abs-Feuchte:Windchill:Wind:
Aussen-T/F 1551 05-01-2014 19:20:00 6 C 6.1 g/m*3 6 C 3.2 km/h
1552 05-01-2014 19:25:00 6.1 C 6.14 g/m*3 6.1 C 1.6 km/h
1553 05-01-2014 19:30:00 6.1 C 6.21 g/m*3 6.1 C 4.8 km/h
1554 05-01-2014 19:35:00 6.1 C 6.21 g/m*3 6.1 C 4.8 km/h
1555 05-01-2014 19:40:00 6 C 6.24 g/m*3 6 C 0 km/h
1556 05-01-2014 19:45:00 5.9 C 6.06 g/m*3 5.9 C 4.8 km/h
1557 05-01-2014 19:50:00 5.8 C 6.02 g/m*3 5.8 C 1.6 km/h
1558 05-01-2014 19:55:00 5.5 C 5.97 g/m*3 5.5 C 0 km/h
1559 05-01-2014 20:00:00 5.2 C 5.92 g/m*3 5.2 C 1.6 km/h
1560 05-01-2014 20:05:00 4.9 C 5.94 g/m*3 4.9 C 1.6 km/h
1561 05-01-2014 20:10:00 4.8 C 5.97 g/m*3 4.8 C 1.6 km/h
1562 05-01-2014 20:15:00 4.6 C 5.89 g/m*3 4.6 C 3.2 km/h
1563 05-01-2014 20:20:00 4.4 C 5.81 g/m*3 4.4 C 3.2 km/h
1564 05-01-2014 20:25:00 4.3 C 5.84 g/m*3 4.3 C 1.6 km/h
1565 05-01-2014 20:30:00 4.2 C 5.8 g/m*3 4.2 C 3.2 km/h
1566 05-01-2014 20:35:00 4.2 C 5.86 g/m*3 4.2 C 1.6 km/h
1567 05-01-2014 20:40:00 4 C 5.79 g/m*3 4 C 0 km/h
1568 05-01-2014 20:45:00 3.9 C 5.75 g/m*3 3.9 C 1.6 km/h
1569 05-01-2014 20:50:00 3.8 C 5.71 g/m*3 3.8 C 3.2 km/h
1570 05-01-2014 20:55:00 3.8 C 5.71 g/m*3 3.8 C 4.8 km/h
1571 05-01-2014 21:00:00 3.7 C 5.67 g/m*3 3.7 C 3.2 km/h
1572 05-01-2014 21:05:00 3.8 C 5.77 g/m*3 3.8 C 3.2 km/h
1573 05-01-2014 21:10:00 3.8 C 5.77 g/m*3 3.8 C 3.2 km/h
1574 05-01-2014 21:15:00 3.8 C 5.77 g/m*3 3.8 C 1.6 km/h
1575 05-01-2014 21:20:00 3.9 C 5.75 g/m*3 3.9 C 3.2 km/h
Sensor: Nr:Datum:Temp:Abs-Feuchte:Windchill:Wind:
Aussen-T/F 1576 05-01-2014 21:25:00 3.9 C 5.68 g/m*3 3.9 C 3.2 km/h
1577 05-01-2014 21:30:00 3.8 C 5.71 g/m*3 3.8 C 3.2 km/h
1578 05-01-2014 21:35:00 3.8 C 5.71 g/m*3 3.8 C 1.6 km/h
1579 05-01-2014 21:40:00 3.7 C 5.73 g/m*3 3.7 C 3.2 km/h
1580 05-01-2014 21:45:00 3.8 C 5.77 g/m*3 3.8 C 1.6 km/h
1581 05-01-2014 21:50:00 4 C 5.91 g/m*3 4 C 4.8 km/h
1582 05-01-2014 21:55:00 4.2 C 5.93 g/m*3 4.2 C 1.6 km/h
1583 05-01-2014 22:00:00 4.3 C 5.97 g/m*3 4.3 C 3.2 km/h
1584 05-01-2014 22:05:00 4.5 C 6.05 g/m*3 4.5 C 1.6 km/h
1585 05-01-2014 22:10:00 4.7 C 6.06 g/m*3 4.7 C 1.6 km/h
1586 05-01-2014 22:15:00 4.8 C 6.1 g/m*3 4.8 C 3.2 km/h
1587 05-01-2014 22:20:00 4.9 C 6.08 g/m*3 4.9 C 1.6 km/h
1588 05-01-2014 22:25:00 5 C 6.12 g/m*3 5 C 1.6 km/h
1589 05-01-2014 22:30:00 5.1 C 6.09 g/m*3 5.1 C 3.2 km/h
1590 05-01-2014 22:35:00 5.1 C 6.09 g/m*3 5.1 C 1.6 km/h
1591 05-01-2014 22:40:00 4.8 C 5.97 g/m*3 4.8 C 1.6 km/h
1592 05-01-2014 22:45:00 4.6 C 5.89 g/m*3 4.6 C 1.6 km/h
1593 05-01-2014 22:50:00 4.4 C 5.88 g/m*3 4.4 C 1.6 km/h
1594 05-01-2014 22:55:00 4.4 C 5.88 g/m*3 4.4 C 3.2 km/h
1595 05-01-2014 23:00:00 4.3 C 5.9 g/m*3 4.3 C 3.2 km/h
1596 05-01-2014 23:05:00 4.3 C 5.9 g/m*3 4.3 C 3.2 km/h
1597 05-01-2014 23:10:00 4.3 C 5.9 g/m*3 4.3 C 3.2 km/h
1598 05-01-2014 23:15:00 4.3 C 5.84 g/m*3 4.3 C 1.6 km/h
1599 05-01-2014 23:20:00 4.2 C 5.86 g/m*3 4.2 C 1.6 km/h
1600 05-01-2014 23:25:00 3.9 C 5.75 g/m*3 3.9 C 3.2 km/h
Sensor: Nr:Datum:Temp:Abs-Feuchte:Windchill:Wind:
Aussen-T/F 1601 05-01-2014 23:30:00 3.8 C 5.71 g/m*3 3.8 C 4.8 km/h
1602 05-01-2014 23:35:00 3.8 C 5.77 g/m*3 3.8 C 3.2 km/h
1603 05-01-2014 23:40:00 3.7 C 5.73 g/m*3 3.7 C 3.2 km/h
1604 05-01-2014 23:45:00 3.6 C 5.69 g/m*3 3.6 C 1.6 km/h
1605 05-01-2014 23:50:00 3.5 C 5.66 g/m*3 3.5 C 3.2 km/h
1606 05-01-2014 23:55:00 3.4 C 5.62 g/m*3 3.4 C 3.2 km/h
1607 06-01-2014 00:00:00 3.4 C 5.68 g/m*3 3.4 C 3.2 km/h
1608 06-01-2014 00:05:00 3.3 C 5.64 g/m*3 3.3 C 3.2 km/h
1609 06-01-2014 00:10:00 3.3 C 5.64 g/m*3 3.3 C 1.6 km/h
1610 06-01-2014 00:15:00 3.3 C 5.64 g/m*3 3.3 C 3.2 km/h
1611 06-01-2014 00:20:00 3.3 C 5.64 g/m*3 3.3 C 1.6 km/h
1612 06-01-2014 00:25:00 3.3 C 5.64 g/m*3 3.3 C 3.2 km/h
1613 06-01-2014 00:30:00 3.3 C 5.64 g/m*3 3.3 C 3.2 km/h
1614 06-01-2014 00:35:00 3.3 C 5.64 g/m*3 3.3 C 3.2 km/h
1615 06-01-2014 00:40:00 3.3 C 5.64 g/m*3 3.3 C 1.6 km/h
1616 06-01-2014 00:45:00 3.3 C 5.64 g/m*3 3.3 C 1.6 km/h
1617 06-01-2014 00:50:00 3.3 C 5.7 g/m*3 3.3 C 1.6 km/h
1618 06-01-2014 00:55:00 3.4 C 5.68 g/m*3 3.4 C 1.6 km/h
1619 06-01-2014 01:00:00 3.3 C 5.64 g/m*3 3.3 C 1.6 km/h
1620 06-01-2014 01:05:00 3.3 C 5.64 g/m*3 3.3 C 0 km/h
1621 06-01-2014 01:10:00 3.3 C 5.64 g/m*3 3.3 C 1.6 km/h
1622 06-01-2014 01:15:00 3.2 C 5.6 g/m*3 3.2 C 4.8 km/h
1623 06-01-2014 01:20:00 3.4 C 5.74 g/m*3 0.82 C 9.7 km/h
1624 06-01-2014 01:25:00 3.6 C 5.82 g/m*3 3.6 C 1.6 km/h
1625 06-01-2014 01:30:00 3.7 C 5.8 g/m*3 3.7 C 1.6 km/h
Sensor: Nr:Datum:Temp:Abs-Feuchte:Windchill:Wind:
Aussen-T/F 1626 06-01-2014 01:35:00 3.8 C 5.83 g/m*3 3.8 C 0 km/h
1627 06-01-2014 01:40:00 3.8 C 5.83 g/m*3 3.8 C 0 km/h
1628 06-01-2014 01:45:00 3.9 C 5.87 g/m*3 3.9 C 3.2 km/h
1629 06-01-2014 01:50:00 3.9 C 5.87 g/m*3 3.9 C 1.6 km/h
1630 06-01-2014 01:55:00 3.9 C 5.87 g/m*3 3.9 C 3.2 km/h
1631 06-01-2014 02:00:00 3.8 C 5.83 g/m*3 3.8 C 3.2 km/h
1632 06-01-2014 02:05:00 3.7 C 5.8 g/m*3 3.7 C 1.6 km/h
1633 06-01-2014 02:10:00 3.7 C 5.8 g/m*3 3.7 C 3.2 km/h
1634 06-01-2014 02:15:00 3.7 C 5.8 g/m*3 3.7 C 1.6 km/h
1635 06-01-2014 02:20:00 3.7 C 5.8 g/m*3 2.09 C 6.4 km/h
1636 06-01-2014 02:25:00 3.6 C 5.76 g/m*3 3.6 C 0 km/h
1637 06-01-2014 02:30:00 3.7 C 5.86 g/m*3 3.7 C 1.6 km/h
1638 06-01-2014 02:35:00 3.8 C 5.9 g/m*3 3.8 C 1.6 km/h
1639 06-01-2014 02:40:00 3.9 C 5.94 g/m*3 3.9 C 3.2 km/h
1640 06-01-2014 02:45:00 3.9 C 5.94 g/m*3 3.9 C 3.2 km/h
1641 06-01-2014 02:50:00 3.9 C 5.94 g/m*3 3.9 C 3.2 km/h
1642 06-01-2014 02:55:00 4.2 C 6.06 g/m*3 4.2 C 4.8 km/h
1643 06-01-2014 03:00:00 4.4 C 6.14 g/m*3 4.4 C 4.8 km/h
1644 06-01-2014 03:05:00 4.7 C 6.19 g/m*3 4.7 C 1.6 km/h
1645 06-01-2014 03:10:00 4.8 C 6.17 g/m*3 3.36 C 6.4 km/h
1646 06-01-2014 03:15:00 5 C 6.18 g/m*3 5 C 4.8 km/h
1647 06-01-2014 03:20:00 5.2 C 6.27 g/m*3 5.2 C 4.8 km/h
1648 06-01-2014 03:25:00 5.2 C 6.27 g/m*3 5.2 C 3.2 km/h
1649 06-01-2014 03:30:00 5.2 C 6.27 g/m*3 5.2 C 1.6 km/h
1650 06-01-2014 03:35:00 5.2 C 6.33 g/m*3 5.2 C 1.6 km/h
Sensor: Nr:Datum:Temp:Abs-Feuchte:Windchill:Wind:
Aussen-T/F 1651 06-01-2014 03:40:00 5.3 C 6.38 g/m*3 5.3 C 0 km/h
1652 06-01-2014 03:45:00 5.3 C 6.38 g/m*3 5.3 C 3.2 km/h
1653 06-01-2014 03:50:00 5.3 C 6.45 g/m*3 5.3 C 0 km/h
1654 06-01-2014 03:55:00 5.3 C 6.38 g/m*3 5.3 C 4.8 km/h
1655 06-01-2014 04:00:00 5.3 C 6.38 g/m*3 5.3 C 1.6 km/h
1656 06-01-2014 04:05:00 5.4 C 6.42 g/m*3 5.4 C 1.6 km/h
1657 06-01-2014 04:10:00 5.4 C 6.42 g/m*3 5.4 C 3.2 km/h
1658 06-01-2014 04:15:00 5.6 C 6.43 g/m*3 5.6 C 1.6 km/h
1659 06-01-2014 04:20:00 5.7 C 6.4 g/m*3 5.7 C 3.2 km/h
1660 06-01-2014 04:25:00 5.8 C 6.45 g/m*3 5.8 C 3.2 km/h
1661 06-01-2014 04:30:00 5.9 C 6.49 g/m*3 5.9 C 1.6 km/h
1662 06-01-2014 04:35:00 5.8 C 6.45 g/m*3 5.8 C 0 km/h
1663 06-01-2014 04:40:00 5.8 C 6.45 g/m*3 5.8 C 3.2 km/h
1664 06-01-2014 04:45:00 5.8 C 6.45 g/m*3 5.8 C 3.2 km/h
1665 06-01-2014 04:50:00 5.9 C 6.42 g/m*3 5.9 C 4.8 km/h
1666 06-01-2014 04:55:00 5.9 C 6.49 g/m*3 5.9 C 1.6 km/h
1667 06-01-2014 05:00:00 5.9 C 6.35 g/m*3 5.9 C 0 km/h
1668 06-01-2014 05:05:00 6 C 6.46 g/m*3 6 C 3.2 km/h
1669 06-01-2014 05:10:00 6 C 6.46 g/m*3 6 C 3.2 km/h
1670 06-01-2014 05:15:00 5.9 C 6.42 g/m*3 5.9 C 1.6 km/h
1671 06-01-2014 05:20:00 5.9 C 6.35 g/m*3 5.9 C 3.2 km/h
1672 06-01-2014 05:25:00 6 C 6.53 g/m*3 6 C 0 km/h
1673 06-01-2014 05:30:00 5.9 C 6.49 g/m*3 5.9 C 4.8 km/h
1674 06-01-2014 05:35:00 5.9 C 6.42 g/m*3 5.9 C 0 km/h
1675 06-01-2014 05:40:00 5.9 C 6.49 g/m*3 5.9 C 0 km/h
Sensor: Nr:Datum:Temp:Abs-Feuchte:Windchill:Wind:
Aussen-T/F 1676 06-01-2014 05:45:00 5.9 C 6.42 g/m*3 5.9 C 3.2 km/h
1677 06-01-2014 05:50:00 6 C 6.46 g/m*3 6 C 1.6 km/h
1678 06-01-2014 05:55:00 6.1 C 6.5 g/m*3 6.1 C 0 km/h
1679 06-01-2014 06:00:00 6.1 C 6.5 g/m*3 6.1 C 1.6 km/h
1680 06-01-2014 06:05:00 6.2 C 6.47 g/m*3 6.2 C 0 km/h
1681 06-01-2014 06:10:00 6.2 C 6.47 g/m*3 6.2 C 1.6 km/h
1682 06-01-2014 06:15:00 6.2 C 6.47 g/m*3 6.2 C 4.8 km/h
1683 06-01-2014 06:20:00 6.3 C 6.51 g/m*3 6.3 C 1.6 km/h
1684 06-01-2014 06:25:00 6.3 C 6.51 g/m*3 6.3 C 0 km/h
1685 06-01-2014 06:30:00 6.3 C 6.59 g/m*3 6.3 C 0 km/h
1686 06-01-2014 06:35:00 6.3 C 6.59 g/m*3 6.3 C 0 km/h
1687 06-01-2014 06:40:00 6.3 C 6.59 g/m*3 6.3 C 3.2 km/h
1688 06-01-2014 06:45:00 6.3 C 6.66 g/m*3 6.3 C 1.6 km/h
1689 06-01-2014 06:50:00 6.3 C 6.74 g/m*3 6.3 C 0 km/h
1690 06-01-2014 06:55:00 6.3 C 6.74 g/m*3 6.3 C 0 km/h
1691 06-01-2014 07:00:00 6.3 C 6.74 g/m*3 6.3 C 0 km/h
1692 06-01-2014 07:05:00 6.3 C 6.74 g/m*3 6.3 C 3.2 km/h
1693 06-01-2014 07:10:00 6.4 C 6.71 g/m*3 6.4 C 1.6 km/h
1694 06-01-2014 07:15:00 6.6 C 6.72 g/m*3 6.6 C 1.6 km/h
1695 06-01-2014 07:20:00 6.6 C 6.72 g/m*3 6.6 C 0 km/h
1696 06-01-2014 07:25:00 6.6 C 6.72 g/m*3 6.6 C 1.6 km/h
1697 06-01-2014 07:30:00 6.6 C 6.79 g/m*3 6.6 C 0 km/h
1698 06-01-2014 07:35:00 6.5 C 6.75 g/m*3 6.5 C 0 km/h
1699 06-01-2014 07:40:00 6.5 C 6.82 g/m*3 6.5 C 4.8 km/h
1700 06-01-2014 07:45:00 6.5 C 6.82 g/m*3 6.5 C 1.6 km/h
Sensor: Nr:Datum:Temp:Abs-Feuchte:Windchill:Wind:
Aussen-T/F 1701 06-01-2014 07:50:00 6.6 C 6.87 g/m*3 6.6 C 4.8 km/h
1702 06-01-2014 07:55:00 6.7 C 6.91 g/m*3 6.7 C 0 km/h
1703 06-01-2014 08:00:00 6.8 C 6.96 g/m*3 6.8 C 1.6 km/h
1704 06-01-2014 08:05:00 6.8 C 6.96 g/m*3 6.8 C 0 km/h
1705 06-01-2014 08:10:00 6.9 C 7.01 g/m*3 6.9 C 0 km/h
1706 06-01-2014 08:15:00 6.9 C 7.08 g/m*3 6.9 C 0 km/h
1707 06-01-2014 08:20:00 7 C 7.13 g/m*3 7 C 1.6 km/h
1708 06-01-2014 08:25:00 7.1 C 7.18 g/m*3 7.1 C 3.2 km/h
1709 06-01-2014 08:30:00 7.2 C 7.22 g/m*3 7.2 C 3.2 km/h
1710 06-01-2014 08:35:00 7.3 C 7.27 g/m*3 7.3 C 3.2 km/h
1711 06-01-2014 08:40:00 7.4 C 7.32 g/m*3 7.4 C 1.6 km/h
1712 06-01-2014 08:45:00 7.5 C 7.36 g/m*3 7.5 C 1.6 km/h
1713 06-01-2014 08:50:00 7.7 C 7.46 g/m*3 7.7 C 1.6 km/h
1714 06-01-2014 08:55:00 7.8 C 7.43 g/m*3 7.8 C 0 km/h
1715 06-01-2014 09:00:00 7.8 C 7.43 g/m*3 7.8 C 0 km/h
1716 06-01-2014 09:05:00 7.8 C 7.43 g/m*3 7.8 C 0 km/h
1717 06-01-2014 09:10:00 7.8 C 7.43 g/m*3 7.8 C 4.8 km/h
1718 06-01-2014 09:15:00 8 C 7.61 g/m*3 8 C 3.2 km/h
1719 06-01-2014 09:20:00 8.2 C 7.62 g/m*3 8.2 C 3.2 km/h
1720 06-01-2014 09:25:00 8.2 C 7.62 g/m*3 8.2 C 3.2 km/h
1721 06-01-2014 09:30:00 8.2 C 7.62 g/m*3 8.2 C 0 km/h
1722 06-01-2014 09:35:00 8.4 C 7.72 g/m*3 8.4 C 1.6 km/h
1723 06-01-2014 09:40:00 8.4 C 7.72 g/m*3 8.4 C 0 km/h
1724 06-01-2014 09:45:00 8.6 C 7.82 g/m*3 8.6 C 0 km/h
1725 06-01-2014 09:50:00 8.6 C 7.82 g/m*3 8.6 C 0 km/h
Sensor: Nr:Datum:Temp:Abs-Feuchte:Windchill:Wind:
Aussen-T/F 1726 06-01-2014 09:55:00 8.6 C 7.82 g/m*3 8.6 C 1.6 km/h
1727 06-01-2014 10:00:00 8.6 C 7.82 g/m*3 8.6 C 0 km/h
1728 06-01-2014 10:05:00 8.6 C 7.82 g/m*3 8.6 C 3.2 km/h
1729 06-01-2014 10:10:00 8.6 C 7.82 g/m*3 8.6 C 0 km/h
1730 06-01-2014 10:15:00 8.6 C 7.82 g/m*3 8.6 C 4.8 km/h
1731 06-01-2014 10:20:00 8.7 C 7.87 g/m*3 8.7 C 3.2 km/h
1732 06-01-2014 10:25:00 8.7 C 7.87 g/m*3 8.7 C 0 km/h
1733 06-01-2014 10:30:00 8.8 C 7.92 g/m*3 8.8 C 4.8 km/h
1734 06-01-2014 10:35:00 8.8 C 7.92 g/m*3 7.98 C 6.4 km/h
1735 06-01-2014 10:40:00 8.9 C 7.88 g/m*3 8.9 C 1.6 km/h
1736 06-01-2014 10:45:00 9 C 7.93 g/m*3 9 C 1.6 km/h
1737 06-01-2014 10:50:00 9.1 C 7.99 g/m*3 9.1 C 4.8 km/h
1738 06-01-2014 10:55:00 9.2 C 7.95 g/m*3 8.45 C 6.4 km/h
1739 06-01-2014 11:00:00 9.3 C 7.91 g/m*3 9.3 C 4.8 km/h
1740 06-01-2014 11:05:00 9.3 C 7.91 g/m*3 9.3 C 3.2 km/h
1741 06-01-2014 11:10:00 9.3 C 7.91 g/m*3 9.3 C 1.6 km/h
1742 06-01-2014 11:15:00 9.3 C 8 g/m*3 8.16 C 8.1 km/h
1743 06-01-2014 11:20:00 9.3 C 8.09 g/m*3 9.3 C 4.8 km/h
1744 06-01-2014 11:25:00 9.5 C 8.1 g/m*3 9.5 C 3.2 km/h
1745 06-01-2014 11:30:00 9.7 C 8.2 g/m*3 9.7 C 0 km/h
1746 06-01-2014 11:35:00 9.9 C 8.4 g/m*3 9.9 C 0 km/h
1747 06-01-2014 11:40:00 10.2 C 8.47 g/m*3 10.2 C 4.8 km/h
1748 06-01-2014 11:45:00 10.4 C 8.48 g/m*3 10.4 C 4.8 km/h
1749 06-01-2014 11:50:00 10.7 C 8.64 g/m*3 10.7 C 4.8 km/h
1750 06-01-2014 11:55:00 10.8 C 8.6 g/m*3 10.8 C 1.6 km/h
Sensor: Nr:Datum:Temp:Abs-Feuchte:Windchill:Wind:
Aussen-T/F 1751 06-01-2014 12:00:00 10.9 C 8.65 g/m*3 10.41 C 6.4 km/h
1752 06-01-2014 12:05:00 11.1 C 8.76 g/m*3 11.1 C 4.8 km/h
1753 06-01-2014 12:10:00 11.2 C 8.72 g/m*3 11.2 C 6.4 km/h
1754 06-01-2014 12:15:00 11.3 C 8.67 g/m*3 11.3 C 6.4 km/h
1755 06-01-2014 12:20:00 11.4 C 8.72 g/m*3 11.4 C 3.2 km/h
1756 06-01-2014 12:25:00 11.6 C 8.63 g/m*3 11.6 C 4.8 km/h
1757 06-01-2014 12:30:00 11.6 C 8.63 g/m*3 11.6 C 4.8 km/h
1758 06-01-2014 12:35:00 11.6 C 8.63 g/m*3 11.6 C 4.8 km/h
1759 06-01-2014 12:40:00 11.6 C 8.63 g/m*3 11.6 C 6.4 km/h
1760 06-01-2014 12:45:00 11.8 C 8.63 g/m*3 11.8 C 3.2 km/h
1761 06-01-2014 12:50:00 11.8 C 8.63 g/m*3 11.8 C 1.6 km/h
1762 06-01-2014 12:55:00 11.8 C 8.84 g/m*3 11.8 C 3.2 km/h
1763 06-01-2014 13:00:00 11.8 C 8.84 g/m*3 11.8 C 3.2 km/h
1764 06-01-2014 13:05:00 11.8 C 8.74 g/m*3 11.8 C 4.8 km/h
1765 06-01-2014 13:10:00 11.8 C 8.63 g/m*3 11.8 C 3.2 km/h
1766 06-01-2014 13:15:00 11.9 C 8.68 g/m*3 11.9 C 4.8 km/h
1767 06-01-2014 13:20:00 12 C 8.74 g/m*3 12 C 6.4 km/h
1768 06-01-2014 13:25:00 12 C 8.74 g/m*3 12 C 3.2 km/h
1769 06-01-2014 13:30:00 12.1 C 8.69 g/m*3 12.1 C 0 km/h
1770 06-01-2014 13:35:00 12.2 C 8.63 g/m*3 12.2 C 4.8 km/h
1771 06-01-2014 13:40:00 12.2 C 8.74 g/m*3 12.2 C 0 km/h
1772 06-01-2014 13:45:00 12.1 C 8.69 g/m*3 12.1 C 3.2 km/h
1773 06-01-2014 13:50:00 12.1 C 8.9 g/m*3 12.1 C 0 km/h
1774 06-01-2014 13:55:00 12.1 C 8.69 g/m*3 12.1 C 8.1 km/h
1775 06-01-2014 14:00:00 12.2 C 8.74 g/m*3 12.2 C 8.1 km/h
Sensor: Nr:Datum:Temp:Abs-Feuchte:Windchill:Wind:
Aussen-T/F 1776 06-01-2014 14:05:00 12.2 C 8.85 g/m*3 12.2 C 0 km/h
1777 06-01-2014 14:10:00 12.2 C 8.74 g/m*3 12.2 C 3.2 km/h
1778 06-01-2014 14:15:00 12.1 C 8.58 g/m*3 12.1 C 4.8 km/h
1779 06-01-2014 14:20:00 12.1 C 8.58 g/m*3 12.1 C 3.2 km/h
1780 06-01-2014 14:25:00 11.9 C 8.37 g/m*3 11.9 C 4.8 km/h
1781 06-01-2014 14:30:00 11.7 C 8.37 g/m*3 11.7 C 3.2 km/h
1782 06-01-2014 14:35:00 11.5 C 8.26 g/m*3 11.5 C 4.8 km/h
1783 06-01-2014 14:40:00 11.4 C 8.21 g/m*3 11.4 C 3.2 km/h
1784 06-01-2014 14:45:00 11.2 C 8.11 g/m*3 11.2 C 4.8 km/h
1785 06-01-2014 14:50:00 11.1 C 8.16 g/m*3 11.1 C 4.8 km/h
1786 06-01-2014 14:55:00 11 C 8.11 g/m*3 11 C 3.2 km/h
1787 06-01-2014 15:00:00 10.9 C 8.16 g/m*3 10.9 C 1.6 km/h
1788 06-01-2014 15:05:00 10.9 C 8.16 g/m*3 10.9 C 1.6 km/h
1789 06-01-2014 15:10:00 10.8 C 8.2 g/m*3 10.8 C 0 km/h
1790 06-01-2014 15:15:00 10.8 C 8.2 g/m*3 10.8 C 0 km/h
1791 06-01-2014 15:20:00 10.7 C 8.25 g/m*3 10.7 C 3.2 km/h
1792 06-01-2014 15:25:00 10.7 C 8.25 g/m*3 10.7 C 0 km/h
1793 06-01-2014 15:30:00 10.7 C 8.35 g/m*3 10.7 C 1.6 km/h
1794 06-01-2014 15:35:00 10.7 C 8.25 g/m*3 10.7 C 3.2 km/h
1795 06-01-2014 15:40:00 10.6 C 8.3 g/m*3 10.6 C 3.2 km/h
1796 06-01-2014 15:45:00 10.6 C 8.3 g/m*3 10.6 C 4.8 km/h
1797 06-01-2014 15:50:00 10.6 C 8.2 g/m*3 10.6 C 3.2 km/h
1798 06-01-2014 15:55:00 10.6 C 8.2 g/m*3 10.6 C 4.8 km/h
1799 06-01-2014 16:00:00 10.7 C 8.05 g/m*3 10.7 C 4.8 km/h
1800 06-01-2014 16:05:00 10.7 C 8.05 g/m*3 10.7 C 3.2 km/h
Sensor: Nr:Datum:Temp:Abs-Feuchte:Windchill:Wind:
Aussen-T/F 1801 06-01-2014 16:10:00 10.6 C 8 g/m*3 10.6 C 1.6 km/h
1802 06-01-2014 16:15:00 10.6 C 8 g/m*3 9.69 C 8.1 km/h
1803 06-01-2014 16:20:00 10.5 C 7.95 g/m*3 9.95 C 6.4 km/h
1804 06-01-2014 16:25:00 10.4 C 8 g/m*3 10.4 C 3.2 km/h
1805 06-01-2014 16:30:00 10.3 C 7.95 g/m*3 10.3 C 4.8 km/h
1806 06-01-2014 16:35:00 10.3 C 7.85 g/m*3 10.3 C 4.8 km/h
1807 06-01-2014 16:40:00 10.4 C 7.9 g/m*3 10.4 C 4.8 km/h
1808 06-01-2014 16:45:00 10.4 C 7.9 g/m*3 10.4 C 4.8 km/h
1809 06-01-2014 16:50:00 10.4 C 7.9 g/m*3 10.4 C 3.2 km/h
1810 06-01-2014 16:55:00 10.4 C 7.81 g/m*3 10.4 C 4.8 km/h
1811 06-01-2014 17:00:00 10.3 C 7.76 g/m*3 10.3 C 3.2 km/h
1812 06-01-2014 17:05:00 10.2 C 7.8 g/m*3 10.2 C 0 km/h
1813 06-01-2014 17:10:00 10.1 C 7.85 g/m*3 10.1 C 4.8 km/h
1814 06-01-2014 17:15:00 10.1 C 7.94 g/m*3 10.1 C 1.6 km/h
1815 06-01-2014 17:20:00 9.9 C 8.03 g/m*3 9.9 C 1.6 km/h
1816 06-01-2014 17:25:00 9.8 C 7.98 g/m*3 9.8 C 3.2 km/h
1817 06-01-2014 17:30:00 9.8 C 8.07 g/m*3 9.8 C 3.2 km/h
1818 06-01-2014 17:35:00 9.7 C 8.11 g/m*3 9.7 C 1.6 km/h
1819 06-01-2014 17:40:00 9.6 C 8.15 g/m*3 9.6 C 1.6 km/h
1820 06-01-2014 17:45:00 9.4 C 8.05 g/m*3 9.4 C 3.2 km/h
1821 06-01-2014 17:50:00 9.4 C 7.96 g/m*3 9.4 C 3.2 km/h
1822 06-01-2014 17:55:00 9.5 C 7.92 g/m*3 8.4 C 8.1 km/h
1823 06-01-2014 18:00:00 9.7 C 8.02 g/m*3 9.02 C 6.4 km/h
1824 06-01-2014 18:05:00 9.7 C 8.02 g/m*3 9.7 C 4.8 km/h
1825 06-01-2014 18:10:00 9.6 C 7.97 g/m*3 9.6 C 3.2 km/h
Sensor: Nr:Datum:Temp:Abs-Feuchte:Windchill:Wind:
Aussen-T/F 1826 06-01-2014 18:15:00 9.6 C 7.97 g/m*3 9.6 C 0 km/h
1827 06-01-2014 18:20:00 9.8 C 7.98 g/m*3 9.14 C 6.4 km/h
1828 06-01-2014 18:25:00 10.2 C 7.9 g/m*3 10.2 C 4.8 km/h
1829 06-01-2014 18:30:00 10.3 C 7.95 g/m*3 10.3 C 4.8 km/h
1830 06-01-2014 18:35:00 10.3 C 7.95 g/m*3 9.34 C 8.1 km/h
1831 06-01-2014 18:40:00 10.9 C 8.16 g/m*3 10.9 C 3.2 km/h
1832 06-01-2014 18:45:00 11.1 C 8.26 g/m*3 11.1 C 6.4 km/h
1833 06-01-2014 18:50:00 11.1 C 8.36 g/m*3 11.1 C 4.8 km/h
1834 06-01-2014 18:55:00 11 C 8.41 g/m*3 11 C 4.8 km/h
1835 06-01-2014 19:00:00 10.9 C 8.26 g/m*3 10.9 C 3.2 km/h
1836 06-01-2014 19:05:00 10.9 C 8.36 g/m*3 10.04 C 8.1 km/h
1837 06-01-2014 19:10:00 10.8 C 8.3 g/m*3 10.29 C 6.4 km/h
1838 06-01-2014 19:15:00 10.9 C 8.36 g/m*3 10.9 C 3.2 km/h
1839 06-01-2014 19:20:00 10.9 C 8.55 g/m*3 10.41 C 6.4 km/h
1840 06-01-2014 19:25:00 10.8 C 8.5 g/m*3 10.8 C 4.8 km/h
1841 06-01-2014 19:30:00 10.8 C 8.6 g/m*3 10.8 C 1.6 km/h
1842 06-01-2014 19:35:00 10.7 C 8.64 g/m*3 9.52 C 9.7 km/h
1843 06-01-2014 19:40:00 10.5 C 8.63 g/m*3 10.5 C 3.2 km/h
1844 06-01-2014 19:45:00 10.3 C 8.62 g/m*3 10.3 C 4.8 km/h
1845 06-01-2014 19:50:00 10.2 C 8.66 g/m*3 10.2 C 4.8 km/h
1846 06-01-2014 19:55:00 10.1 C 8.7 g/m*3 10.1 C 4.8 km/h
1847 06-01-2014 20:00:00 9.9 C 8.59 g/m*3 9.9 C 3.2 km/h
1848 06-01-2014 20:05:00 9.8 C 8.63 g/m*3 9.8 C 3.2 km/h
1849 06-01-2014 20:10:00 9.8 C 8.72 g/m*3 9.8 C 3.2 km/h
1850 06-01-2014 20:15:00 9.7 C 8.67 g/m*3 9.7 C 3.2 km/h
Sensor: Nr:Datum:Temp:Abs-Feuchte:Windchill:Wind:
Aussen-T/F 1851 06-01-2014 20:20:00 9.7 C 8.67 g/m*3 9.02 C 6.4 km/h
1852 06-01-2014 20:25:00 9.7 C 8.67 g/m*3 9.7 C 3.2 km/h
1853 06-01-2014 20:30:00 9.7 C 8.67 g/m*3 9.7 C 3.2 km/h
1854 06-01-2014 20:35:00 9.7 C 8.76 g/m*3 9.02 C 6.4 km/h
1855 06-01-2014 20:40:00 9.8 C 8.81 g/m*3 9.8 C 4.8 km/h
1856 06-01-2014 20:45:00 9.9 C 8.87 g/m*3 9.9 C 3.2 km/h
1857 06-01-2014 20:50:00 9.9 C 8.78 g/m*3 9.9 C 4.8 km/h
1858 06-01-2014 20:55:00 9.9 C 8.78 g/m*3 9.9 C 4.8 km/h
1859 06-01-2014 21:00:00 9.9 C 8.78 g/m*3 9.9 C 4.8 km/h
1860 06-01-2014 21:05:00 9.8 C 8.72 g/m*3 9.8 C 1.6 km/h
1861 06-01-2014 21:10:00 9.8 C 8.72 g/m*3 9.8 C 3.2 km/h
1862 06-01-2014 21:15:00 9.8 C 8.72 g/m*3 9.8 C 1.6 km/h
1863 06-01-2014 21:20:00 9.8 C 8.81 g/m*3 9.8 C 3.2 km/h
1864 06-01-2014 21:25:00 9.7 C 8.76 g/m*3 9.7 C 3.2 km/h
1865 06-01-2014 21:30:00 9.7 C 8.76 g/m*3 9.02 C 6.4 km/h
1866 06-01-2014 21:35:00 9.7 C 8.85 g/m*3 9.7 C 1.6 km/h
1867 06-01-2014 21:40:00 9.6 C 8.79 g/m*3 9.6 C 1.6 km/h
1868 06-01-2014 21:45:00 9.6 C 8.79 g/m*3 9.6 C 3.2 km/h
1869 06-01-2014 21:50:00 9.7 C 8.85 g/m*3 9.02 C 6.4 km/h
1870 06-01-2014 21:55:00 9.8 C 8.81 g/m*3 9.8 C 3.2 km/h
1871 06-01-2014 22:00:00 9.7 C 8.76 g/m*3 9.7 C 1.6 km/h
1872 06-01-2014 22:05:00 9.7 C 8.76 g/m*3 9.7 C 3.2 km/h
1873 06-01-2014 22:10:00 9.6 C 8.7 g/m*3 9.6 C 3.2 km/h
1874 06-01-2014 22:15:00 9.7 C 8.76 g/m*3 9.7 C 4.8 km/h
1875 06-01-2014 22:20:00 9.7 C 8.76 g/m*3 9.7 C 3.2 km/h
Sensor: Nr:Datum:Temp:Abs-Feuchte:Windchill:Wind:
Aussen-T/F 1876 06-01-2014 22:25:00 9.7 C 8.76 g/m*3 9.7 C 3.2 km/h
1877 06-01-2014 22:30:00 9.7 C 8.76 g/m*3 9.7 C 1.6 km/h
1878 06-01-2014 22:35:00 9.7 C 8.76 g/m*3 9.7 C 3.2 km/h
1879 06-01-2014 22:40:00 9.6 C 8.61 g/m*3 9.6 C 3.2 km/h
1880 06-01-2014 22:45:00 9.6 C 8.61 g/m*3 9.6 C 1.6 km/h
1881 06-01-2014 22:50:00 9.4 C 8.5 g/m*3 9.4 C 0 km/h
1882 06-01-2014 22:55:00 9.3 C 8.45 g/m*3 9.3 C 3.2 km/h
1883 06-01-2014 23:00:00 9.3 C 8.54 g/m*3 7.85 C 9.7 km/h
1884 06-01-2014 23:05:00 9.4 C 8.5 g/m*3 8.68 C 6.4 km/h
1885 06-01-2014 23:10:00 9.5 C 8.56 g/m*3 8.09 C 9.7 km/h
1886 06-01-2014 23:15:00 9.5 C 8.56 g/m*3 8.09 C 9.7 km/h
1887 06-01-2014 23:20:00 9.6 C 8.61 g/m*3 8.21 C 9.7 km/h
1888 06-01-2014 23:25:00 9.6 C 8.61 g/m*3 8.91 C 6.4 km/h
1889 06-01-2014 23:30:00 9.6 C 8.61 g/m*3 9.6 C 3.2 km/h
1890 06-01-2014 23:35:00 9.6 C 8.61 g/m*3 9.6 C 4.8 km/h
1891 06-01-2014 23:40:00 9.7 C 8.76 g/m*3 9.7 C 3.2 km/h
1892 06-01-2014 23:45:00 9.7 C 8.76 g/m*3 8.33 C 9.7 km/h
1893 06-01-2014 23:50:00 9.9 C 8.87 g/m*3 8.56 C 9.7 km/h
1894 06-01-2014 23:55:00 9.9 C 8.87 g/m*3 9.25 C 6.4 km/h
1895 07-01-2014 00:00:00 10.1 C 8.89 g/m*3 9.1 C 8.1 km/h
1896 07-01-2014 00:05:00 10.2 C 8.95 g/m*3 8.66 C 11.3 km/h
1897 07-01-2014 00:10:00 10.3 C 9 g/m*3 9.04 C 9.7 km/h
1898 07-01-2014 00:15:00 10.5 C 9.02 g/m*3 9.02 C 11.3 km/h
1899 07-01-2014 00:20:00 10.7 C 9.13 g/m*3 8.65 C 16.1 km/h
1900 07-01-2014 00:25:00 10.9 C 9.15 g/m*3 8.9 C 16.1 km/h
Sensor: Nr:Datum:Temp:Abs-Feuchte:Windchill:Wind:
Aussen-T/F 1901 07-01-2014 00:30:00 10.9 C 9.15 g/m*3 9.76 C 9.7 km/h
1902 07-01-2014 00:35:00 11.1 C 9.17 g/m*3 11.1 C 12.9 km/h
1903 07-01-2014 00:40:00 11.2 C 9.12 g/m*3 11.2 C 24.1 km/h
1904 07-01-2014 00:45:00 11.2 C 9.12 g/m*3 11.2 C 24.1 km/h
1905 07-01-2014 00:50:00 11.1 C 8.96 g/m*3 11.1 C 29 km/h
1906 07-01-2014 00:55:00 11 C 8.81 g/m*3 8.3 C 24.1 km/h
1907 07-01-2014 01:00:00 10.9 C 8.65 g/m*3 9.51 C 11.3 km/h
1908 07-01-2014 01:05:00 11 C 8.71 g/m*3 9.63 C 11.3 km/h
1909 07-01-2014 01:10:00 11 C 8.61 g/m*3 9.4 C 12.9 km/h
1910 07-01-2014 01:15:00 11 C 8.71 g/m*3 8.56 C 20.9 km/h
1911 07-01-2014 01:20:00 10.8 C 8.6 g/m*3 9.93 C 8.1 km/h
1912 07-01-2014 01:25:00 10.6 C 8.59 g/m*3 9.4 C 9.7 km/h
1913 07-01-2014 01:30:00 10.6 C 8.69 g/m*3 9.4 C 9.7 km/h
1914 07-01-2014 01:35:00 10.6 C 8.69 g/m*3 9.4 C 9.7 km/h
1915 07-01-2014 01:40:00 10.7 C 8.74 g/m*3 9.52 C 9.7 km/h
1916 07-01-2014 01:45:00 10.6 C 8.78 g/m*3 10.06 C 6.4 km/h
1917 07-01-2014 01:50:00 10.5 C 8.73 g/m*3 9.95 C 6.4 km/h
1918 07-01-2014 01:55:00 10.2 C 8.66 g/m*3 10.2 C 3.2 km/h
1919 07-01-2014 02:00:00 10.1 C 8.7 g/m*3 9.48 C 6.4 km/h
1920 07-01-2014 02:05:00 10 C 8.74 g/m*3 10 C 4.8 km/h
1921 07-01-2014 02:10:00 10.1 C 8.79 g/m*3 8.8 C 9.7 km/h
1922 07-01-2014 02:15:00 10.2 C 8.76 g/m*3 10.2 C 4.8 km/h
1923 07-01-2014 02:20:00 10.3 C 8.81 g/m*3 9.34 C 8.1 km/h
1924 07-01-2014 02:25:00 10.5 C 8.83 g/m*3 9.02 C 11.3 km/h
1925 07-01-2014 02:30:00 10.6 C 8.78 g/m*3 8.92 C 12.9 km/h
Sensor: Nr:Datum:Temp:Abs-Feuchte:Windchill:Wind:
Aussen-T/F 1926 07-01-2014 02:35:00 10.6 C 8.78 g/m*3 10.06 C 6.4 km/h
1927 07-01-2014 02:40:00 10.4 C 8.77 g/m*3 9.46 C 8.1 km/h
1928 07-01-2014 02:45:00 10.4 C 8.67 g/m*3 9.16 C 9.7 km/h
1929 07-01-2014 02:50:00 10.4 C 8.67 g/m*3 9.83 C 6.4 km/h
1930 07-01-2014 02:55:00 10.3 C 8.62 g/m*3 9.34 C 8.1 km/h
1931 07-01-2014 03:00:00 10.1 C 8.51 g/m*3 8.54 C 11.3 km/h
1932 07-01-2014 03:05:00 10.2 C 8.56 g/m*3 9.6 C 6.4 km/h
1933 07-01-2014 03:10:00 9.9 C 8.5 g/m*3 9.9 C 3.2 km/h
1934 07-01-2014 03:15:00 9.7 C 8.48 g/m*3 9.7 C 4.8 km/h
1935 07-01-2014 03:20:00 9.8 C 8.44 g/m*3 9.8 C 4.8 km/h
1936 07-01-2014 03:25:00 9.9 C 8.5 g/m*3 9.9 C 4.8 km/h
1937 07-01-2014 03:30:00 10 C 8.55 g/m*3 9.37 C 6.4 km/h
1938 07-01-2014 03:35:00 10 C 8.46 g/m*3 10 C 4.8 km/h
1939 07-01-2014 03:40:00 10.1 C 8.51 g/m*3 9.48 C 6.4 km/h
1940 07-01-2014 03:45:00 9.8 C 8.35 g/m*3 9.8 C 4.8 km/h
1941 07-01-2014 03:50:00 9.7 C 8.39 g/m*3 9.02 C 6.4 km/h
1942 07-01-2014 03:55:00 9.8 C 8.44 g/m*3 9.8 C 4.8 km/h
1943 07-01-2014 04:00:00 9.6 C 8.43 g/m*3 9.6 C 1.6 km/h
1944 07-01-2014 04:05:00 9.4 C 8.32 g/m*3 9.4 C 4.8 km/h
1945 07-01-2014 04:10:00 9.3 C 8.36 g/m*3 9.3 C 3.2 km/h
1946 07-01-2014 04:15:00 9.2 C 8.3 g/m*3 9.2 C 3.2 km/h
1947 07-01-2014 04:20:00 8.9 C 8.15 g/m*3 8.9 C 3.2 km/h
1948 07-01-2014 04:25:00 8.9 C 8.23 g/m*3 8.9 C 3.2 km/h
1949 07-01-2014 04:30:00 8.8 C 8.18 g/m*3 8.8 C 4.8 km/h
1950 07-01-2014 04:35:00 9.1 C 8.43 g/m*3 9.1 C 4.8 km/h
Sensor: Nr:Datum:Temp:Abs-Feuchte:Windchill:Wind:
Aussen-T/F 1951 07-01-2014 04:40:00 9.3 C 8.45 g/m*3 8.16 C 8.1 km/h
1952 07-01-2014 04:45:00 9.5 C 8.47 g/m*3 9.5 C 3.2 km/h
1953 07-01-2014 04:50:00 9.6 C 8.52 g/m*3 9.6 C 1.6 km/h
1954 07-01-2014 04:55:00 9.8 C 8.44 g/m*3 9.8 C 3.2 km/h
1955 07-01-2014 05:00:00 10 C 8.46 g/m*3 9.37 C 6.4 km/h
1956 07-01-2014 05:05:00 10.2 C 8.47 g/m*3 9.6 C 6.4 km/h
1957 07-01-2014 05:10:00 10.2 C 8.37 g/m*3 10.2 C 3.2 km/h
1958 07-01-2014 05:15:00 10.2 C 8.37 g/m*3 9.6 C 6.4 km/h
1959 07-01-2014 05:20:00 10.3 C 8.33 g/m*3 9.34 C 8.1 km/h
1960 07-01-2014 05:25:00 10.4 C 8.29 g/m*3 10.4 C 3.2 km/h
1961 07-01-2014 05:30:00 10.3 C 8.24 g/m*3 9.72 C 6.4 km/h
1962 07-01-2014 05:35:00 10.4 C 8.1 g/m*3 8.47 C 14.5 km/h
1963 07-01-2014 05:40:00 10.5 C 8.15 g/m*3 9.28 C 9.7 km/h
1964 07-01-2014 05:45:00 10.5 C 8.05 g/m*3 9.02 C 11.3 km/h
1965 07-01-2014 05:50:00 10.4 C 8.1 g/m*3 10.4 C 4.8 km/h
1966 07-01-2014 05:55:00 10.3 C 8.04 g/m*3 8.78 C 11.3 km/h
1967 07-01-2014 06:00:00 10.3 C 8.04 g/m*3 8.78 C 11.3 km/h
1968 07-01-2014 06:05:00 10.3 C 8.14 g/m*3 10.3 C 1.6 km/h
1969 07-01-2014 06:10:00 10.1 C 8.23 g/m*3 10.1 C 3.2 km/h
1970 07-01-2014 06:15:00 10.1 C 8.13 g/m*3 9.48 C 6.4 km/h
1971 07-01-2014 06:20:00 10.2 C 8.09 g/m*3 8.92 C 9.7 km/h
1972 07-01-2014 06:25:00 10.4 C 8 g/m*3 9.83 C 6.4 km/h
1973 07-01-2014 06:30:00 10.5 C 8.05 g/m*3 8.8 C 12.9 km/h
1974 07-01-2014 06:35:00 10.4 C 8.1 g/m*3 10.4 C 1.6 km/h
1975 07-01-2014 06:40:00 10.3 C 8.04 g/m*3 10.3 C 1.6 km/h
Sensor: Nr:Datum:Temp:Abs-Feuchte:Windchill:Wind:
Aussen-T/F 1976 07-01-2014 06:45:00 10.3 C 8.04 g/m*3 10.3 C 4.8 km/h
1977 07-01-2014 06:50:00 10.4 C 8 g/m*3 10.4 C 4.8 km/h
1978 07-01-2014 06:55:00 10.5 C 7.95 g/m*3 9.57 C 8.1 km/h
1979 07-01-2014 07:00:00 10.4 C 8 g/m*3 10.4 C 4.8 km/h
1980 07-01-2014 07:05:00 10.1 C 7.94 g/m*3 10.1 C 3.2 km/h
1981 07-01-2014 07:10:00 9.6 C 7.88 g/m*3 9.6 C 4.8 km/h
1982 07-01-2014 07:15:00 9.4 C 7.87 g/m*3 8.68 C 6.4 km/h
1983 07-01-2014 07:20:00 9.3 C 7.91 g/m*3 9.3 C 4.8 km/h
1984 07-01-2014 07:25:00 9.4 C 7.96 g/m*3 9.4 C 4.8 km/h
1985 07-01-2014 07:30:00 9.4 C 7.87 g/m*3 9.4 C 4.8 km/h
1986 07-01-2014 07:35:00 9.5 C 7.92 g/m*3 8.79 C 6.4 km/h
1987 07-01-2014 07:40:00 9.6 C 7.97 g/m*3 8.91 C 6.4 km/h
1988 07-01-2014 07:45:00 9.6 C 7.97 g/m*3 9.6 C 3.2 km/h
1989 07-01-2014 07:50:00 9.7 C 7.84 g/m*3 9.7 C 4.8 km/h
1990 07-01-2014 07:55:00 9.7 C 7.84 g/m*3 9.7 C 3.2 km/h
1991 07-01-2014 08:00:00 9.6 C 7.88 g/m*3 8.52 C 8.1 km/h
1992 07-01-2014 08:05:00 9.4 C 7.78 g/m*3 9.4 C 4.8 km/h
1993 07-01-2014 08:10:00 9.3 C 7.73 g/m*3 9.3 C 4.8 km/h
1994 07-01-2014 08:15:00 9.6 C 7.79 g/m*3 8.52 C 8.1 km/h
1995 07-01-2014 08:20:00 9.6 C 7.88 g/m*3 9.6 C 4.8 km/h
1996 07-01-2014 08:25:00 9.6 C 7.97 g/m*3 9.6 C 4.8 km/h
1997 07-01-2014 08:30:00 9.4 C 7.96 g/m*3 9.4 C 3.2 km/h
1998 07-01-2014 08:35:00 9.4 C 7.87 g/m*3 9.4 C 3.2 km/h
1999 07-01-2014 08:40:00 9.7 C 7.93 g/m*3 9.02 C 6.4 km/h
2000 07-01-2014 08:45:00 9.9 C 7.94 g/m*3 9.9 C 4.8 km/h
Sensor: Nr:Datum:Temp:Abs-Feuchte:Windchill:Wind:
Aussen-T/F 2001 07-01-2014 08:50:00 10.2 C 7.9 g/m*3 10.2 C 4.8 km/h
2002 07-01-2014 08:55:00 10.3 C 7.85 g/m*3 9.72 C 6.4 km/h
2003 07-01-2014 09:00:00 10.4 C 7.9 g/m*3 9.46 C 8.1 km/h
2004 07-01-2014 09:05:00 10.5 C 7.86 g/m*3 9.02 C 11.3 km/h
2005 07-01-2014 09:10:00 10.7 C 7.86 g/m*3 8.84 C 14.5 km/h
2006 07-01-2014 09:15:00 10.8 C 7.91 g/m*3 10.29 C 6.4 km/h
2007 07-01-2014 09:20:00 10.7 C 7.96 g/m*3 9.81 C 8.1 km/h
2008 07-01-2014 09:25:00 10.6 C 7.81 g/m*3 9.4 C 9.7 km/h
2009 07-01-2014 09:30:00 10.7 C 7.86 g/m*3 9.26 C 11.3 km/h
2010 07-01-2014 09:35:00 10.7 C 7.96 g/m*3 10.18 C 6.4 km/h
2011 07-01-2014 09:40:00 10.7 C 7.96 g/m*3 10.18 C 6.4 km/h
2012 07-01-2014 09:45:00 10.8 C 8.01 g/m*3 10.29 C 6.4 km/h
2013 07-01-2014 09:50:00 10.8 C 7.91 g/m*3 9.64 C 9.7 km/h
2014 07-01-2014 09:55:00 10.9 C 7.96 g/m*3 10.04 C 8.1 km/h
2015 07-01-2014 10:00:00 11 C 8.11 g/m*3 10.16 C 8.1 km/h
2016 07-01-2014 10:05:00 11.1 C 8.06 g/m*3 11.1 C 4.8 km/h
2017 07-01-2014 10:10:00 11.1 C 8.06 g/m*3 11.1 C 12.9 km/h
2018 07-01-2014 10:15:00 11.1 C 8.16 g/m*3 11.1 C 4.8 km/h
2019 07-01-2014 10:20:00 11.1 C 8.06 g/m*3 11.1 C 11.3 km/h
2020 07-01-2014 10:25:00 11.3 C 8.06 g/m*3 11.3 C 20.9 km/h
2021 07-01-2014 10:30:00 11.4 C 8.01 g/m*3 11.4 C 17.7 km/h
2022 07-01-2014 10:35:00 11.6 C 8.11 g/m*3 11.6 C 6.4 km/h
2023 07-01-2014 10:40:00 11.6 C 8.11 g/m*3 11.6 C 12.9 km/h
2024 07-01-2014 10:45:00 11.7 C 8.26 g/m*3 11.7 C 11.3 km/h
2025 07-01-2014 10:50:00 11.6 C 8.21 g/m*3 11.6 C 6.4 km/h
Sensor: Nr:Datum:Temp:Abs-Feuchte:Windchill:Wind:
Aussen-T/F 2026 07-01-2014 10:55:00 11.7 C 8.26 g/m*3 11.7 C 8.1 km/h
2027 07-01-2014 11:00:00 11.7 C 8.16 g/m*3 11.7 C 14.5 km/h
2028 07-01-2014 11:05:00 11.7 C 8.16 g/m*3 11.7 C 11.3 km/h
2029 07-01-2014 11:10:00 11.7 C 8.16 g/m*3 11.7 C 4.8 km/h
2030 07-01-2014 11:15:00 11.7 C 8.16 g/m*3 11.7 C 11.3 km/h
2031 07-01-2014 11:20:00 11.7 C 8.26 g/m*3 11.7 C 3.2 km/h
2032 07-01-2014 11:25:00 11.8 C 8.31 g/m*3 11.8 C 12.9 km/h
2033 07-01-2014 11:30:00 11.8 C 8.31 g/m*3 11.8 C 8.1 km/h
2034 07-01-2014 11:35:00 11.9 C 8.37 g/m*3 11.9 C 6.4 km/h
2035 07-01-2014 11:40:00 11.9 C 8.26 g/m*3 11.9 C 6.4 km/h
2036 07-01-2014 11:45:00 12 C 8.31 g/m*3 12 C 11.3 km/h
2037 07-01-2014 11:50:00 12 C 8.21 g/m*3 12 C 11.3 km/h
2038 07-01-2014 11:55:00 11.9 C 8.26 g/m*3 11.9 C 1.6 km/h
2039 07-01-2014 12:00:00 11.9 C 8.26 g/m*3 11.9 C 8.1 km/h
2040 07-01-2014 12:05:00 11.9 C 8.15 g/m*3 11.9 C 8.1 km/h
2041 07-01-2014 12:10:00 11.9 C 8.26 g/m*3 11.9 C 9.7 km/h
2042 07-01-2014 12:15:00 11.9 C 8.26 g/m*3 11.9 C 9.7 km/h
2043 07-01-2014 12:20:00 11.9 C 8.37 g/m*3 11.9 C 6.4 km/h
2044 07-01-2014 12:25:00 11.9 C 8.26 g/m*3 11.9 C 9.7 km/h
2045 07-01-2014 12:30:00 11.9 C 8.47 g/m*3 11.9 C 6.4 km/h
2046 07-01-2014 12:35:00 11.8 C 8.31 g/m*3 11.8 C 4.8 km/h
2047 07-01-2014 12:40:00 11.8 C 8.53 g/m*3 11.8 C 4.8 km/h
2048 07-01-2014 12:45:00 11.8 C 8.53 g/m*3 11.8 C 6.4 km/h
2049 07-01-2014 12:50:00 11.7 C 8.47 g/m*3 11.7 C 4.8 km/h
2050 07-01-2014 12:55:00 11.7 C 8.79 g/m*3 11.7 C 3.2 km/h
Sensor: Nr:Datum:Temp:Abs-Feuchte:Windchill:Wind:
Aussen-T/F 2051 07-01-2014 13:00:00 11.5 C 8.57 g/m*3 11.5 C 1.6 km/h
2052 07-01-2014 13:05:00 11.4 C 8.62 g/m*3 11.4 C 1.6 km/h
2053 07-01-2014 13:10:00 11.5 C 8.68 g/m*3 11.5 C 3.2 km/h
2054 07-01-2014 13:15:00 11.6 C 8.52 g/m*3 11.6 C 1.6 km/h
2055 07-01-2014 13:20:00 11.6 C 8.63 g/m*3 11.6 C 4.8 km/h
2056 07-01-2014 13:25:00 11.7 C 8.79 g/m*3 11.7 C 8.1 km/h
2057 07-01-2014 13:30:00 11.6 C 8.83 g/m*3 11.6 C 1.6 km/h
2058 07-01-2014 13:35:00 11.4 C 8.62 g/m*3 11.4 C 4.8 km/h
2059 07-01-2014 13:40:00 11.4 C 8.52 g/m*3 11.4 C 1.6 km/h
2060 07-01-2014 13:45:00 11.5 C 8.57 g/m*3 11.5 C 1.6 km/h
2061 07-01-2014 13:50:00 11.7 C 8.79 g/m*3 11.7 C 3.2 km/h
2062 07-01-2014 13:55:00 11.7 C 8.79 g/m*3 11.7 C 6.4 km/h
2063 07-01-2014 14:00:00 11.7 C 8.79 g/m*3 11.7 C 4.8 km/h
2064 07-01-2014 14:05:00 11.9 C 8.9 g/m*3 11.9 C 6.4 km/h
2065 07-01-2014 14:10:00 12.3 C 8.36 g/m*3 12.3 C 9.7 km/h
2066 07-01-2014 14:15:00 12.7 C 8.46 g/m*3 12.7 C 6.4 km/h
2067 07-01-2014 14:20:00 12.9 C 8.23 g/m*3 12.9 C 6.4 km/h
2068 07-01-2014 14:25:00 13.3 C 8.66 g/m*3 13.3 C 8.1 km/h
2069 07-01-2014 14:30:00 13.4 C 8.14 g/m*3 13.4 C 8.1 km/h
2070 07-01-2014 14:35:00 13.4 C 8.02 g/m*3 13.4 C 4.8 km/h
2071 07-01-2014 14:40:00 13.6 C 8.12 g/m*3 13.6 C 6.4 km/h
2072 07-01-2014 14:45:00 13.6 C 8.24 g/m*3 13.6 C 11.3 km/h
2073 07-01-2014 14:50:00 13.3 C 8.66 g/m*3 13.3 C 3.2 km/h
2074 07-01-2014 14:55:00 13.1 C 7.87 g/m*3 13.1 C 8.1 km/h
2075 07-01-2014 15:00:00 13.2 C 7.81 g/m*3 13.2 C 9.7 km/h
Sensor: Nr:Datum:Temp:Abs-Feuchte:Windchill:Wind:
Aussen-T/F 2076 07-01-2014 15:05:00 13.2 C 8.15 g/m*3 13.2 C 6.4 km/h
2077 07-01-2014 15:10:00 13.1 C 8.33 g/m*3 13.1 C 6.4 km/h
2078 07-01-2014 15:15:00 13.1 C 8.1 g/m*3 13.1 C 6.4 km/h
2079 07-01-2014 15:20:00 13.1 C 8.33 g/m*3 13.1 C 4.8 km/h
2080 07-01-2014 15:25:00 13.1 C 7.99 g/m*3 13.1 C 8.1 km/h
2081 07-01-2014 15:30:00 13.3 C 7.97 g/m*3 13.3 C 9.7 km/h
2082 07-01-2014 15:35:00 13.4 C 7.9 g/m*3 13.4 C 11.3 km/h
2083 07-01-2014 15:40:00 13.6 C 8.36 g/m*3 13.6 C 3.2 km/h
2084 07-01-2014 15:45:00 13.4 C 8.14 g/m*3 13.4 C 4.8 km/h
2085 07-01-2014 15:50:00 13.3 C 8.2 g/m*3 13.3 C 4.8 km/h
2086 07-01-2014 15:55:00 13.2 C 8.04 g/m*3 13.2 C 4.8 km/h
2087 07-01-2014 16:00:00 13.2 C 8.61 g/m*3 13.2 C 4.8 km/h
2088 07-01-2014 16:05:00 12.9 C 8.11 g/m*3 12.9 C 1.6 km/h
2089 07-01-2014 16:10:00 12.9 C 8.11 g/m*3 12.9 C 1.6 km/h
2090 07-01-2014 16:15:00 12.8 C 8.06 g/m*3 12.8 C 3.2 km/h
2091 07-01-2014 16:20:00 12.6 C 8.63 g/m*3 12.6 C 4.8 km/h
2092 07-01-2014 16:25:00 12.1 C 8.58 g/m*3 12.1 C 3.2 km/h
2093 07-01-2014 16:30:00 11.6 C 8.42 g/m*3 11.6 C 1.6 km/h
2094 07-01-2014 16:35:00 11.2 C 8.21 g/m*3 11.2 C 3.2 km/h
2095 07-01-2014 16:40:00 10.9 C 8.16 g/m*3 10.9 C 3.2 km/h
2096 07-01-2014 16:45:00 10.8 C 8.3 g/m*3 10.8 C 3.2 km/h
2097 07-01-2014 16:50:00 10.7 C 8.35 g/m*3 10.7 C 1.6 km/h
2098 07-01-2014 16:55:00 10.6 C 8.3 g/m*3 10.6 C 4.8 km/h
2099 07-01-2014 17:00:00 10.6 C 8.39 g/m*3 10.6 C 3.2 km/h
2100 07-01-2014 17:05:00 10.6 C 8.49 g/m*3 10.6 C 0 km/h
Sensor: Nr:Datum:Temp:Abs-Feuchte:Windchill:Wind:
Aussen-T/F 2101 07-01-2014 17:10:00 10.6 C 8.39 g/m*3 10.6 C 3.2 km/h
2102 07-01-2014 17:15:00 10.6 C 8.39 g/m*3 10.6 C 3.2 km/h
2103 07-01-2014 17:20:00 10.7 C 8.15 g/m*3 10.7 C 1.6 km/h
2104 07-01-2014 17:25:00 10.8 C 8.4 g/m*3 10.8 C 1.6 km/h
2105 07-01-2014 17:30:00 10.7 C 8.45 g/m*3 10.7 C 0 km/h
2106 07-01-2014 17:35:00 10.6 C 8.39 g/m*3 10.6 C 0 km/h
2107 07-01-2014 17:40:00 10.6 C 8.39 g/m*3 10.6 C 3.2 km/h
2108 07-01-2014 17:45:00 10.6 C 8.39 g/m*3 10.6 C 1.6 km/h
2109 07-01-2014 17:50:00 10.6 C 8.39 g/m*3 10.6 C 3.2 km/h
2110 07-01-2014 17:55:00 10.6 C 8.39 g/m*3 10.6 C 3.2 km/h
2111 07-01-2014 18:00:00 10.6 C 8.39 g/m*3 10.6 C 3.2 km/h
2112 07-01-2014 18:05:00 10.4 C 8.29 g/m*3 10.4 C 4.8 km/h
2113 07-01-2014 18:10:00 10.3 C 8.24 g/m*3 10.3 C 1.6 km/h
2114 07-01-2014 18:15:00 10.2 C 8.28 g/m*3 10.2 C 3.2 km/h
2115 07-01-2014 18:20:00 10.2 C 8.28 g/m*3 10.2 C 3.2 km/h
2116 07-01-2014 18:25:00 10.1 C 8.32 g/m*3 10.1 C 1.6 km/h
2117 07-01-2014 18:30:00 10.1 C 8.42 g/m*3 10.1 C 3.2 km/h
2118 07-01-2014 18:35:00 10.1 C 8.42 g/m*3 10.1 C 3.2 km/h
2119 07-01-2014 18:40:00 10.1 C 8.32 g/m*3 10.1 C 3.2 km/h
2120 07-01-2014 18:45:00 10.2 C 8.37 g/m*3 10.2 C 4.8 km/h
2121 07-01-2014 18:50:00 10.3 C 8.43 g/m*3 10.3 C 3.2 km/h
2122 07-01-2014 18:55:00 10.4 C 8.48 g/m*3 10.4 C 1.6 km/h
2123 07-01-2014 19:00:00 10.5 C 8.53 g/m*3 10.5 C 3.2 km/h
2124 07-01-2014 19:05:00 10.5 C 8.53 g/m*3 10.5 C 3.2 km/h
2125 07-01-2014 19:10:00 10.4 C 8.58 g/m*3 10.4 C 0 km/h
Sensor: Nr:Datum:Temp:Abs-Feuchte:Windchill:Wind:
Aussen-T/F 2126 07-01-2014 19:15:00 10.4 C 8.58 g/m*3 10.4 C 0 km/h
2127 07-01-2014 19:20:00 10.4 C 8.48 g/m*3 10.4 C 1.6 km/h
2128 07-01-2014 19:25:00 10.5 C 8.63 g/m*3 10.5 C 1.6 km/h
2129 07-01-2014 19:30:00 10.4 C 8.67 g/m*3 10.4 C 4.8 km/h
2130 07-01-2014 19:35:00 10.4 C 8.67 g/m*3 10.4 C 1.6 km/h
2131 07-01-2014 19:40:00 10.4 C 8.77 g/m*3 10.4 C 3.2 km/h
2132 07-01-2014 19:45:00 10.3 C 8.81 g/m*3 10.3 C 1.6 km/h
2133 07-01-2014 19:50:00 10.3 C 8.81 g/m*3 10.3 C 3.2 km/h
2134 07-01-2014 19:55:00 10.3 C 8.81 g/m*3 10.3 C 1.6 km/h
2135 07-01-2014 20:00:00 10.3 C 8.91 g/m*3 10.3 C 3.2 km/h
2136 07-01-2014 20:05:00 10.2 C 8.85 g/m*3 10.2 C 1.6 km/h
2137 07-01-2014 20:10:00 10 C 8.74 g/m*3 10 C 0 km/h
2138 07-01-2014 20:15:00 9.9 C 8.68 g/m*3 9.9 C 3.2 km/h
2139 07-01-2014 20:20:00 9.7 C 8.57 g/m*3 9.7 C 1.6 km/h
2140 07-01-2014 20:25:00 9.6 C 8.52 g/m*3 9.6 C 3.2 km/h
2141 07-01-2014 20:30:00 9.5 C 8.56 g/m*3 9.5 C 0 km/h
2142 07-01-2014 20:35:00 9.4 C 8.5 g/m*3 9.4 C 1.6 km/h
2143 07-01-2014 20:40:00 9.3 C 8.45 g/m*3 9.3 C 3.2 km/h
2144 07-01-2014 20:45:00 9.2 C 8.39 g/m*3 9.2 C 1.6 km/h
2145 07-01-2014 20:50:00 9.2 C 8.48 g/m*3 9.2 C 3.2 km/h
2146 07-01-2014 20:55:00 9.3 C 8.54 g/m*3 9.3 C 0 km/h
2147 07-01-2014 21:00:00 9.4 C 8.59 g/m*3 9.4 C 1.6 km/h
2148 07-01-2014 21:05:00 9.6 C 8.7 g/m*3 9.6 C 3.2 km/h
2149 07-01-2014 21:10:00 9.6 C 8.7 g/m*3 8.91 C 6.4 km/h
2150 07-01-2014 21:15:00 9.7 C 8.76 g/m*3 9.7 C 1.6 km/h
Sensor: Nr:Datum:Temp:Abs-Feuchte:Windchill:Wind:
Aussen-T/F 2151 07-01-2014 21:20:00 9.7 C 8.76 g/m*3 9.7 C 3.2 km/h
2152 07-01-2014 21:25:00 9.8 C 8.81 g/m*3 9.8 C 1.6 km/h
2153 07-01-2014 21:30:00 9.8 C 8.81 g/m*3 9.8 C 0 km/h
2154 07-01-2014 21:35:00 9.8 C 8.72 g/m*3 9.8 C 1.6 km/h
2155 07-01-2014 21:40:00 9.9 C 8.87 g/m*3 9.9 C 3.2 km/h
2156 07-01-2014 21:45:00 10 C 8.83 g/m*3 10 C 3.2 km/h
2157 07-01-2014 21:50:00 10.1 C 8.89 g/m*3 10.1 C 3.2 km/h
2158 07-01-2014 21:55:00 10.1 C 8.89 g/m*3 10.1 C 3.2 km/h
2159 07-01-2014 22:00:00 10.1 C 8.79 g/m*3 10.1 C 3.2 km/h
2160 07-01-2014 22:05:00 10.2 C 8.85 g/m*3 10.2 C 4.8 km/h
2161 07-01-2014 22:10:00 10.2 C 8.76 g/m*3 10.2 C 1.6 km/h
2162 07-01-2014 22:15:00 10.1 C 8.7 g/m*3 10.1 C 0 km/h
2163 07-01-2014 22:20:00 10 C 8.74 g/m*3 10 C 1.6 km/h
2164 07-01-2014 22:25:00 10 C 8.74 g/m*3 10 C 0 km/h
2165 07-01-2014 22:30:00 10 C 8.74 g/m*3 10 C 0 km/h
2166 07-01-2014 22:35:00 10.1 C 8.89 g/m*3 10.1 C 3.2 km/h
2167 07-01-2014 22:40:00 10.2 C 8.85 g/m*3 10.2 C 3.2 km/h
2168 07-01-2014 22:45:00 10.2 C 8.85 g/m*3 10.2 C 3.2 km/h
2169 07-01-2014 22:50:00 10.3 C 8.91 g/m*3 10.3 C 3.2 km/h
2170 07-01-2014 22:55:00 10.3 C 8.81 g/m*3 10.3 C 3.2 km/h
2171 07-01-2014 23:00:00 10.3 C 8.81 g/m*3 10.3 C 3.2 km/h
2172 07-01-2014 23:05:00 10.2 C 8.76 g/m*3 10.2 C 3.2 km/h
2173 07-01-2014 23:10:00 10.2 C 8.85 g/m*3 10.2 C 3.2 km/h
2174 07-01-2014 23:15:00 10.2 C 8.85 g/m*3 10.2 C 1.6 km/h
2175 07-01-2014 23:20:00 10.3 C 8.91 g/m*3 10.3 C 1.6 km/h
Sensor: Nr:Datum:Temp:Abs-Feuchte:Windchill:Wind:
Aussen-T/F 2176 07-01-2014 23:25:00 10.3 C 8.91 g/m*3 10.3 C 3.2 km/h
2177 07-01-2014 23:30:00 10.3 C 8.91 g/m*3 10.3 C 3.2 km/h
2178 07-01-2014 23:35:00 10.3 C 8.91 g/m*3 10.3 C 1.6 km/h
2179 07-01-2014 23:40:00 10.4 C 8.96 g/m*3 10.4 C 3.2 km/h
2180 07-01-2014 23:45:00 10.6 C 9.08 g/m*3 10.6 C 3.2 km/h
2181 07-01-2014 23:50:00 10.8 C 9.09 g/m*3 10.8 C 4.8 km/h
2182 07-01-2014 23:55:00 11 C 9.01 g/m*3 11 C 3.2 km/h
2183 08-01-2014 00:00:00 11.1 C 9.07 g/m*3 11.1 C 1.6 km/h
2184 08-01-2014 00:05:00 11.3 C 9.08 g/m*3 11.3 C 6.4 km/h
2185 08-01-2014 00:10:00 11.3 C 9.08 g/m*3 11.3 C 12.9 km/h
2186 08-01-2014 00:15:00 11.4 C 9.14 g/m*3 11.4 C 4.8 km/h
2187 08-01-2014 00:20:00 11.5 C 9.09 g/m*3 11.5 C 3.2 km/h
2188 08-01-2014 00:25:00 11.4 C 9.03 g/m*3 11.4 C 4.8 km/h
2189 08-01-2014 00:30:00 11.2 C 9.02 g/m*3 11.2 C 1.6 km/h
2190 08-01-2014 00:35:00 11.1 C 9.07 g/m*3 11.1 C 6.4 km/h
2191 08-01-2014 00:40:00 11.3 C 9.08 g/m*3 11.3 C 4.8 km/h
2192 08-01-2014 00:45:00 11.3 C 9.08 g/m*3 11.3 C 6.4 km/h
2193 08-01-2014 00:50:00 11.3 C 8.98 g/m*3 11.3 C 8.1 km/h
2194 08-01-2014 00:55:00 11.4 C 9.03 g/m*3 11.4 C 4.8 km/h
2195 08-01-2014 01:00:00 11.3 C 8.98 g/m*3 11.3 C 3.2 km/h
2196 08-01-2014 01:05:00 11.2 C 8.92 g/m*3 11.2 C 6.4 km/h
2197 08-01-2014 01:10:00 10.9 C 8.85 g/m*3 10.9 C 1.6 km/h
2198 08-01-2014 01:15:00 10.9 C 8.95 g/m*3 9.28 C 12.9 km/h
2199 08-01-2014 01:20:00 11.3 C 9.08 g/m*3 11.3 C 8.1 km/h
2200 08-01-2014 01:25:00 11.6 C 9.04 g/m*3 11.6 C 9.7 km/h
Sensor: Nr:Datum:Temp:Abs-Feuchte:Windchill:Wind:
Aussen-T/F 2201 08-01-2014 01:30:00 11.9 C 9.11 g/m*3 11.9 C 16.1 km/h
2202 08-01-2014 01:35:00 12.1 C 9.22 g/m*3 12.1 C 9.7 km/h
2203 08-01-2014 01:40:00 11.9 C 9.11 g/m*3 11.9 C 4.8 km/h
2204 08-01-2014 01:45:00 11.8 C 9.16 g/m*3 11.8 C 1.6 km/h
2205 08-01-2014 01:50:00 11.7 C 9.1 g/m*3 11.7 C 8.1 km/h
2206 08-01-2014 01:55:00 11.7 C 9.2 g/m*3 11.7 C 6.4 km/h
2207 08-01-2014 02:00:00 11.7 C 9.2 g/m*3 11.7 C 1.6 km/h
2208 08-01-2014 02:05:00 11.7 C 9.2 g/m*3 11.7 C 4.8 km/h
2209 08-01-2014 02:10:00 11.8 C 9.16 g/m*3 11.8 C 12.9 km/h
2210 08-01-2014 02:15:00 11.9 C 9.21 g/m*3 11.9 C 3.2 km/h
2211 08-01-2014 02:20:00 11.8 C 9.05 g/m*3 11.8 C 4.8 km/h
2212 08-01-2014 02:25:00 11.6 C 9.15 g/m*3 11.6 C 8.1 km/h
2213 08-01-2014 02:30:00 11.6 C 9.15 g/m*3 11.6 C 6.4 km/h
2214 08-01-2014 02:35:00 11.4 C 9.03 g/m*3 11.4 C 6.4 km/h
2215 08-01-2014 02:40:00 11.3 C 8.98 g/m*3 11.3 C 4.8 km/h
2216 08-01-2014 02:45:00 11.2 C 8.92 g/m*3 11.2 C 4.8 km/h
2217 08-01-2014 02:50:00 11.2 C 9.02 g/m*3 11.2 C 3.2 km/h
2218 08-01-2014 02:55:00 11.1 C 8.96 g/m*3 11.1 C 3.2 km/h
2219 08-01-2014 03:00:00 10.9 C 8.95 g/m*3 10.9 C 3.2 km/h
2220 08-01-2014 03:05:00 10.9 C 8.95 g/m*3 10.9 C 1.6 km/h
2221 08-01-2014 03:10:00 10.8 C 8.9 g/m*3 10.29 C 6.4 km/h
2222 08-01-2014 03:15:00 10.9 C 9.05 g/m*3 10.41 C 6.4 km/h
2223 08-01-2014 03:20:00 11.3 C 9.08 g/m*3 11.3 C 8.1 km/h
2224 08-01-2014 03:25:00 11.3 C 9.08 g/m*3 11.3 C 1.6 km/h
2225 08-01-2014 03:30:00 11.1 C 8.96 g/m*3 11.1 C 4.8 km/h
Sensor: Nr:Datum:Temp:Abs-Feuchte:Windchill:Wind:
Aussen-T/F 2226 08-01-2014 03:35:00 11.2 C 9.12 g/m*3 11.2 C 8.1 km/h
2227 08-01-2014 03:40:00 11.3 C 9.18 g/m*3 11.3 C 3.2 km/h
2228 08-01-2014 03:45:00 11.3 C 9.18 g/m*3 11.3 C 1.6 km/h
2229 08-01-2014 03:50:00 11.1 C 9.17 g/m*3 11.1 C 3.2 km/h
2230 08-01-2014 03:55:00 10.9 C 9.05 g/m*3 10.9 C 3.2 km/h
2231 08-01-2014 04:00:00 10.9 C 9.15 g/m*3 10.9 C 3.2 km/h
2232 08-01-2014 04:05:00 10.9 C 9.15 g/m*3 10.9 C 0 km/h
2233 08-01-2014 04:10:00 10.8 C 9.09 g/m*3 10.8 C 1.6 km/h
2234 08-01-2014 04:15:00 10.8 C 9.19 g/m*3 10.8 C 4.8 km/h
2235 08-01-2014 04:20:00 10.9 C 9.15 g/m*3 10.9 C 4.8 km/h
2236 08-01-2014 04:25:00 10.9 C 9.05 g/m*3 10.04 C 8.1 km/h
2237 08-01-2014 04:30:00 10.9 C 9.05 g/m*3 10.9 C 4.8 km/h
2238 08-01-2014 04:35:00 10.9 C 9.05 g/m*3 10.9 C 1.6 km/h
2239 08-01-2014 04:40:00 10.8 C 8.99 g/m*3 10.8 C 3.2 km/h
2240 08-01-2014 04:45:00 10.8 C 9.09 g/m*3 10.8 C 1.6 km/h
2241 08-01-2014 04:50:00 10.7 C 9.04 g/m*3 10.7 C 1.6 km/h
2242 08-01-2014 04:55:00 10.8 C 9.09 g/m*3 10.8 C 4.8 km/h
2243 08-01-2014 05:00:00 10.9 C 9.15 g/m*3 10.41 C 6.4 km/h
2244 08-01-2014 05:05:00 11.1 C 9.17 g/m*3 11.1 C 9.7 km/h
2245 08-01-2014 05:10:00 11.2 C 9.12 g/m*3 11.2 C 3.2 km/h
2246 08-01-2014 05:15:00 11.3 C 9.18 g/m*3 11.3 C 6.4 km/h
2247 08-01-2014 05:20:00 11.3 C 9.08 g/m*3 11.3 C 12.9 km/h
2248 08-01-2014 05:25:00 11.4 C 9.14 g/m*3 11.4 C 8.1 km/h
2249 08-01-2014 05:30:00 11.5 C 9.09 g/m*3 11.5 C 8.1 km/h
2250 08-01-2014 05:35:00 11.6 C 9.04 g/m*3 11.6 C 6.4 km/h
Sensor: Nr:Datum:Temp:Abs-Feuchte:Windchill:Wind:
Aussen-T/F 2251 08-01-2014 05:40:00 11.8 C 9.16 g/m*3 11.8 C 12.9 km/h
2252 08-01-2014 05:45:00 11.9 C 9.11 g/m*3 11.9 C 11.3 km/h
2253 08-01-2014 05:50:00 12.1 C 9.12 g/m*3 12.1 C 24.1 km/h
2254 08-01-2014 05:55:00 12.1 C 9.12 g/m*3 12.1 C 11.3 km/h
2255 08-01-2014 06:00:00 12.2 C 9.06 g/m*3 12.2 C 27.4 km/h
2256 08-01-2014 06:05:00 12.3 C 9.12 g/m*3 12.3 C 16.1 km/h
2257 08-01-2014 06:10:00 12.2 C 9.06 g/m*3 12.2 C 12.9 km/h
2258 08-01-2014 06:15:00 12.2 C 9.17 g/m*3 12.2 C 9.7 km/h
2259 08-01-2014 06:20:00 12.2 C 9.06 g/m*3 12.2 C 12.9 km/h
2260 08-01-2014 06:25:00 12.1 C 9.01 g/m*3 12.1 C 12.9 km/h
2261 08-01-2014 06:30:00 12.1 C 9.01 g/m*3 12.1 C 11.3 km/h
2262 08-01-2014 06:35:00 12.1 C 9.01 g/m*3 12.1 C 12.9 km/h
2263 08-01-2014 06:40:00 12.2 C 8.96 g/m*3 12.2 C 12.9 km/h
2264 08-01-2014 06:45:00 12.2 C 8.96 g/m*3 12.2 C 12.9 km/h
2265 08-01-2014 06:50:00 12.2 C 8.96 g/m*3 12.2 C 6.4 km/h
2266 08-01-2014 06:55:00 12.1 C 8.9 g/m*3 12.1 C 14.5 km/h
2267 08-01-2014 07:00:00 12.1 C 8.9 g/m*3 12.1 C 11.3 km/h
2268 08-01-2014 07:05:00 12.1 C 8.9 g/m*3 12.1 C 9.7 km/h
2269 08-01-2014 07:10:00 12.1 C 8.9 g/m*3 12.1 C 9.7 km/h
2270 08-01-2014 07:15:00 12.1 C 8.9 g/m*3 12.1 C 12.9 km/h
2271 08-01-2014 07:20:00 12 C 8.85 g/m*3 12 C 12.9 km/h
2272 08-01-2014 07:25:00 11.9 C 8.79 g/m*3 11.9 C 8.1 km/h
2273 08-01-2014 07:30:00 11.9 C 8.79 g/m*3 11.9 C 11.3 km/h
2274 08-01-2014 07:35:00 11.8 C 8.74 g/m*3 11.8 C 9.7 km/h
2275 08-01-2014 07:40:00 11.8 C 8.74 g/m*3 11.8 C 12.9 km/h
Sensor: Nr:Datum:Temp:Abs-Feuchte:Windchill:Wind:
Aussen-T/F 2276 08-01-2014 07:45:00 11.9 C 8.79 g/m*3 11.9 C 11.3 km/h
2277 08-01-2014 07:50:00 11.9 C 8.79 g/m*3 11.9 C 9.7 km/h
2278 08-01-2014 07:55:00 11.9 C 8.79 g/m*3 11.9 C 11.3 km/h
2279 08-01-2014 08:00:00 11.7 C 8.68 g/m*3 11.7 C 12.9 km/h
2280 08-01-2014 08:05:00 11.7 C 8.68 g/m*3 11.7 C 9.7 km/h
2281 08-01-2014 08:10:00 11.7 C 8.68 g/m*3 11.7 C 8.1 km/h
2282 08-01-2014 08:15:00 11.5 C 8.68 g/m*3 11.5 C 4.8 km/h
2283 08-01-2014 08:20:00 11.4 C 8.62 g/m*3 11.4 C 4.8 km/h
2284 08-01-2014 08:25:00 11.3 C 8.57 g/m*3 11.3 C 12.9 km/h
2285 08-01-2014 08:30:00 11.3 C 8.57 g/m*3 11.3 C 8.1 km/h
2286 08-01-2014 08:35:00 11.3 C 8.57 g/m*3 11.3 C 9.7 km/h
2287 08-01-2014 08:40:00 11.3 C 8.57 g/m*3 11.3 C 9.7 km/h
2288 08-01-2014 08:45:00 11.4 C 8.62 g/m*3 11.4 C 9.7 km/h
2289 08-01-2014 08:50:00 11.4 C 8.62 g/m*3 11.4 C 9.7 km/h
2290 08-01-2014 08:55:00 11.4 C 8.52 g/m*3 11.4 C 11.3 km/h
2291 08-01-2014 09:00:00 11.4 C 8.52 g/m*3 11.4 C 11.3 km/h
2292 08-01-2014 09:05:00 11.3 C 8.47 g/m*3 11.3 C 8.1 km/h
2293 08-01-2014 09:10:00 11.3 C 8.47 g/m*3 11.3 C 4.8 km/h
2294 08-01-2014 10:35:00 11.4 C 8.52 g/m*3 11.4 C 12.9 km/h
2295 08-01-2014 10:40:00 11.4 C 8.42 g/m*3 11.4 C 11.3 km/h
2296 08-01-2014 10:45:00 11.6 C 8.52 g/m*3 11.6 C 9.7 km/h
2297 08-01-2014 10:50:00 11.6 C 8.42 g/m*3 11.6 C 6.4 km/h
2298 08-01-2014 10:55:00 11.6 C 8.42 g/m*3 11.6 C 8.1 km/h
2299 08-01-2014 11:00:00 11.4 C 8.42 g/m*3 11.4 C 12.9 km/h
2300 08-01-2014 11:05:00 11.4 C 8.42 g/m*3 11.4 C 12.9 km/h
Sensor: Nr:Datum:Temp:Abs-Feuchte:Windchill:Wind:
Aussen-T/F 2301 08-01-2014 11:10:00 11.4 C 8.42 g/m*3 11.4 C 6.4 km/h
2302 08-01-2014 11:15:00 11.3 C 8.36 g/m*3 11.3 C 8.1 km/h
2303 08-01-2014 11:20:00 11.2 C 8.31 g/m*3 11.2 C 9.7 km/h
2304 08-01-2014 11:25:00 11 C 8.31 g/m*3 11 C 4.8 km/h
2305 08-01-2014 11:30:00 11.1 C 8.36 g/m*3 11.1 C 6.4 km/h
2306 08-01-2014 11:35:00 11.1 C 8.26 g/m*3 11.1 C 8.1 km/h
2307 08-01-2014 11:40:00 11.1 C 8.36 g/m*3 11.1 C 6.4 km/h
2308 08-01-2014 11:45:00 11.1 C 8.26 g/m*3 11.1 C 6.4 km/h
2309 08-01-2014 11:50:00 11.1 C 8.36 g/m*3 11.1 C 3.2 km/h
2310 08-01-2014 11:55:00 10.9 C 8.36 g/m*3 10.9 C 3.2 km/h
2311 08-01-2014 12:00:00 10.6 C 8.2 g/m*3 10.06 C 6.4 km/h
2312 08-01-2014 12:05:00 10.8 C 8.2 g/m*3 10.8 C 4.8 km/h
2313 08-01-2014 12:10:00 10.8 C 8.3 g/m*3 10.8 C 1.6 km/h
2314 08-01-2014 12:15:00 10.7 C 8.35 g/m*3 10.7 C 3.2 km/h
2315 08-01-2014 12:20:00 10.7 C 8.35 g/m*3 10.7 C 4.8 km/h
2316 08-01-2014 12:25:00 11.2 C 8.11 g/m*3 11.2 C 6.4 km/h
2317 08-01-2014 12:30:00 11.4 C 8.11 g/m*3 11.4 C 8.1 km/h
2318 08-01-2014 12:35:00 11.7 C 8.37 g/m*3 11.7 C 8.1 km/h
2319 08-01-2014 12:40:00 11.8 C 8.31 g/m*3 11.8 C 6.4 km/h
2320 08-01-2014 12:45:00 11.8 C 8.31 g/m*3 11.8 C 1.6 km/h
2321 08-01-2014 12:50:00 11.8 C 8.31 g/m*3 11.8 C 11.3 km/h
2322 08-01-2014 12:55:00 11.8 C 8.31 g/m*3 11.8 C 14.5 km/h
2323 08-01-2014 13:00:00 12.4 C 8.3 g/m*3 12.4 C 16.1 km/h
2324 08-01-2014 13:05:00 12.5 C 8.36 g/m*3 12.5 C 11.3 km/h
2325 08-01-2014 13:10:00 12.6 C 8.41 g/m*3 12.6 C 9.7 km/h
Sensor: Nr:Datum:Temp:Abs-Feuchte:Windchill:Wind:
Aussen-T/F 2326 08-01-2014 13:15:00 12.5 C 8.36 g/m*3 12.5 C 4.8 km/h
2327 08-01-2014 13:20:00 12.5 C 8.36 g/m*3 12.5 C 11.3 km/h
2328 08-01-2014 13:25:00 12.5 C 8.36 g/m*3 12.5 C 11.3 km/h
2329 08-01-2014 13:30:00 12.6 C 8.52 g/m*3 12.6 C 4.8 km/h
2330 08-01-2014 13:35:00 12.5 C 8.36 g/m*3 12.5 C 6.4 km/h
2331 08-01-2014 13:40:00 12.4 C 8.3 g/m*3 12.4 C 11.3 km/h
2332 08-01-2014 13:45:00 12.4 C 8.3 g/m*3 12.4 C 16.1 km/h
2333 08-01-2014 13:50:00 12.3 C 8.25 g/m*3 12.3 C 12.9 km/h
2334 08-01-2014 13:55:00 12.3 C 8.25 g/m*3 12.3 C 4.8 km/h
2335 08-01-2014 14:00:00 12.2 C 8.31 g/m*3 12.2 C 4.8 km/h
2336 08-01-2014 14:05:00 12.2 C 8.42 g/m*3 12.2 C 8.1 km/h
2337 08-01-2014 14:10:00 12.2 C 8.42 g/m*3 12.2 C 6.4 km/h
2338 08-01-2014 14:15:00 12.2 C 8.42 g/m*3 12.2 C 3.2 km/h
2339 08-01-2014 14:20:00 12.2 C 8.52 g/m*3 12.2 C 6.4 km/h
2340 08-01-2014 14:25:00 12.1 C 8.47 g/m*3 12.1 C 12.9 km/h
2341 08-01-2014 14:30:00 12.1 C 8.36 g/m*3 12.1 C 14.5 km/h
2342 08-01-2014 14:35:00 12.1 C 8.36 g/m*3 12.1 C 6.4 km/h
2343 08-01-2014 14:40:00 11.9 C 8.26 g/m*3 11.9 C 6.4 km/h
2344 08-01-2014 14:45:00 11.9 C 8.37 g/m*3 11.9 C 11.3 km/h
2345 08-01-2014 14:50:00 11.7 C 8.26 g/m*3 11.7 C 12.9 km/h
2346 08-01-2014 14:55:00 11.6 C 8.42 g/m*3 11.6 C 3.2 km/h
2347 08-01-2014 15:00:00 11.4 C 8.21 g/m*3 11.4 C 12.9 km/h
2348 08-01-2014 15:05:00 11.6 C 8.32 g/m*3 11.6 C 14.5 km/h
2349 08-01-2014 15:10:00 11.7 C 8.37 g/m*3 11.7 C 9.7 km/h
2350 08-01-2014 15:15:00 11.7 C 8.37 g/m*3 11.7 C 4.8 km/h
Sensor: Nr:Datum:Temp:Abs-Feuchte:Windchill:Wind:
Aussen-T/F 2351 08-01-2014 15:20:00 11.7 C 8.26 g/m*3 11.7 C 8.1 km/h
2352 08-01-2014 15:25:00 11.6 C 8.32 g/m*3 11.6 C 6.4 km/h
2353 08-01-2014 15:30:00 11.4 C 8.31 g/m*3 11.4 C 12.9 km/h
2354 08-01-2014 15:35:00 11.3 C 8.16 g/m*3 11.3 C 8.1 km/h
2355 08-01-2014 15:40:00 11.4 C 8.21 g/m*3 11.4 C 4.8 km/h
2356 08-01-2014 15:45:00 11.4 C 8.21 g/m*3 11.4 C 6.4 km/h
2357 08-01-2014 15:50:00 11.3 C 8.16 g/m*3 11.3 C 4.8 km/h
2358 08-01-2014 15:55:00 11.4 C 8.11 g/m*3 11.4 C 8.1 km/h
2359 08-01-2014 16:00:00 11.3 C 8.06 g/m*3 11.3 C 8.1 km/h
2360 08-01-2014 16:05:00 11.2 C 8.11 g/m*3 11.2 C 6.4 km/h
2361 08-01-2014 16:10:00 11.1 C 8.16 g/m*3 11.1 C 4.8 km/h
2362 08-01-2014 16:15:00 10.9 C 8.16 g/m*3 10.41 C 6.4 km/h
2363 08-01-2014 16:20:00 10.6 C 8.2 g/m*3 10.6 C 4.8 km/h
2364 08-01-2014 16:25:00 10.3 C 8.04 g/m*3 10.3 C 4.8 km/h
2365 08-01-2014 16:30:00 10.3 C 8.04 g/m*3 9.72 C 6.4 km/h
2366 08-01-2014 16:35:00 10.2 C 8.09 g/m*3 10.2 C 3.2 km/h
2367 08-01-2014 16:40:00 9.9 C 7.94 g/m*3 9.9 C 4.8 km/h
2368 08-01-2014 16:45:00 9.6 C 8.06 g/m*3 9.6 C 4.8 km/h
2369 08-01-2014 16:50:00 9.6 C 8.06 g/m*3 9.6 C 3.2 km/h
2370 08-01-2014 16:55:00 9.6 C 8.06 g/m*3 9.6 C 4.8 km/h
2371 08-01-2014 17:00:00 9.2 C 7.95 g/m*3 9.2 C 4.8 km/h
2372 08-01-2014 17:05:00 9.2 C 7.95 g/m*3 9.2 C 3.2 km/h
2373 08-01-2014 17:10:00 9.2 C 7.95 g/m*3 9.2 C 3.2 km/h
2374 08-01-2014 17:15:00 9 C 7.93 g/m*3 9 C 3.2 km/h
2375 08-01-2014 17:20:00 8.9 C 7.88 g/m*3 8.9 C 3.2 km/h
Sensor: Nr:Datum:Temp:Abs-Feuchte:Windchill:Wind:
Aussen-T/F 2376 08-01-2014 17:25:00 9 C 7.93 g/m*3 9 C 3.2 km/h
2377 08-01-2014 17:30:00 8.9 C 7.88 g/m*3 8.9 C 3.2 km/h
2378 08-01-2014 17:35:00 9 C 8.02 g/m*3 9 C 3.2 km/h
2379 08-01-2014 17:40:00 9.1 C 7.99 g/m*3 9.1 C 1.6 km/h
2380 08-01-2014 17:45:00 9 C 7.93 g/m*3 9 C 0 km/h
2381 08-01-2014 17:50:00 8.9 C 7.88 g/m*3 8.9 C 1.6 km/h
2382 08-01-2014 17:55:00 8.7 C 7.78 g/m*3 8.7 C 1.6 km/h
2383 08-01-2014 18:00:00 8.6 C 7.82 g/m*3 8.6 C 3.2 km/h
2384 08-01-2014 18:05:00 8.6 C 7.82 g/m*3 8.6 C 3.2 km/h
2385 08-01-2014 18:10:00 8.5 C 7.77 g/m*3 8.5 C 3.2 km/h
2386 08-01-2014 18:15:00 8.3 C 7.67 g/m*3 8.3 C 0 km/h
2387 08-01-2014 18:20:00 8.2 C 7.7 g/m*3 8.2 C 0 km/h
2388 08-01-2014 18:25:00 8.1 C 7.66 g/m*3 8.1 C 0 km/h
2389 08-01-2014 18:30:00 8.1 C 7.66 g/m*3 8.1 C 0 km/h
2390 08-01-2014 18:35:00 8.1 C 7.66 g/m*3 8.1 C 0 km/h
2391 08-01-2014 18:40:00 8.1 C 7.74 g/m*3 8.1 C 1.6 km/h
2392 08-01-2014 18:45:00 8.1 C 7.74 g/m*3 8.1 C 1.6 km/h
2393 08-01-2014 18:50:00 8.1 C 7.74 g/m*3 8.1 C 3.2 km/h
2394 08-01-2014 18:55:00 7.6 C 7.49 g/m*3 7.6 C 0 km/h
2395 08-01-2014 19:00:00 7.6 C 7.49 g/m*3 7.6 C 0 km/h
2396 08-01-2014 19:05:00 7.4 C 7.4 g/m*3 7.4 C 0 km/h
2397 08-01-2014 19:10:00 7.4 C 7.48 g/m*3 7.4 C 0 km/h
2398 08-01-2014 19:15:00 7.4 C 7.48 g/m*3 7.4 C 1.6 km/h
2399 08-01-2014 19:20:00 7.3 C 7.43 g/m*3 7.3 C 0 km/h
2400 08-01-2014 19:25:00 7.3 C 7.51 g/m*3 7.3 C 0 km/h
Sensor: Nr:Datum:Temp:Abs-Feuchte:Windchill:Wind:
Aussen-T/F 2401 08-01-2014 19:30:00 7.3 C 7.51 g/m*3 7.3 C 0 km/h
2402 08-01-2014 19:35:00 7.3 C 7.51 g/m*3 7.3 C 0 km/h
2403 08-01-2014 19:40:00 7.3 C 7.51 g/m*3 7.3 C 0 km/h
2404 08-01-2014 19:45:00 7.2 C 7.46 g/m*3 7.2 C 0 km/h
2405 08-01-2014 19:50:00 7.2 C 7.46 g/m*3 7.2 C 0 km/h
2406 08-01-2014 19:55:00 7.2 C 7.46 g/m*3 7.2 C 1.6 km/h
2407 08-01-2014 20:00:00 7.2 C 7.46 g/m*3 7.2 C 0 km/h
2408 08-01-2014 20:05:00 7.2 C 7.46 g/m*3 7.2 C 0 km/h
2409 08-01-2014 20:10:00 7.2 C 7.46 g/m*3 7.2 C 0 km/h
2410 08-01-2014 20:15:00 7.2 C 7.46 g/m*3 7.2 C 0 km/h
2411 08-01-2014 20:20:00 7.1 C 7.41 g/m*3 7.1 C 1.6 km/h
2412 08-01-2014 20:25:00 7 C 7.36 g/m*3 7 C 0 km/h
2413 08-01-2014 20:30:00 6.9 C 7.31 g/m*3 6.9 C 0 km/h
2414 08-01-2014 20:35:00 6.8 C 7.27 g/m*3 6.8 C 0 km/h
2415 08-01-2014 20:40:00 6.8 C 7.27 g/m*3 6.8 C 0 km/h
2416 08-01-2014 20:45:00 6.8 C 7.27 g/m*3 6.8 C 0 km/h
2417 08-01-2014 20:50:00 6.8 C 7.34 g/m*3 6.8 C 0 km/h
2418 08-01-2014 20:55:00 6.8 C 7.34 g/m*3 6.8 C 0 km/h
2419 08-01-2014 21:00:00 6.8 C 7.34 g/m*3 6.8 C 0 km/h
2420 08-01-2014 21:05:00 6.8 C 7.27 g/m*3 6.8 C 0 km/h
2421 08-01-2014 21:10:00 6.8 C 7.34 g/m*3 6.8 C 0 km/h
2422 08-01-2014 21:15:00 6.7 C 7.29 g/m*3 6.7 C 0 km/h
2423 08-01-2014 21:20:00 6.7 C 7.29 g/m*3 6.7 C 0 km/h
2424 08-01-2014 21:25:00 6.7 C 7.29 g/m*3 6.7 C 0 km/h
2425 08-01-2014 21:30:00 6.7 C 7.29 g/m*3 6.7 C 0 km/h
Sensor: Nr:Datum:Temp:Abs-Feuchte:Windchill:Wind:
Aussen-T/F 2426 08-01-2014 21:35:00 6.6 C 7.25 g/m*3 6.6 C 0 km/h
2427 08-01-2014 21:40:00 6.6 C 7.25 g/m*3 6.6 C 0 km/h
2428 08-01-2014 21:45:00 6.5 C 7.2 g/m*3 6.5 C 0 km/h
2429 08-01-2014 21:50:00 6.4 C 7.15 g/m*3 6.4 C 0 km/h
2430 08-01-2014 21:55:00 6.3 C 7.11 g/m*3 6.3 C 0 km/h
2431 08-01-2014 22:00:00 6.3 C 7.11 g/m*3 6.3 C 0 km/h
2432 08-01-2014 22:05:00 6.2 C 7.06 g/m*3 6.2 C 0 km/h
2433 08-01-2014 22:10:00 6.2 C 7.06 g/m*3 6.2 C 0 km/h
2434 08-01-2014 22:15:00 6.2 C 7.06 g/m*3 6.2 C 0 km/h
2435 08-01-2014 22:20:00 6.3 C 7.11 g/m*3 6.3 C 0 km/h
2436 08-01-2014 22:25:00 6.3 C 7.11 g/m*3 6.3 C 0 km/h
2437 08-01-2014 22:30:00 6.3 C 7.11 g/m*3 6.3 C 0 km/h
2438 08-01-2014 22:35:00 6.3 C 7.11 g/m*3 6.3 C 0 km/h
2439 08-01-2014 22:40:00 6.3 C 7.11 g/m*3 6.3 C 0 km/h
2440 09-01-2014 01:00:00 6.3 C 7.18 g/m*3 6.3 C 0 km/h
2441 09-01-2014 01:05:00 6.3 C 7.18 g/m*3 6.3 C 0 km/h
2442 09-01-2014 01:10:00 6.4 C 7.23 g/m*3 6.4 C 0 km/h
2443 09-01-2014 01:15:00 6.4 C 7.23 g/m*3 6.4 C 0 km/h
2444 09-01-2014 01:20:00 6.4 C 7.23 g/m*3 6.4 C 0 km/h
2445 09-01-2014 01:25:00 6.4 C 7.23 g/m*3 6.4 C 0 km/h
2446 09-01-2014 01:30:00 6.4 C 7.23 g/m*3 6.4 C 0 km/h
2447 09-01-2014 01:35:00 6.5 C 7.27 g/m*3 6.5 C 0 km/h
2448 09-01-2014 01:40:00 6.6 C 7.32 g/m*3 6.6 C 1.6 km/h
2449 09-01-2014 01:45:00 6.7 C 7.37 g/m*3 6.7 C 0 km/h
2450 09-01-2014 01:50:00 6.8 C 7.42 g/m*3 6.8 C 1.6 km/h
Sensor: Nr:Datum:Temp:Abs-Feuchte:Windchill:Wind:
Aussen-T/F 2451 09-01-2014 01:55:00 6.8 C 7.42 g/m*3 6.8 C 0 km/h
2452 09-01-2014 02:00:00 6.7 C 7.37 g/m*3 6.7 C 0 km/h
2453 09-01-2014 02:05:00 6.7 C 7.37 g/m*3 6.7 C 0 km/h
2454 09-01-2014 02:10:00 6.7 C 7.37 g/m*3 6.7 C 3.2 km/h
2455 09-01-2014 02:15:00 6.7 C 7.37 g/m*3 6.7 C 0 km/h
2456 09-01-2014 02:20:00 6.7 C 7.37 g/m*3 6.7 C 0 km/h
2457 09-01-2014 02:25:00 6.7 C 7.37 g/m*3 6.7 C 0 km/h
2458 09-01-2014 02:30:00 6.7 C 7.37 g/m*3 6.7 C 0 km/h
2459 09-01-2014 02:35:00 6.7 C 7.37 g/m*3 6.7 C 0 km/h
2460 09-01-2014 02:40:00 6.7 C 7.37 g/m*3 6.7 C 0 km/h
2461 09-01-2014 02:45:00 6.7 C 7.37 g/m*3 6.7 C 0 km/h
2462 09-01-2014 02:50:00 6.7 C 7.37 g/m*3 6.7 C 0 km/h
2463 09-01-2014 02:55:00 6.7 C 7.37 g/m*3 6.7 C 0 km/h
2464 09-01-2014 03:00:00 6.7 C 7.37 g/m*3 6.7 C 0 km/h
2465 09-01-2014 03:05:00 6.7 C 7.37 g/m*3 6.7 C 0 km/h
2466 09-01-2014 03:10:00 6.7 C 7.37 g/m*3 6.7 C 1.6 km/h
2467 09-01-2014 03:15:00 6.7 C 7.37 g/m*3 6.7 C 0 km/h
2468 09-01-2014 03:20:00 6.7 C 7.37 g/m*3 6.7 C 0 km/h
2469 09-01-2014 03:25:00 6.6 C 7.32 g/m*3 6.6 C 0 km/h
2470 09-01-2014 03:30:00 6.6 C 7.32 g/m*3 6.6 C 0 km/h
2471 09-01-2014 03:35:00 6.6 C 7.32 g/m*3 6.6 C 0 km/h
2472 09-01-2014 03:40:00 6.7 C 7.37 g/m*3 6.7 C 0 km/h
2473 09-01-2014 03:45:00 6.7 C 7.37 g/m*3 6.7 C 1.6 km/h
2474 09-01-2014 03:50:00 6.7 C 7.37 g/m*3 6.7 C 0 km/h
2475 09-01-2014 03:55:00 6.8 C 7.42 g/m*3 6.8 C 1.6 km/h
Sensor: Nr:Datum:Temp:Abs-Feuchte:Windchill:Wind:
Aussen-T/F 2476 09-01-2014 04:00:00 6.8 C 7.42 g/m*3 6.8 C 0 km/h
2477 09-01-2014 04:05:00 6.8 C 7.42 g/m*3 6.8 C 0 km/h
2478 09-01-2014 04:10:00 6.8 C 7.42 g/m*3 6.8 C 0 km/h
2479 09-01-2014 04:15:00 6.8 C 7.42 g/m*3 6.8 C 0 km/h
2480 09-01-2014 04:20:00 6.8 C 7.42 g/m*3 6.8 C 1.6 km/h
2481 09-01-2014 04:25:00 6.8 C 7.42 g/m*3 6.8 C 1.6 km/h
2482 09-01-2014 04:30:00 6.8 C 7.42 g/m*3 6.8 C 0 km/h
2483 09-01-2014 04:35:00 6.7 C 7.37 g/m*3 6.7 C 1.6 km/h
2484 09-01-2014 04:40:00 6.7 C 7.37 g/m*3 6.7 C 3.2 km/h
2485 09-01-2014 04:45:00 6.7 C 7.37 g/m*3 6.7 C 0 km/h
2486 09-01-2014 04:50:00 6.7 C 7.37 g/m*3 6.7 C 1.6 km/h
2487 09-01-2014 04:55:00 6.7 C 7.37 g/m*3 6.7 C 0 km/h
2488 09-01-2014 05:00:00 6.6 C 7.32 g/m*3 6.6 C 0 km/h
2489 09-01-2014 05:05:00 6.7 C 7.45 g/m*3 6.7 C 1.6 km/h
2490 09-01-2014 05:10:00 6.7 C 7.45 g/m*3 6.7 C 0 km/h
2491 09-01-2014 05:15:00 6.7 C 7.45 g/m*3 6.7 C 0 km/h
2492 09-01-2014 05:20:00 6.7 C 7.45 g/m*3 6.7 C 0 km/h
2493 09-01-2014 05:25:00 6.8 C 7.5 g/m*3 6.8 C 0 km/h
2494 09-01-2014 05:30:00 7.2 C 7.69 g/m*3 7.2 C 3.2 km/h
2495 09-01-2014 05:35:00 7.4 C 7.79 g/m*3 7.4 C 3.2 km/h
2496 09-01-2014 05:40:00 7.4 C 7.79 g/m*3 7.4 C 3.2 km/h
2497 09-01-2014 05:45:00 7.4 C 7.79 g/m*3 7.4 C 1.6 km/h
2498 09-01-2014 05:50:00 7.4 C 7.79 g/m*3 7.4 C 1.6 km/h
2499 09-01-2014 07:20:00 8.9 C 8.41 g/m*3 8.9 C 3.2 km/h
2500 09-01-2014 07:25:00 9.2 C 8.57 g/m*3 8.45 C 6.4 km/h
Sensor: Nr:Datum:Temp:Abs-Feuchte:Windchill:Wind:
Aussen-T/F 2501 09-01-2014 07:30:00 9.3 C 8.45 g/m*3 8.56 C 6.4 km/h
2502 09-01-2014 07:35:00 9.5 C 8.47 g/m*3 9.5 C 4.8 km/h
2503 09-01-2014 07:40:00 9.6 C 8.52 g/m*3 9.6 C 4.8 km/h
2504 09-01-2014 07:45:00 9.6 C 8.43 g/m*3 9.6 C 1.6 km/h
2505 09-01-2014 07:50:00 9.6 C 8.34 g/m*3 8.91 C 6.4 km/h
2506 09-01-2014 07:55:00 9.7 C 8.39 g/m*3 9.02 C 6.4 km/h
2507 09-01-2014 08:00:00 9.7 C 8.3 g/m*3 9.02 C 6.4 km/h
2508 09-01-2014 08:05:00 9.8 C 8.35 g/m*3 8.75 C 8.1 km/h
2509 09-01-2014 08:10:00 9.9 C 8.31 g/m*3 9.9 C 3.2 km/h
2510 09-01-2014 08:15:00 9.8 C 8.26 g/m*3 9.8 C 1.6 km/h
2511 09-01-2014 08:20:00 9.7 C 8.2 g/m*3 9.7 C 1.6 km/h
2512 09-01-2014 08:25:00 9.6 C 8.15 g/m*3 9.6 C 0 km/h
2513 09-01-2014 08:30:00 9.6 C 8.15 g/m*3 9.6 C 3.2 km/h
2514 09-01-2014 08:35:00 9.6 C 8.15 g/m*3 9.6 C 1.6 km/h
2515 09-01-2014 08:40:00 9.3 C 8 g/m*3 9.3 C 1.6 km/h
2516 09-01-2014 08:45:00 9.2 C 8.04 g/m*3 9.2 C 1.6 km/h
2517 09-01-2014 08:50:00 9.1 C 7.99 g/m*3 9.1 C 0 km/h
2518 09-01-2014 08:55:00 9.1 C 8.07 g/m*3 9.1 C 1.6 km/h
2519 09-01-2014 09:00:00 9.1 C 8.07 g/m*3 9.1 C 3.2 km/h
2520 09-01-2014 09:05:00 9.1 C 8.16 g/m*3 9.1 C 4.8 km/h
2521 09-01-2014 09:10:00 9.2 C 8.22 g/m*3 9.2 C 0 km/h
2522 09-01-2014 09:15:00 9.3 C 8.18 g/m*3 9.3 C 4.8 km/h
2523 09-01-2014 09:20:00 9.4 C 8.23 g/m*3 9.4 C 0 km/h
2524 09-01-2014 09:25:00 9.4 C 8.23 g/m*3 9.4 C 3.2 km/h
2525 09-01-2014 09:30:00 9.4 C 8.23 g/m*3 9.4 C 3.2 km/h
Sensor: Nr:Datum:Temp:Abs-Feuchte:Windchill:Wind:
Aussen-T/F 2526 09-01-2014 09:35:00 9.4 C 8.23 g/m*3 9.4 C 0 km/h
2527 09-01-2014 09:40:00 9.3 C 8.18 g/m*3 9.3 C 1.6 km/h
2528 09-01-2014 09:45:00 9.4 C 8.23 g/m*3 9.4 C 1.6 km/h
2529 09-01-2014 09:50:00 9.4 C 8.14 g/m*3 9.4 C 4.8 km/h
2530 09-01-2014 09:55:00 9.6 C 8.24 g/m*3 9.6 C 3.2 km/h
2531 09-01-2014 10:00:00 9.7 C 8.3 g/m*3 9.7 C 4.8 km/h
2532 09-01-2014 10:05:00 9.7 C 8.3 g/m*3 9.7 C 0 km/h
2533 09-01-2014 10:10:00 9.8 C 8.35 g/m*3 9.8 C 3.2 km/h
2534 09-01-2014 10:15:00 9.9 C 8.5 g/m*3 9.9 C 4.8 km/h
2535 09-01-2014 10:20:00 9.9 C 8.31 g/m*3 9.9 C 3.2 km/h
2536 09-01-2014 10:25:00 10.1 C 8.51 g/m*3 10.1 C 1.6 km/h
2537 09-01-2014 10:30:00 10.2 C 8.56 g/m*3 10.2 C 1.6 km/h
2538 09-01-2014 10:35:00 10.2 C 8.56 g/m*3 10.2 C 1.6 km/h
2539 09-01-2014 10:40:00 10.2 C 8.56 g/m*3 10.2 C 1.6 km/h
2540 09-01-2014 10:45:00 10.1 C 8.32 g/m*3 10.1 C 4.8 km/h
2541 09-01-2014 10:50:00 10.2 C 8.37 g/m*3 10.2 C 0 km/h
2542 09-01-2014 10:55:00 10.2 C 8.37 g/m*3 10.2 C 3.2 km/h
2543 09-01-2014 11:00:00 10.3 C 8.33 g/m*3 9.04 C 9.7 km/h
2544 09-01-2014 11:05:00 10.6 C 8.49 g/m*3 10.6 C 4.8 km/h
2545 09-01-2014 11:10:00 10.6 C 8.49 g/m*3 10.06 C 6.4 km/h
2546 09-01-2014 11:15:00 10.6 C 8.49 g/m*3 10.6 C 1.6 km/h
2547 09-01-2014 11:20:00 10.8 C 8.5 g/m*3 10.29 C 6.4 km/h
2548 09-01-2014 11:25:00 11.1 C 8.66 g/m*3 11.1 C 6.4 km/h
2549 09-01-2014 11:30:00 11.4 C 8.72 g/m*3 11.4 C 9.7 km/h
2550 09-01-2014 11:35:00 11.4 C 8.72 g/m*3 11.4 C 9.7 km/h
Sensor: Nr:Datum:Temp:Abs-Feuchte:Windchill:Wind:
Aussen-T/F 2551 09-01-2014 11:40:00 11.9 C 8.58 g/m*3 11.9 C 8.1 km/h
2552 09-01-2014 11:45:00 12.1 C 8.47 g/m*3 12.1 C 14.5 km/h
2553 09-01-2014 11:50:00 12.3 C 8.47 g/m*3 12.3 C 9.7 km/h
2554 09-01-2014 11:55:00 12.3 C 8.47 g/m*3 12.3 C 11.3 km/h
2555 09-01-2014 12:00:00 12.4 C 8.52 g/m*3 12.4 C 9.7 km/h
2556 09-01-2014 12:05:00 12.4 C 8.52 g/m*3 12.4 C 8.1 km/h
2557 09-01-2014 12:10:00 12.4 C 8.52 g/m*3 12.4 C 12.9 km/h
2558 09-01-2014 12:15:00 12.4 C 8.52 g/m*3 12.4 C 17.7 km/h
2559 09-01-2014 12:20:00 12.4 C 8.52 g/m*3 12.4 C 11.3 km/h
2560 09-01-2014 12:25:00 12.4 C 8.52 g/m*3 12.4 C 12.9 km/h
2561 09-01-2014 12:30:00 12.4 C 8.52 g/m*3 12.4 C 11.3 km/h
2562 09-01-2014 12:35:00 12.5 C 8.58 g/m*3 12.5 C 14.5 km/h
2563 09-01-2014 12:40:00 12.5 C 8.58 g/m*3 12.5 C 14.5 km/h
2564 09-01-2014 12:45:00 12.6 C 8.63 g/m*3 12.6 C 14.5 km/h
2565 09-01-2014 12:50:00 12.6 C 8.52 g/m*3 12.6 C 9.7 km/h
2566 09-01-2014 12:55:00 12.6 C 8.63 g/m*3 12.6 C 9.7 km/h
2567 09-01-2014 13:00:00 12.6 C 8.52 g/m*3 12.6 C 16.1 km/h
2568 09-01-2014 13:05:00 12.6 C 8.52 g/m*3 12.6 C 11.3 km/h
2569 09-01-2014 13:10:00 12.6 C 8.52 g/m*3 12.6 C 12.9 km/h
2570 09-01-2014 13:15:00 12.7 C 8.57 g/m*3 12.7 C 14.5 km/h
2571 09-01-2014 13:20:00 12.7 C 8.57 g/m*3 12.7 C 9.7 km/h
2572 09-01-2014 13:25:00 12.8 C 8.62 g/m*3 12.8 C 22.5 km/h
2573 09-01-2014 13:30:00 12.7 C 8.57 g/m*3 12.7 C 12.9 km/h
2574 09-01-2014 13:35:00 12.7 C 8.57 g/m*3 12.7 C 17.7 km/h
2575 09-01-2014 13:40:00 12.8 C 8.62 g/m*3 12.8 C 11.3 km/h
Sensor: Nr:Datum:Temp:Abs-Feuchte:Windchill:Wind:
Aussen-T/F 2576 09-01-2014 13:45:00 12.8 C 8.62 g/m*3 12.8 C 12.9 km/h
2577 09-01-2014 13:50:00 12.7 C 8.57 g/m*3 12.7 C 16.1 km/h
2578 09-01-2014 13:55:00 12.7 C 8.57 g/m*3 12.7 C 9.7 km/h
2579 09-01-2014 14:00:00 12.8 C 8.62 g/m*3 12.8 C 16.1 km/h
2580 09-01-2014 14:05:00 12.8 C 8.62 g/m*3 12.8 C 17.7 km/h
2581 09-01-2014 14:10:00 12.8 C 8.62 g/m*3 12.8 C 19.3 km/h
2582 09-01-2014 14:15:00 12.8 C 8.62 g/m*3 12.8 C 12.9 km/h
2583 09-01-2014 14:20:00 12.8 C 8.62 g/m*3 12.8 C 16.1 km/h
2584 09-01-2014 14:25:00 12.8 C 8.62 g/m*3 12.8 C 16.1 km/h
2585 09-01-2014 14:30:00 12.7 C 8.57 g/m*3 12.7 C 22.5 km/h
2586 09-01-2014 14:35:00 12.7 C 8.57 g/m*3 12.7 C 16.1 km/h
2587 09-01-2014 14:40:00 12.7 C 8.57 g/m*3 12.7 C 16.1 km/h
2588 09-01-2014 14:45:00 12.7 C 8.57 g/m*3 12.7 C 27.4 km/h
2589 09-01-2014 14:50:00 12.6 C 8.63 g/m*3 12.6 C 20.9 km/h
2590 09-01-2014 14:55:00 12.4 C 8.52 g/m*3 12.4 C 22.5 km/h
2591 09-01-2014 15:00:00 12.3 C 8.58 g/m*3 12.3 C 11.3 km/h
2592 09-01-2014 15:05:00 12.2 C 8.63 g/m*3 12.2 C 20.9 km/h
2593 09-01-2014 15:10:00 12.1 C 8.69 g/m*3 12.1 C 16.1 km/h
2594 09-01-2014 15:15:00 11.9 C 8.68 g/m*3 11.9 C 11.3 km/h
2595 09-01-2014 15:20:00 11.7 C 8.68 g/m*3 11.7 C 14.5 km/h
2596 09-01-2014 15:25:00 11.6 C 8.83 g/m*3 11.6 C 19.3 km/h
2597 09-01-2014 15:30:00 11.3 C 8.77 g/m*3 11.3 C 11.3 km/h
2598 09-01-2014 15:35:00 11.1 C 8.76 g/m*3 11.1 C 22.5 km/h
2599 09-01-2014 15:40:00 10.9 C 8.36 g/m*3 8.17 C 24.1 km/h
2600 09-01-2014 15:45:00 10.8 C 8.4 g/m*3 9.38 C 11.3 km/h
Sensor: Nr:Datum:Temp:Abs-Feuchte:Windchill:Wind:
Aussen-T/F 2601 09-01-2014 15:50:00 10.8 C 8.4 g/m*3 8.96 C 14.5 km/h
2602 09-01-2014 15:55:00 10.8 C 8.3 g/m*3 8.78 C 16.1 km/h
2603 09-01-2014 16:00:00 10.8 C 8.11 g/m*3 8.3 C 20.9 km/h
2604 09-01-2014 16:05:00 10.8 C 8.11 g/m*3 8.17 C 22.5 km/h
2605 09-01-2014 16:10:00 10.7 C 8.25 g/m*3 8.84 C 14.5 km/h
2606 09-01-2014 16:15:00 10.7 C 8.35 g/m*3 8.04 C 22.5 km/h
2607 09-01-2014 16:20:00 10.5 C 8.15 g/m*3 7.65 C 24.1 km/h
2608 09-01-2014 16:25:00 10.5 C 8.15 g/m*3 7.92 C 20.9 km/h
2609 09-01-2014 16:30:00 10.4 C 8.1 g/m*3 8.11 C 17.7 km/h
2610 09-01-2014 16:35:00 10.3 C 8.04 g/m*3 8.16 C 16.1 km/h
2611 09-01-2014 16:40:00 10.2 C 8.18 g/m*3 8.03 C 16.1 km/h
2612 09-01-2014 16:45:00 10.2 C 8.18 g/m*3 8.66 C 11.3 km/h
2613 09-01-2014 16:50:00 10.1 C 8.23 g/m*3 8.1 C 14.5 km/h
2614 09-01-2014 16:55:00 10.1 C 8.23 g/m*3 9.1 C 8.1 km/h
2615 09-01-2014 17:00:00 10 C 8.27 g/m*3 7.98 C 14.5 km/h
2616 09-01-2014 17:05:00 9.9 C 8.22 g/m*3 8.3 C 11.3 km/h
2617 09-01-2014 17:10:00 9.9 C 8.03 g/m*3 7.48 C 17.7 km/h
2618 09-01-2014 17:15:00 9.9 C 8.03 g/m*3 7.32 C 19.3 km/h
2619 09-01-2014 17:20:00 9.9 C 8.03 g/m*3 7.66 C 16.1 km/h
2620 09-01-2014 17:25:00 9.9 C 8.03 g/m*3 7.32 C 19.3 km/h
2621 09-01-2014 17:30:00 9.9 C 8.03 g/m*3 7.32 C 19.3 km/h
2622 09-01-2014 17:35:00 9.9 C 8.03 g/m*3 7.85 C 14.5 km/h
2623 09-01-2014 17:40:00 9.9 C 8.03 g/m*3 7.85 C 14.5 km/h
2624 09-01-2014 17:45:00 9.9 C 7.94 g/m*3 8.3 C 11.3 km/h
2625 09-01-2014 17:50:00 10.1 C 7.94 g/m*3 7.73 C 17.7 km/h
Sensor: Nr:Datum:Temp:Abs-Feuchte:Windchill:Wind:
Aussen-T/F 2626 09-01-2014 17:55:00 10.1 C 7.94 g/m*3 8.8 C 9.7 km/h
2627 09-01-2014 18:00:00 10.1 C 7.94 g/m*3 8.31 C 12.9 km/h
2628 09-01-2014 18:05:00 10 C 7.89 g/m*3 7.61 C 17.7 km/h
2629 09-01-2014 18:10:00 10 C 7.89 g/m*3 7.98 C 14.5 km/h
2630 09-01-2014 18:15:00 10 C 7.89 g/m*3 7.61 C 17.7 km/h
2631 09-01-2014 18:20:00 9.9 C 7.84 g/m*3 7.48 C 17.7 km/h
2632 09-01-2014 18:25:00 9.9 C 7.84 g/m*3 7.32 C 19.3 km/h
2633 09-01-2014 18:30:00 9.9 C 7.84 g/m*3 7.32 C 19.3 km/h
2634 09-01-2014 18:35:00 9.9 C 7.75 g/m*3 7.32 C 19.3 km/h
2635 09-01-2014 18:40:00 9.9 C 7.84 g/m*3 7.48 C 17.7 km/h
2636 09-01-2014 18:45:00 9.8 C 7.7 g/m*3 7.19 C 19.3 km/h
2637 09-01-2014 18:50:00 9.8 C 7.79 g/m*3 7.36 C 17.7 km/h
2638 09-01-2014 18:55:00 9.8 C 7.79 g/m*3 7.04 C 20.9 km/h
2639 09-01-2014 19:00:00 9.8 C 7.79 g/m*3 7.36 C 17.7 km/h
2640 09-01-2014 19:05:00 9.7 C 7.65 g/m*3 6.37 C 27.4 km/h
2641 09-01-2014 19:10:00 9.8 C 7.7 g/m*3 7.19 C 19.3 km/h
2642 09-01-2014 19:15:00 9.8 C 7.7 g/m*3 7.36 C 17.7 km/h
2643 09-01-2014 19:20:00 9.8 C 7.7 g/m*3 7.19 C 19.3 km/h
2644 09-01-2014 19:25:00 9.8 C 7.79 g/m*3 7.36 C 17.7 km/h
2645 09-01-2014 19:30:00 9.7 C 7.74 g/m*3 7.61 C 14.5 km/h
2646 09-01-2014 19:35:00 9.7 C 7.84 g/m*3 7.41 C 16.1 km/h
2647 09-01-2014 19:40:00 9.7 C 7.84 g/m*3 7.61 C 14.5 km/h
2648 09-01-2014 19:45:00 9.6 C 7.88 g/m*3 7.29 C 16.1 km/h
2649 09-01-2014 19:50:00 9.6 C 7.88 g/m*3 6.94 C 19.3 km/h
2650 09-01-2014 19:55:00 9.6 C 7.79 g/m*3 7.94 C 11.3 km/h
Sensor: Nr:Datum:Temp:Abs-Feuchte:Windchill:Wind:
Aussen-T/F 2651 09-01-2014 20:00:00 9.6 C 7.79 g/m*3 7.48 C 14.5 km/h
2652 09-01-2014 20:05:00 9.6 C 7.79 g/m*3 8.52 C 8.1 km/h
2653 09-01-2014 20:10:00 9.6 C 7.69 g/m*3 7.11 C 17.7 km/h
2654 09-01-2014 20:15:00 9.7 C 7.56 g/m*3 7.82 C 12.9 km/h
2655 09-01-2014 20:20:00 9.7 C 7.38 g/m*3 7.23 C 17.7 km/h
2656 09-01-2014 20:25:00 9.6 C 7.05 g/m*3 6.94 C 19.3 km/h
2657 09-01-2014 20:30:00 9.6 C 7.05 g/m*3 7.11 C 17.7 km/h
2658 09-01-2014 20:35:00 9.6 C 6.96 g/m*3 7.29 C 16.1 km/h
2659 09-01-2014 20:40:00 9.4 C 6.96 g/m*3 7.46 C 12.9 km/h
2660 09-01-2014 20:45:00 9.4 C 6.96 g/m*3 7.7 C 11.3 km/h
2661 09-01-2014 20:50:00 9.3 C 6.92 g/m*3 7.33 C 12.9 km/h
2662 09-01-2014 20:55:00 9.3 C 6.92 g/m*3 6.73 C 17.7 km/h
2663 09-01-2014 21:00:00 9.2 C 6.97 g/m*3 7.21 C 12.9 km/h
2664 09-01-2014 21:05:00 9.1 C 6.83 g/m*3 6 C 22.5 km/h
2665 09-01-2014 21:10:00 8.9 C 6.57 g/m*3 6.06 C 19.3 km/h
2666 09-01-2014 21:15:00 8.8 C 6.44 g/m*3 6.5 C 14.5 km/h
2667 09-01-2014 21:20:00 8.7 C 6.31 g/m*3 6.38 C 14.5 km/h
2668 09-01-2014 21:25:00 8.5 C 6.23 g/m*3 5.56 C 19.3 km/h
2669 09-01-2014 21:30:00 8.4 C 6.28 g/m*3 6.49 C 11.3 km/h
2670 09-01-2014 21:35:00 8.3 C 6.24 g/m*3 5.89 C 14.5 km/h
2671 09-01-2014 21:40:00 8.2 C 6.2 g/m*3 5.99 C 12.9 km/h
2672 09-01-2014 21:45:00 8.1 C 6.07 g/m*3 5.87 C 12.9 km/h
2673 09-01-2014 21:50:00 7.9 C 6.08 g/m*3 5.63 C 12.9 km/h
2674 09-01-2014 21:55:00 7.8 C 6.12 g/m*3 7.8 C 4.8 km/h
2675 09-01-2014 22:00:00 7.7 C 6.08 g/m*3 5.15 C 14.5 km/h
Sensor: Nr:Datum:Temp:Abs-Feuchte:Windchill:Wind:
Aussen-T/F 2676 09-01-2014 22:05:00 7.5 C 6 g/m*3 7.5 C 4.8 km/h
2677 09-01-2014 22:10:00 7.3 C 5.93 g/m*3 7.3 C 3.2 km/h
2678 09-01-2014 22:15:00 7.1 C 6.01 g/m*3 5.58 C 8.1 km/h
2679 09-01-2014 22:20:00 6.9 C 5.85 g/m*3 4.99 C 9.7 km/h
2680 09-01-2014 22:25:00 6.9 C 5.93 g/m*3 6.9 C 4.8 km/h
2681 09-01-2014 22:30:00 6.8 C 5.74 g/m*3 6.8 C 4.8 km/h
2682 09-01-2014 22:35:00 6.7 C 5.77 g/m*3 5.11 C 8.1 km/h
2683 09-01-2014 22:40:00 6.7 C 5.7 g/m*3 4.75 C 9.7 km/h
2684 09-01-2014 22:45:00 6.7 C 5.77 g/m*3 6.7 C 4.8 km/h
2685 09-01-2014 22:50:00 6.5 C 5.7 g/m*3 4.2 C 11.3 km/h
2686 09-01-2014 22:55:00 6.6 C 5.66 g/m*3 4.63 C 9.7 km/h
2687 09-01-2014 23:00:00 6.6 C 5.74 g/m*3 6.6 C 4.8 km/h
2688 09-01-2014 23:05:00 6.4 C 5.74 g/m*3 6.4 C 4.8 km/h
2689 09-01-2014 23:10:00 6.2 C 5.81 g/m*3 4.98 C 6.4 km/h
2690 09-01-2014 23:15:00 6.2 C 5.81 g/m*3 6.2 C 3.2 km/h
2691 09-01-2014 23:20:00 6.2 C 5.81 g/m*3 4.52 C 8.1 km/h
2692 09-01-2014 23:25:00 6.3 C 5.85 g/m*3 6.3 C 3.2 km/h
2693 09-01-2014 23:30:00 6.4 C 5.81 g/m*3 5.21 C 6.4 km/h
2694 09-01-2014 23:35:00 6.5 C 5.92 g/m*3 6.5 C 1.6 km/h
2695 09-01-2014 23:40:00 6.6 C 5.96 g/m*3 5.44 C 6.4 km/h
2696 09-01-2014 23:45:00 6.6 C 5.96 g/m*3 6.6 C 4.8 km/h
2697 09-01-2014 23:50:00 6.6 C 5.96 g/m*3 6.6 C 1.6 km/h
2698 09-01-2014 23:55:00 6.5 C 6 g/m*3 6.5 C 0 km/h
2699 10-01-2014 00:00:00 6.4 C 5.96 g/m*3 6.4 C 0 km/h
2700 10-01-2014 00:05:00 6.3 C 6.07 g/m*3 6.3 C 0 km/h
Sensor: Nr:Datum:Temp:Abs-Feuchte:Windchill:Wind:
Aussen-T/F 2701 10-01-2014 00:10:00 6.2 C 6.18 g/m*3 6.2 C 0 km/h
2702 10-01-2014 00:15:00 6.1 C 6.14 g/m*3 6.1 C 0 km/h
2703 10-01-2014 00:20:00 6 C 6.24 g/m*3 6 C 0 km/h
2704 10-01-2014 00:25:00 5.8 C 6.16 g/m*3 5.8 C 0 km/h
2705 10-01-2014 00:30:00 5.8 C 6.23 g/m*3 5.8 C 0 km/h
2706 10-01-2014 00:35:00 5.7 C 6.19 g/m*3 5.7 C 0 km/h
2707 10-01-2014 00:40:00 5.7 C 6.19 g/m*3 5.7 C 0 km/h
2708 10-01-2014 00:45:00 5.7 C 6.19 g/m*3 5.7 C 0 km/h
2709 10-01-2014 00:50:00 5.7 C 6.19 g/m*3 5.7 C 0 km/h
2710 10-01-2014 00:55:00 5.7 C 6.19 g/m*3 5.7 C 0 km/h
2711 10-01-2014 01:00:00 5.7 C 6.26 g/m*3 5.7 C 1.6 km/h
2712 10-01-2014 01:05:00 5.7 C 6.26 g/m*3 5.7 C 3.2 km/h
2713 10-01-2014 01:10:00 5.7 C 6.26 g/m*3 5.7 C 3.2 km/h
2714 10-01-2014 01:15:00 5.7 C 6.26 g/m*3 5.7 C 1.6 km/h
2715 10-01-2014 01:20:00 5.6 C 6.29 g/m*3 5.6 C 1.6 km/h
2716 10-01-2014 01:25:00 5.6 C 6.29 g/m*3 5.6 C 0 km/h
2717 10-01-2014 01:30:00 5.6 C 6.29 g/m*3 5.6 C 0 km/h
2718 10-01-2014 01:35:00 5.6 C 6.29 g/m*3 5.6 C 1.6 km/h
2719 10-01-2014 01:40:00 5.7 C 6.33 g/m*3 5.7 C 0 km/h
2720 10-01-2014 01:45:00 5.8 C 6.38 g/m*3 5.8 C 0 km/h
2721 10-01-2014 01:50:00 5.8 C 6.38 g/m*3 5.8 C 1.6 km/h
2722 10-01-2014 01:55:00 5.9 C 6.35 g/m*3 5.9 C 1.6 km/h
2723 10-01-2014 02:00:00 5.9 C 6.35 g/m*3 5.9 C 3.2 km/h
2724 10-01-2014 02:05:00 6 C 6.31 g/m*3 6 C 4.8 km/h
2725 10-01-2014 02:10:00 6.1 C 6.36 g/m*3 6.1 C 3.2 km/h
Sensor: Nr:Datum:Temp:Abs-Feuchte:Windchill:Wind:
Aussen-T/F 2726 10-01-2014 02:15:00 6.2 C 6.32 g/m*3 4.98 C 6.4 km/h
2727 10-01-2014 02:20:00 6.2 C 6.32 g/m*3 6.2 C 3.2 km/h
2728 10-01-2014 02:25:00 6.3 C 6.37 g/m*3 6.3 C 3.2 km/h
2729 10-01-2014 02:30:00 6.3 C 6.37 g/m*3 6.3 C 4.8 km/h
2730 10-01-2014 02:35:00 6.3 C 6.37 g/m*3 6.3 C 4.8 km/h
2731 10-01-2014 02:40:00 6.3 C 6.37 g/m*3 6.3 C 4.8 km/h
2732 10-01-2014 02:45:00 6.3 C 6.37 g/m*3 6.3 C 4.8 km/h
2733 10-01-2014 02:50:00 6.3 C 6.37 g/m*3 6.3 C 0 km/h
2734 10-01-2014 02:55:00 6.2 C 6.32 g/m*3 6.2 C 3.2 km/h
2735 10-01-2014 03:00:00 6.2 C 6.32 g/m*3 6.2 C 3.2 km/h
2736 10-01-2014 03:05:00 6.1 C 6.28 g/m*3 4.4 C 8.1 km/h
2737 10-01-2014 03:10:00 6.1 C 6.28 g/m*3 4.4 C 8.1 km/h
2738 10-01-2014 03:15:00 6.1 C 6.36 g/m*3 6.1 C 3.2 km/h
2739 10-01-2014 03:20:00 6.1 C 6.28 g/m*3 6.1 C 4.8 km/h
2740 10-01-2014 03:25:00 6.1 C 6.28 g/m*3 4.86 C 6.4 km/h
2741 10-01-2014 03:30:00 6 C 6.24 g/m*3 6 C 3.2 km/h
2742 10-01-2014 03:35:00 5.8 C 6.16 g/m*3 5.8 C 4.8 km/h
2743 10-01-2014 03:40:00 5.7 C 6.19 g/m*3 5.7 C 3.2 km/h
2744 10-01-2014 03:45:00 5.6 C 6.15 g/m*3 5.6 C 4.8 km/h
2745 10-01-2014 03:50:00 5.5 C 6.11 g/m*3 5.5 C 3.2 km/h
2746 10-01-2014 03:55:00 5.3 C 6.03 g/m*3 5.3 C 3.2 km/h
2747 10-01-2014 04:00:00 5.1 C 6.02 g/m*3 5.1 C 3.2 km/h
2748 10-01-2014 04:05:00 4.9 C 6.01 g/m*3 4.9 C 3.2 km/h
2749 10-01-2014 04:10:00 4.8 C 5.97 g/m*3 4.8 C 3.2 km/h
2750 10-01-2014 04:15:00 4.7 C 5.93 g/m*3 3.25 C 6.4 km/h
Sensor: Nr:Datum:Temp:Abs-Feuchte:Windchill:Wind:
Aussen-T/F 2751 10-01-2014 04:20:00 4.7 C 5.93 g/m*3 4.7 C 4.8 km/h
2752 10-01-2014 04:25:00 4.8 C 5.97 g/m*3 3.36 C 6.4 km/h
2753 10-01-2014 04:30:00 4.8 C 5.97 g/m*3 4.8 C 4.8 km/h
2754 10-01-2014 04:35:00 4.7 C 5.93 g/m*3 4.7 C 3.2 km/h
2755 10-01-2014 04:40:00 4.7 C 5.93 g/m*3 4.7 C 4.8 km/h
2756 10-01-2014 04:45:00 4.8 C 5.9 g/m*3 2.87 C 8.1 km/h
2757 10-01-2014 04:50:00 4.8 C 5.9 g/m*3 4.8 C 4.8 km/h
2758 10-01-2014 04:55:00 4.7 C 5.93 g/m*3 4.7 C 4.8 km/h
2759 10-01-2014 05:00:00 4.6 C 5.89 g/m*3 4.6 C 4.8 km/h
2760 10-01-2014 05:05:00 4.7 C 5.93 g/m*3 4.7 C 4.8 km/h
2761 10-01-2014 05:10:00 4.8 C 5.9 g/m*3 2.49 C 9.7 km/h
2762 10-01-2014 05:15:00 4.7 C 5.86 g/m*3 4.7 C 3.2 km/h
2763 10-01-2014 05:20:00 4.7 C 5.93 g/m*3 3.25 C 6.4 km/h
2764 10-01-2014 05:25:00 4.7 C 5.93 g/m*3 4.7 C 4.8 km/h
2765 10-01-2014 05:30:00 4.7 C 5.93 g/m*3 2.03 C 11.3 km/h
2766 10-01-2014 05:35:00 5.1 C 6.02 g/m*3 2.51 C 11.3 km/h
2767 10-01-2014 05:40:00 5.4 C 6 g/m*3 2.87 C 11.3 km/h
2768 10-01-2014 05:45:00 5.6 C 6.01 g/m*3 2.33 C 16.1 km/h
2769 10-01-2014 05:50:00 5.6 C 6.01 g/m*3 3.11 C 11.3 km/h
2770 10-01-2014 05:55:00 5.4 C 5.93 g/m*3 4.06 C 6.4 km/h
2771 10-01-2014 06:00:00 5.2 C 5.92 g/m*3 3.82 C 6.4 km/h
2772 10-01-2014 06:05:00 5.1 C 5.95 g/m*3 3.71 C 6.4 km/h
2773 10-01-2014 06:10:00 4.9 C 5.87 g/m*3 4.9 C 4.8 km/h
2774 10-01-2014 06:15:00 4.8 C 5.9 g/m*3 4.8 C 3.2 km/h
2775 10-01-2014 06:20:00 4.6 C 5.89 g/m*3 4.6 C 3.2 km/h
Sensor: Nr:Datum:Temp:Abs-Feuchte:Windchill:Wind:
Aussen-T/F 2776 10-01-2014 06:25:00 4.5 C 5.85 g/m*3 4.5 C 3.2 km/h
2777 10-01-2014 06:30:00 4.3 C 5.84 g/m*3 4.3 C 4.8 km/h
2778 10-01-2014 06:35:00 4.7 C 6 g/m*3 2.03 C 11.3 km/h
2779 10-01-2014 06:40:00 4.8 C 5.97 g/m*3 4.8 C 4.8 km/h
2780 10-01-2014 06:45:00 4.7 C 5.93 g/m*3 4.7 C 4.8 km/h
2781 10-01-2014 06:50:00 4.7 C 5.93 g/m*3 4.7 C 3.2 km/h
2782 10-01-2014 06:55:00 4.6 C 5.89 g/m*3 4.6 C 4.8 km/h
2783 10-01-2014 07:00:00 4.7 C 5.93 g/m*3 4.7 C 3.2 km/h
2784 10-01-2014 07:05:00 4.7 C 6 g/m*3 2.76 C 8.1 km/h
2785 10-01-2014 07:10:00 5 C 6.05 g/m*3 2.72 C 9.7 km/h
2786 10-01-2014 07:15:00 5.1 C 6.02 g/m*3 3.23 C 8.1 km/h
2787 10-01-2014 07:20:00 5.2 C 6.06 g/m*3 2.96 C 9.7 km/h
2788 10-01-2014 07:25:00 5.2 C 6.06 g/m*3 2.96 C 9.7 km/h
2789 10-01-2014 07:30:00 5.2 C 5.99 g/m*3 2.96 C 9.7 km/h
2790 10-01-2014 07:35:00 5.2 C 6.06 g/m*3 2.96 C 9.7 km/h
2791 10-01-2014 07:40:00 5.2 C 6.06 g/m*3 2.63 C 11.3 km/h
2792 10-01-2014 07:45:00 5.1 C 6.02 g/m*3 2.84 C 9.7 km/h
2793 10-01-2014 07:50:00 5.1 C 6.02 g/m*3 2.84 C 9.7 km/h
2794 10-01-2014 07:55:00 5 C 5.98 g/m*3 5 C 4.8 km/h
2795 10-01-2014 08:00:00 4.9 C 5.94 g/m*3 3.48 C 6.4 km/h
2796 10-01-2014 08:05:00 4.8 C 5.9 g/m*3 4.8 C 4.8 km/h
2797 10-01-2014 08:10:00 4.6 C 5.89 g/m*3 3.13 C 6.4 km/h
2798 10-01-2014 08:15:00 4.9 C 6.08 g/m*3 1.24 C 17.7 km/h
2799 10-01-2014 08:20:00 5.2 C 6.06 g/m*3 1.61 C 17.7 km/h
2800 10-01-2014 08:25:00 5.5 C 6.11 g/m*3 2.7 C 12.9 km/h
Sensor: Nr:Datum:Temp:Abs-Feuchte:Windchill:Wind:
Aussen-T/F 2801 10-01-2014 08:30:00 5.7 C 6.12 g/m*3 3.93 C 8.1 km/h
2802 10-01-2014 08:35:00 5.8 C 6.09 g/m*3 2.81 C 14.5 km/h
2803 10-01-2014 08:40:00 5.8 C 6.09 g/m*3 3.68 C 9.7 km/h
2804 10-01-2014 08:45:00 5.9 C 6.06 g/m*3 2.93 C 14.5 km/h
2805 10-01-2014 08:50:00 6 C 6.1 g/m*3 4.28 C 8.1 km/h
2806 10-01-2014 08:55:00 5.9 C 6.06 g/m*3 4.17 C 8.1 km/h
2807 10-01-2014 09:00:00 5.8 C 6.09 g/m*3 3.68 C 9.7 km/h
2808 10-01-2014 09:05:00 5.7 C 6.12 g/m*3 4.4 C 6.4 km/h
2809 10-01-2014 09:10:00 5.4 C 6 g/m*3 5.4 C 3.2 km/h
2810 10-01-2014 09:15:00 5.2 C 5.99 g/m*3 5.2 C 3.2 km/h
2811 10-01-2014 09:20:00 5.1 C 6.09 g/m*3 3.71 C 6.4 km/h
2812 10-01-2014 09:25:00 5.1 C 6.09 g/m*3 2.51 C 11.3 km/h
2813 10-01-2014 09:30:00 5.2 C 6.13 g/m*3 3.34 C 8.1 km/h
2814 10-01-2014 09:35:00 5.3 C 6.1 g/m*3 2.75 C 11.3 km/h
2815 10-01-2014 09:40:00 5.3 C 6.17 g/m*3 3.94 C 6.4 km/h
2816 10-01-2014 09:45:00 5.3 C 6.1 g/m*3 5.3 C 4.8 km/h
2817 10-01-2014 09:50:00 5.3 C 6.17 g/m*3 3.46 C 8.1 km/h
2818 10-01-2014 09:55:00 5.4 C 6.21 g/m*3 3.2 C 9.7 km/h
2819 10-01-2014 10:00:00 5.4 C 6.14 g/m*3 4.06 C 6.4 km/h
2820 10-01-2014 10:05:00 5.4 C 6.21 g/m*3 4.06 C 6.4 km/h
2821 10-01-2014 10:10:00 5.4 C 6.21 g/m*3 3.58 C 8.1 km/h
2822 10-01-2014 10:15:00 5.4 C 6.21 g/m*3 5.4 C 4.8 km/h
2823 10-01-2014 10:20:00 5.4 C 6.21 g/m*3 2.58 C 12.9 km/h
2824 10-01-2014 10:25:00 5.6 C 6.29 g/m*3 3.81 C 8.1 km/h
2825 10-01-2014 10:30:00 5.7 C 6.33 g/m*3 3.56 C 9.7 km/h
Sensor: Nr:Datum:Temp:Abs-Feuchte:Windchill:Wind:
Aussen-T/F 2826 10-01-2014 10:35:00 5.9 C 6.35 g/m*3 3.48 C 11.3 km/h
2827 10-01-2014 10:40:00 5.9 C 6.27 g/m*3 4.63 C 6.4 km/h
2828 10-01-2014 10:45:00 5.9 C 6.27 g/m*3 4.63 C 6.4 km/h
2829 10-01-2014 10:50:00 6.1 C 6.36 g/m*3 6.1 C 4.8 km/h
2830 10-01-2014 10:55:00 6.2 C 6.32 g/m*3 6.2 C 4.8 km/h
2831 10-01-2014 11:00:00 6.3 C 6.37 g/m*3 5.1 C 6.4 km/h
2832 10-01-2014 11:05:00 6.4 C 6.33 g/m*3 5.21 C 6.4 km/h
2833 10-01-2014 11:10:00 6.4 C 6.33 g/m*3 4.08 C 11.3 km/h
2834 10-01-2014 11:15:00 6.5 C 6.3 g/m*3 4.2 C 11.3 km/h
2835 10-01-2014 11:20:00 6.6 C 6.34 g/m*3 4.04 C 12.9 km/h
2836 10-01-2014 11:25:00 6.6 C 6.34 g/m*3 3.36 C 17.7 km/h
2837 10-01-2014 11:30:00 6.7 C 6.31 g/m*3 3.69 C 16.1 km/h
2838 10-01-2014 11:35:00 6.8 C 6.35 g/m*3 3.42 C 19.3 km/h
2839 10-01-2014 11:40:00 6.8 C 6.35 g/m*3 3.82 C 16.1 km/h
2840 10-01-2014 11:45:00 6.9 C 6.39 g/m*3 4.16 C 14.5 km/h
2841 10-01-2014 11:50:00 7 C 6.43 g/m*3 4.29 C 14.5 km/h
2842 10-01-2014 11:55:00 7.1 C 6.4 g/m*3 5.58 C 8.1 km/h
2843 10-01-2014 12:00:00 7.1 C 6.4 g/m*3 4.92 C 11.3 km/h
2844 10-01-2014 12:05:00 7.2 C 6.44 g/m*3 4.53 C 14.5 km/h
2845 10-01-2014 12:10:00 7.2 C 6.44 g/m*3 5.04 C 11.3 km/h
2846 10-01-2014 12:15:00 7.2 C 6.36 g/m*3 5.04 C 11.3 km/h
2847 10-01-2014 12:20:00 7.3 C 6.48 g/m*3 4.44 C 16.1 km/h
2848 10-01-2014 12:25:00 7.5 C 6.48 g/m*3 5.14 C 12.9 km/h
2849 10-01-2014 12:30:00 7.6 C 6.53 g/m*3 6.6 C 6.4 km/h
2850 10-01-2014 12:35:00 7.6 C 6.53 g/m*3 6.6 C 6.4 km/h
Sensor: Nr:Datum:Temp:Abs-Feuchte:Windchill:Wind:
Aussen-T/F 2851 10-01-2014 12:40:00 7.7 C 6.57 g/m*3 5.94 C 9.7 km/h
2852 10-01-2014 12:45:00 7.8 C 6.61 g/m*3 5.77 C 11.3 km/h
2853 10-01-2014 12:50:00 7.9 C 6.57 g/m*3 5.63 C 12.9 km/h
2854 10-01-2014 12:55:00 7.9 C 6.57 g/m*3 5.39 C 14.5 km/h
2855 10-01-2014 13:00:00 7.8 C 6.53 g/m*3 5.51 C 12.9 km/h
2856 10-01-2014 13:05:00 7.8 C 6.53 g/m*3 5.77 C 11.3 km/h
2857 10-01-2014 13:10:00 7.7 C 6.57 g/m*3 5.65 C 11.3 km/h
2858 10-01-2014 13:15:00 7.7 C 6.57 g/m*3 5.38 C 12.9 km/h
2859 10-01-2014 13:20:00 7.7 C 6.57 g/m*3 4.93 C 16.1 km/h
2860 10-01-2014 13:25:00 7.7 C 6.57 g/m*3 4.93 C 16.1 km/h
2861 10-01-2014 13:30:00 7.7 C 6.57 g/m*3 5.65 C 11.3 km/h
2862 10-01-2014 13:35:00 7.7 C 6.57 g/m*3 5.38 C 12.9 km/h
2863 10-01-2014 13:40:00 7.7 C 6.49 g/m*3 4.93 C 16.1 km/h
2864 10-01-2014 13:45:00 7.7 C 6.49 g/m*3 5.65 C 11.3 km/h
2865 10-01-2014 13:50:00 7.7 C 6.49 g/m*3 5.38 C 12.9 km/h
2866 10-01-2014 13:55:00 7.7 C 6.49 g/m*3 6.28 C 8.1 km/h
2867 10-01-2014 14:00:00 7.7 C 6.57 g/m*3 5.65 C 11.3 km/h
2868 10-01-2014 14:05:00 7.7 C 6.57 g/m*3 5.65 C 11.3 km/h
2869 10-01-2014 14:10:00 7.7 C 6.57 g/m*3 5.15 C 14.5 km/h
2870 10-01-2014 14:15:00 7.7 C 6.57 g/m*3 6.71 C 6.4 km/h
2871 10-01-2014 14:20:00 7.7 C 6.57 g/m*3 5.94 C 9.7 km/h
2872 10-01-2014 14:25:00 7.7 C 6.57 g/m*3 6.71 C 6.4 km/h
2873 10-01-2014 14:30:00 7.7 C 6.57 g/m*3 5.65 C 11.3 km/h
2874 10-01-2014 14:35:00 7.8 C 6.61 g/m*3 6.4 C 8.1 km/h
2875 10-01-2014 14:40:00 7.8 C 6.61 g/m*3 6.83 C 6.4 km/h
Sensor: Nr:Datum:Temp:Abs-Feuchte:Windchill:Wind:
Aussen-T/F 2876 10-01-2014 14:45:00 7.8 C 6.61 g/m*3 5.77 C 11.3 km/h
2877 10-01-2014 14:50:00 7.8 C 6.61 g/m*3 5.51 C 12.9 km/h
2878 10-01-2014 14:55:00 7.8 C 6.61 g/m*3 5.51 C 12.9 km/h
2879 10-01-2014 15:00:00 7.8 C 6.61 g/m*3 6.4 C 8.1 km/h
2880 10-01-2014 15:05:00 7.9 C 6.74 g/m*3 6.52 C 8.1 km/h
2881 10-01-2014 15:10:00 7.9 C 6.65 g/m*3 5.89 C 11.3 km/h
2882 10-01-2014 15:15:00 8 C 6.7 g/m*3 5.75 C 12.9 km/h
2883 10-01-2014 15:20:00 8.1 C 6.74 g/m*3 8.1 C 4.8 km/h
2884 10-01-2014 15:25:00 8.1 C 6.66 g/m*3 6.42 C 9.7 km/h
2885 10-01-2014 15:30:00 8.1 C 6.74 g/m*3 8.1 C 4.8 km/h
2886 10-01-2014 15:35:00 7.8 C 6.69 g/m*3 6.83 C 6.4 km/h
2887 10-01-2014 15:40:00 7.7 C 6.57 g/m*3 5.94 C 9.7 km/h
2888 10-01-2014 15:45:00 7.7 C 6.57 g/m*3 6.71 C 6.4 km/h
2889 10-01-2014 15:50:00 7.7 C 6.57 g/m*3 7.7 C 4.8 km/h
2890 10-01-2014 15:55:00 7.5 C 6.48 g/m*3 7.5 C 4.8 km/h
2891 10-01-2014 16:00:00 7.4 C 6.52 g/m*3 7.4 C 4.8 km/h
2892 10-01-2014 16:05:00 7.3 C 6.48 g/m*3 6.25 C 6.4 km/h
2893 10-01-2014 16:10:00 7.2 C 6.52 g/m*3 7.2 C 4.8 km/h
2894 10-01-2014 16:15:00 7.1 C 6.47 g/m*3 6.02 C 6.4 km/h
2895 10-01-2014 16:20:00 6.8 C 6.42 g/m*3 6.8 C 3.2 km/h
2896 10-01-2014 16:25:00 6.6 C 6.42 g/m*3 6.6 C 4.8 km/h
2897 10-01-2014 16:30:00 6.3 C 6.29 g/m*3 6.3 C 4.8 km/h
2898 10-01-2014 16:35:00 6.3 C 6.37 g/m*3 6.3 C 3.2 km/h
2899 10-01-2014 16:40:00 6.1 C 6.28 g/m*3 6.1 C 3.2 km/h
2900 10-01-2014 16:45:00 5.8 C 6.23 g/m*3 5.8 C 3.2 km/h
Sensor: Nr:Datum:Temp:Abs-Feuchte:Windchill:Wind:
Aussen-T/F 2901 10-01-2014 16:50:00 5.7 C 6.26 g/m*3 5.7 C 3.2 km/h
2902 10-01-2014 16:55:00 5.4 C 6.21 g/m*3 5.4 C 3.2 km/h
2903 10-01-2014 17:00:00 5.3 C 6.17 g/m*3 5.3 C 3.2 km/h
2904 10-01-2014 17:05:00 5.2 C 6.13 g/m*3 5.2 C 3.2 km/h
2905 10-01-2014 17:10:00 5.2 C 6.2 g/m*3 5.2 C 4.8 km/h
2906 10-01-2014 17:15:00 5.1 C 6.16 g/m*3 5.1 C 4.8 km/h
2907 10-01-2014 17:20:00 5.1 C 6.16 g/m*3 5.1 C 3.2 km/h
2908 10-01-2014 17:25:00 5.2 C 6.2 g/m*3 5.2 C 3.2 km/h
2909 10-01-2014 17:30:00 5.2 C 6.13 g/m*3 5.2 C 3.2 km/h
2910 10-01-2014 17:35:00 5.1 C 6.09 g/m*3 5.1 C 4.8 km/h
2911 10-01-2014 17:40:00 5 C 6.12 g/m*3 5 C 3.2 km/h
2912 10-01-2014 17:45:00 5.1 C 6.09 g/m*3 5.1 C 3.2 km/h
2913 10-01-2014 17:50:00 4.9 C 6.01 g/m*3 4.9 C 3.2 km/h
2914 10-01-2014 17:55:00 4.8 C 6.04 g/m*3 4.8 C 3.2 km/h
2915 10-01-2014 18:00:00 4.7 C 6 g/m*3 4.7 C 3.2 km/h
2916 10-01-2014 18:05:00 4.8 C 6.04 g/m*3 4.8 C 4.8 km/h
2917 10-01-2014 18:10:00 5 C 6.12 g/m*3 5 C 4.8 km/h
2918 10-01-2014 18:15:00 5 C 6.05 g/m*3 5 C 4.8 km/h
2919 10-01-2014 18:20:00 5.2 C 6.13 g/m*3 3.82 C 6.4 km/h
2920 10-01-2014 18:25:00 5.5 C 6.11 g/m*3 4.17 C 6.4 km/h
2921 10-01-2014 18:30:00 5.3 C 6.03 g/m*3 5.3 C 4.8 km/h
2922 10-01-2014 18:35:00 5.2 C 6.06 g/m*3 3.82 C 6.4 km/h
2923 10-01-2014 18:40:00 5.1 C 6.02 g/m*3 5.1 C 4.8 km/h
2924 10-01-2014 18:45:00 5.1 C 6.09 g/m*3 5.1 C 4.8 km/h
2925 10-01-2014 18:50:00 5.1 C 6.02 g/m*3 5.1 C 4.8 km/h
Sensor: Nr:Datum:Temp:Abs-Feuchte:Windchill:Wind:
Aussen-T/F 2926 10-01-2014 18:55:00 5 C 6.05 g/m*3 5 C 4.8 km/h
2927 10-01-2014 19:00:00 4.9 C 6.01 g/m*3 4.9 C 4.8 km/h
2928 10-01-2014 19:05:00 4.9 C 6.01 g/m*3 4.9 C 4.8 km/h
2929 10-01-2014 19:10:00 5 C 6.05 g/m*3 5 C 4.8 km/h
2930 10-01-2014 19:15:00 5.1 C 6.09 g/m*3 3.71 C 6.4 km/h
2931 10-01-2014 19:20:00 5.4 C 6.14 g/m*3 4.06 C 6.4 km/h
2932 10-01-2014 19:25:00 5.6 C 6.15 g/m*3 5.6 C 4.8 km/h
2933 10-01-2014 19:30:00 5.7 C 6.19 g/m*3 5.7 C 4.8 km/h
2934 10-01-2014 19:35:00 5.6 C 6.08 g/m*3 5.6 C 4.8 km/h
2935 10-01-2014 19:40:00 5.7 C 6.12 g/m*3 3.93 C 8.1 km/h
2936 10-01-2014 19:45:00 5.6 C 6.08 g/m*3 4.29 C 6.4 km/h
2937 10-01-2014 19:50:00 5.5 C 6.04 g/m*3 5.5 C 4.8 km/h
2938 10-01-2014 19:55:00 5.4 C 6 g/m*3 5.4 C 4.8 km/h
2939 10-01-2014 20:00:00 5.4 C 6 g/m*3 5.4 C 3.2 km/h
2940 10-01-2014 20:05:00 5.1 C 5.95 g/m*3 5.1 C 3.2 km/h
2941 10-01-2014 20:10:00 4.9 C 5.94 g/m*3 4.9 C 4.8 km/h
2942 10-01-2014 20:15:00 4.8 C 5.97 g/m*3 4.8 C 4.8 km/h
2943 10-01-2014 20:20:00 4.8 C 5.97 g/m*3 4.8 C 4.8 km/h
2944 10-01-2014 20:25:00 4.7 C 5.93 g/m*3 4.7 C 4.8 km/h
2945 10-01-2014 20:30:00 4.6 C 5.89 g/m*3 4.6 C 3.2 km/h
2946 10-01-2014 20:35:00 4.5 C 5.85 g/m*3 4.5 C 3.2 km/h
2947 10-01-2014 20:40:00 4.4 C 5.88 g/m*3 4.4 C 4.8 km/h
2948 10-01-2014 20:45:00 4.5 C 5.85 g/m*3 4.5 C 3.2 km/h
2949 10-01-2014 20:50:00 4.4 C 5.81 g/m*3 4.4 C 3.2 km/h
2950 10-01-2014 20:55:00 4.3 C 5.84 g/m*3 4.3 C 4.8 km/h
Sensor: Nr:Datum:Temp:Abs-Feuchte:Windchill:Wind:
Aussen-T/F 2951 10-01-2014 21:00:00 4.4 C 5.88 g/m*3 4.4 C 3.2 km/h
2952 10-01-2014 21:05:00 4.4 C 5.88 g/m*3 4.4 C 3.2 km/h
2953 10-01-2014 21:10:00 4.4 C 5.88 g/m*3 4.4 C 3.2 km/h
2954 10-01-2014 21:15:00 4.3 C 5.84 g/m*3 4.3 C 1.6 km/h
2955 10-01-2014 21:20:00 4.2 C 5.86 g/m*3 4.2 C 0 km/h
2956 10-01-2014 21:25:00 4.2 C 5.86 g/m*3 4.2 C 1.6 km/h
2957 10-01-2014 21:30:00 4.1 C 5.82 g/m*3 4.1 C 3.2 km/h
2958 10-01-2014 21:35:00 4 C 5.79 g/m*3 4 C 0 km/h
2959 10-01-2014 21:40:00 3.8 C 5.71 g/m*3 3.8 C 0 km/h
2960 10-01-2014 21:45:00 3.8 C 5.77 g/m*3 3.8 C 0 km/h
2961 10-01-2014 21:50:00 3.7 C 5.73 g/m*3 3.7 C 1.6 km/h
2962 10-01-2014 21:55:00 3.6 C 5.69 g/m*3 3.6 C 0 km/h
2963 10-01-2014 22:00:00 3.5 C 5.66 g/m*3 3.5 C 0 km/h
2964 10-01-2014 22:05:00 3.4 C 5.68 g/m*3 3.4 C 0 km/h
2965 10-01-2014 22:10:00 3.4 C 5.68 g/m*3 3.4 C 0 km/h
2966 10-01-2014 22:15:00 3.4 C 5.68 g/m*3 3.4 C 0 km/h
2967 10-01-2014 22:20:00 3.3 C 5.64 g/m*3 3.3 C 0 km/h
2968 10-01-2014 22:25:00 3.2 C 5.6 g/m*3 3.2 C 0 km/h
2969 10-01-2014 22:30:00 3.2 C 5.6 g/m*3 3.2 C 0 km/h
2970 10-01-2014 22:35:00 3.1 C 5.57 g/m*3 3.1 C 0 km/h
2971 10-01-2014 22:40:00 3.1 C 5.63 g/m*3 3.1 C 3.2 km/h
2972 10-01-2014 22:45:00 3.1 C 5.63 g/m*3 3.1 C 1.6 km/h
2973 10-01-2014 22:50:00 3.1 C 5.63 g/m*3 3.1 C 0 km/h
2974 10-01-2014 22:55:00 3.2 C 5.66 g/m*3 3.2 C 0 km/h
2975 10-01-2014 23:00:00 3.1 C 5.63 g/m*3 3.1 C 0 km/h
Sensor: Nr:Datum:Temp:Abs-Feuchte:Windchill:Wind:
Aussen-T/F 2976 10-01-2014 23:05:00 3.1 C 5.63 g/m*3 3.1 C 0 km/h
2977 10-01-2014 23:10:00 3.1 C 5.63 g/m*3 3.1 C 0 km/h
2978 10-01-2014 23:15:00 3 C 5.59 g/m*3 3 C 0 km/h
2979 10-01-2014 23:20:00 3.1 C 5.69 g/m*3 3.1 C 0 km/h
2980 10-01-2014 23:25:00 3.1 C 5.63 g/m*3 3.1 C 0 km/h
2981 10-01-2014 23:30:00 3 C 5.59 g/m*3 3 C 0 km/h
2982 10-01-2014 23:35:00 3.1 C 5.69 g/m*3 3.1 C 0 km/h
2983 10-01-2014 23:40:00 3.1 C 5.69 g/m*3 3.1 C 0 km/h
2984 10-01-2014 23:45:00 3.1 C 5.69 g/m*3 3.1 C 0 km/h
2985 10-01-2014 23:50:00 3 C 5.65 g/m*3 3 C 0 km/h
2986 10-01-2014 23:55:00 2.9 C 5.61 g/m*3 2.9 C 0 km/h
2987 11-01-2014 00:00:00 2.8 C 5.57 g/m*3 2.8 C 0 km/h
2988 11-01-2014 00:05:00 2.8 C 5.57 g/m*3 2.8 C 0 km/h
2989 11-01-2014 00:10:00 2.8 C 5.57 g/m*3 2.8 C 0 km/h
2990 11-01-2014 00:15:00 2.7 C 5.54 g/m*3 2.7 C 0 km/h
2991 11-01-2014 00:20:00 2.6 C 5.5 g/m*3 2.6 C 0 km/h
2992 11-01-2014 00:25:00 2.5 C 5.46 g/m*3 2.5 C 0 km/h
2993 11-01-2014 00:30:00 2.4 C 5.42 g/m*3 2.4 C 0 km/h
2994 11-01-2014 00:35:00 2.3 C 5.39 g/m*3 2.3 C 0 km/h
2995 11-01-2014 00:40:00 2.3 C 5.39 g/m*3 2.3 C 0 km/h
2996 11-01-2014 00:45:00 2.4 C 5.42 g/m*3 2.4 C 0 km/h
2997 11-01-2014 00:50:00 2.4 C 5.42 g/m*3 2.4 C 0 km/h
2998 11-01-2014 00:55:00 2.3 C 5.39 g/m*3 2.3 C 0 km/h
2999 11-01-2014 01:00:00 2.3 C 5.39 g/m*3 2.3 C 1.6 km/h
3000 11-01-2014 01:05:00 2.3 C 5.39 g/m*3 2.3 C 0 km/h
Sensor: Nr:Datum:Temp:Abs-Feuchte:Windchill:Wind:
Aussen-T/F 3001 11-01-2014 01:10:00 2.3 C 5.39 g/m*3 2.3 C 0 km/h
3002 11-01-2014 01:15:00 2.2 C 5.35 g/m*3 2.2 C 0 km/h
3003 11-01-2014 01:20:00 2.2 C 5.41 g/m*3 2.2 C 0 km/h
3004 11-01-2014 01:25:00 2.2 C 5.35 g/m*3 2.2 C 0 km/h
3005 11-01-2014 01:30:00 2.1 C 5.31 g/m*3 2.1 C 0 km/h
3006 11-01-2014 01:35:00 2.1 C 5.31 g/m*3 2.1 C 0 km/h
3007 11-01-2014 01:40:00 1.9 C 5.24 g/m*3 1.9 C 0 km/h
3008 11-01-2014 01:45:00 1.9 C 5.24 g/m*3 1.9 C 0 km/h
3009 11-01-2014 01:50:00 1.8 C 5.21 g/m*3 1.8 C 0 km/h
3010 11-01-2014 01:55:00 1.7 C 5.17 g/m*3 1.7 C 0 km/h
3011 11-01-2014 02:00:00 1.7 C 5.17 g/m*3 1.7 C 0 km/h
3012 11-01-2014 02:05:00 1.7 C 5.23 g/m*3 1.7 C 1.6 km/h
3013 11-01-2014 02:10:00 1.7 C 5.23 g/m*3 1.7 C 0 km/h
3014 11-01-2014 02:15:00 1.7 C 5.23 g/m*3 1.7 C 0 km/h
3015 11-01-2014 02:20:00 1.7 C 5.23 g/m*3 1.7 C 0 km/h
3016 11-01-2014 02:25:00 1.8 C 5.26 g/m*3 1.8 C 0 km/h
3017 11-01-2014 02:30:00 1.9 C 5.3 g/m*3 1.9 C 0 km/h
3018 11-01-2014 02:35:00 1.9 C 5.3 g/m*3 1.9 C 0 km/h
3019 11-01-2014 02:40:00 1.9 C 5.3 g/m*3 1.9 C 0 km/h
3020 11-01-2014 02:45:00 1.8 C 5.26 g/m*3 1.8 C 1.6 km/h
3021 11-01-2014 02:50:00 1.8 C 5.26 g/m*3 1.8 C 1.6 km/h
3022 11-01-2014 02:55:00 1.8 C 5.26 g/m*3 1.8 C 0 km/h
3023 11-01-2014 03:00:00 1.8 C 5.26 g/m*3 1.8 C 0 km/h
3024 11-01-2014 03:05:00 1.8 C 5.26 g/m*3 1.8 C 0 km/h
3025 11-01-2014 03:10:00 1.8 C 5.26 g/m*3 1.8 C 0 km/h
Sensor: Nr:Datum:Temp:Abs-Feuchte:Windchill:Wind:
Aussen-T/F 3026 11-01-2014 03:15:00 1.7 C 5.23 g/m*3 1.7 C 0 km/h
3027 11-01-2014 03:20:00 1.5 C 5.16 g/m*3 1.5 C 0 km/h
3028 11-01-2014 03:25:00 1.4 C 5.12 g/m*3 1.4 C 0 km/h
3029 11-01-2014 03:30:00 1.4 C 5.12 g/m*3 1.4 C 1.6 km/h
3030 11-01-2014 03:35:00 1.4 C 5.12 g/m*3 1.4 C 0 km/h
3031 11-01-2014 03:40:00 1.4 C 5.12 g/m*3 1.4 C 0 km/h
3032 11-01-2014 03:45:00 1.4 C 5.12 g/m*3 1.4 C 0 km/h
3033 11-01-2014 03:50:00 1.4 C 5.12 g/m*3 1.4 C 0 km/h
3034 11-01-2014 03:55:00 1.5 C 5.16 g/m*3 1.5 C 1.6 km/h
3035 11-01-2014 04:00:00 1.5 C 5.16 g/m*3 1.5 C 0 km/h
3036 11-01-2014 04:05:00 1.4 C 5.12 g/m*3 1.4 C 0 km/h
3037 11-01-2014 04:10:00 1.4 C 5.12 g/m*3 1.4 C 0 km/h
3038 11-01-2014 04:15:00 1.3 C 5.09 g/m*3 1.3 C 0 km/h
3039 11-01-2014 04:20:00 1.3 C 5.09 g/m*3 1.3 C 0 km/h
3040 11-01-2014 04:25:00 1.3 C 5.09 g/m*3 1.3 C 0 km/h
3041 11-01-2014 04:30:00 1.3 C 5.09 g/m*3 1.3 C 0 km/h
3042 11-01-2014 04:35:00 1.3 C 5.09 g/m*3 1.3 C 0 km/h
3043 11-01-2014 04:40:00 1.3 C 5.09 g/m*3 1.3 C 0 km/h
3044 11-01-2014 04:45:00 1.4 C 5.12 g/m*3 1.4 C 3.2 km/h
3045 11-01-2014 04:50:00 1.4 C 5.17 g/m*3 1.4 C 1.6 km/h
3046 11-01-2014 04:55:00 1.3 C 5.14 g/m*3 1.3 C 0 km/h
3047 11-01-2014 05:00:00 1.3 C 5.14 g/m*3 1.3 C 0 km/h
3048 11-01-2014 05:05:00 1.1 C 5.02 g/m*3 1.1 C 0 km/h
3049 11-01-2014 05:10:00 0.9 C 4.95 g/m*3 0.9 C 0 km/h
3050 11-01-2014 05:15:00 0.8 C 4.91 g/m*3 0.8 C 0 km/h
Sensor: Nr:Datum:Temp:Abs-Feuchte:Windchill:Wind:
Aussen-T/F 3051 11-01-2014 05:20:00 0.9 C 5 g/m*3 0.9 C 0 km/h
3052 11-01-2014 05:25:00 0.8 C 4.91 g/m*3 0.8 C 0 km/h
3053 11-01-2014 05:30:00 0.8 C 4.91 g/m*3 0.8 C 0 km/h
3054 11-01-2014 05:35:00 0.8 C 4.91 g/m*3 0.8 C 0 km/h
3055 11-01-2014 05:40:00 0.8 C 4.91 g/m*3 0.8 C 0 km/h
3056 11-01-2014 05:45:00 0.8 C 4.97 g/m*3 0.8 C 0 km/h
3057 11-01-2014 05:50:00 0.9 C 5 g/m*3 0.9 C 0 km/h
3058 11-01-2014 05:55:00 0.8 C 4.97 g/m*3 0.8 C 0 km/h
3059 11-01-2014 06:00:00 0.9 C 5 g/m*3 0.9 C 0 km/h
3060 11-01-2014 06:05:00 0.9 C 5 g/m*3 0.9 C 0 km/h
3061 11-01-2014 06:10:00 1 C 5.03 g/m*3 1 C 0 km/h
3062 11-01-2014 06:15:00 1.1 C 5.07 g/m*3 1.1 C 0 km/h
3063 11-01-2014 06:20:00 1.1 C 5.07 g/m*3 1.1 C 0 km/h
3064 11-01-2014 06:25:00 1.1 C 5.07 g/m*3 1.1 C 0 km/h
3065 11-01-2014 06:30:00 1.2 C 5.1 g/m*3 1.2 C 0 km/h
3066 11-01-2014 06:35:00 1.2 C 5.1 g/m*3 1.2 C 0 km/h
3067 11-01-2014 06:40:00 1.2 C 5.1 g/m*3 1.2 C 0 km/h
3068 11-01-2014 06:45:00 1.2 C 5.1 g/m*3 1.2 C 0 km/h
3069 11-01-2014 06:50:00 1.2 C 5.1 g/m*3 1.2 C 1.6 km/h
3070 11-01-2014 06:55:00 1.2 C 5.1 g/m*3 -0.8 C 6.4 km/h
3071 11-01-2014 07:00:00 1.2 C 5.1 g/m*3 -0.8 C 6.4 km/h
3072 11-01-2014 07:05:00 1.3 C 5.14 g/m*3 1.3 C 0 km/h
3073 11-01-2014 07:10:00 1.3 C 5.14 g/m*3 1.3 C 1.6 km/h
3074 11-01-2014 07:15:00 1.3 C 5.14 g/m*3 1.3 C 0 km/h
3075 11-01-2014 07:20:00 1.3 C 5.14 g/m*3 1.3 C 1.6 km/h
Sensor: Nr:Datum:Temp:Abs-Feuchte:Windchill:Wind:
Aussen-T/F 3076 11-01-2014 07:25:00 1.3 C 5.14 g/m*3 1.3 C 3.2 km/h
3077 11-01-2014 07:30:00 1.4 C 5.17 g/m*3 1.4 C 1.6 km/h
3078 11-01-2014 07:35:00 1.4 C 5.17 g/m*3 1.4 C 1.6 km/h
3079 11-01-2014 07:40:00 1.5 C 5.21 g/m*3 1.5 C 0 km/h
3080 11-01-2014 07:45:00 1.6 C 5.25 g/m*3 1.6 C 0 km/h
3081 11-01-2014 07:50:00 1.6 C 5.25 g/m*3 1.6 C 1.6 km/h
3082 11-01-2014 07:55:00 1.6 C 5.25 g/m*3 1.6 C 3.2 km/h
3083 11-01-2014 08:00:00 1.7 C 5.28 g/m*3 1.7 C 1.6 km/h
3084 11-01-2014 08:05:00 1.7 C 5.28 g/m*3 1.7 C 1.6 km/h
3085 11-01-2014 08:10:00 1.8 C 5.32 g/m*3 1.8 C 1.6 km/h
3086 11-01-2014 08:15:00 1.8 C 5.32 g/m*3 1.8 C 0 km/h
3087 11-01-2014 08:20:00 1.8 C 5.32 g/m*3 1.8 C 0 km/h
3088 11-01-2014 08:25:00 1.9 C 5.35 g/m*3 1.9 C 0 km/h
3089 11-01-2014 08:30:00 1.9 C 5.35 g/m*3 1.9 C 1.6 km/h
3090 11-01-2014 08:35:00 1.9 C 5.35 g/m*3 1.9 C 3.2 km/h
3091 11-01-2014 08:40:00 1.9 C 5.35 g/m*3 1.9 C 1.6 km/h
3092 11-01-2014 08:45:00 1.9 C 5.35 g/m*3 1.9 C 3.2 km/h
3093 11-01-2014 08:50:00 2 C 5.39 g/m*3 2 C 0 km/h
3094 11-01-2014 08:55:00 2.1 C 5.43 g/m*3 2.1 C 0 km/h
3095 11-01-2014 09:00:00 2.1 C 5.43 g/m*3 2.1 C 0 km/h
3096 11-01-2014 09:05:00 2.1 C 5.43 g/m*3 2.1 C 0 km/h
3097 11-01-2014 09:10:00 2.2 C 5.46 g/m*3 2.2 C 0 km/h
3098 11-01-2014 09:15:00 2.3 C 5.5 g/m*3 2.3 C 0 km/h
3099 11-01-2014 09:20:00 2.3 C 5.5 g/m*3 2.3 C 0 km/h
3100 11-01-2014 09:25:00 2.3 C 5.5 g/m*3 2.3 C 0 km/h
Sensor: Nr:Datum:Temp:Abs-Feuchte:Windchill:Wind:
Aussen-T/F 3101 11-01-2014 09:30:00 2.3 C 5.5 g/m*3 2.3 C 0 km/h
3102 11-01-2014 09:35:00 2.3 C 5.5 g/m*3 2.3 C 0 km/h
3103 11-01-2014 09:40:00 2.3 C 5.5 g/m*3 2.3 C 0 km/h
3104 11-01-2014 09:45:00 2.3 C 5.5 g/m*3 2.3 C 0 km/h
3105 11-01-2014 09:50:00 2.3 C 5.5 g/m*3 2.3 C 0 km/h
3106 11-01-2014 09:55:00 2.3 C 5.5 g/m*3 2.3 C 0 km/h
3107 11-01-2014 10:00:00 2.3 C 5.5 g/m*3 2.3 C 1.6 km/h
3108 11-01-2014 10:05:00 2.3 C 5.5 g/m*3 2.3 C 1.6 km/h
3109 11-01-2014 10:10:00 2.3 C 5.5 g/m*3 2.3 C 0 km/h
3110 11-01-2014 10:15:00 2.4 C 5.54 g/m*3 2.4 C 0 km/h
3111 11-01-2014 10:20:00 2.4 C 5.54 g/m*3 2.4 C 0 km/h
3112 11-01-2014 10:25:00 2.6 C 5.61 g/m*3 2.6 C 0 km/h
3113 11-01-2014 10:30:00 2.6 C 5.61 g/m*3 2.6 C 0 km/h
3114 11-01-2014 10:35:00 2.7 C 5.65 g/m*3 2.7 C 0 km/h
3115 11-01-2014 10:40:00 2.8 C 5.69 g/m*3 2.8 C 0 km/h
3116 11-01-2014 10:45:00 2.9 C 5.73 g/m*3 2.9 C 0 km/h
3117 11-01-2014 10:50:00 2.9 C 5.73 g/m*3 2.9 C 0 km/h
3118 11-01-2014 10:55:00 3 C 5.77 g/m*3 3 C 0 km/h
3119 11-01-2014 11:00:00 3.1 C 5.81 g/m*3 3.1 C 0 km/h
3120 11-01-2014 11:05:00 3.2 C 5.85 g/m*3 3.2 C 0 km/h
3121 11-01-2014 11:10:00 3.3 C 5.88 g/m*3 3.3 C 0 km/h
3122 11-01-2014 11:15:00 3.4 C 5.99 g/m*3 3.4 C 0 km/h
3123 11-01-2014 11:20:00 3.5 C 6.03 g/m*3 3.5 C 0 km/h
3124 11-01-2014 11:25:00 3.7 C 6.04 g/m*3 3.7 C 0 km/h
3125 11-01-2014 11:30:00 3.8 C 6.15 g/m*3 3.8 C 1.6 km/h
Sensor: Nr:Datum:Temp:Abs-Feuchte:Windchill:Wind:
Aussen-T/F 3126 11-01-2014 11:35:00 3.8 C 6.15 g/m*3 3.8 C 3.2 km/h
3127 11-01-2014 11:40:00 4 C 6.17 g/m*3 4 C 3.2 km/h
3128 11-01-2014 11:45:00 4.3 C 6.36 g/m*3 2.78 C 6.4 km/h
3129 11-01-2014 11:50:00 4.6 C 6.48 g/m*3 2.25 C 9.7 km/h
3130 11-01-2014 11:55:00 4.8 C 6.57 g/m*3 2.49 C 9.7 km/h
3131 11-01-2014 12:00:00 5.1 C 6.63 g/m*3 2.84 C 9.7 km/h
3132 11-01-2014 12:05:00 5.3 C 6.65 g/m*3 2.75 C 11.3 km/h
3133 11-01-2014 12:10:00 5.6 C 6.72 g/m*3 3.81 C 8.1 km/h
3134 11-01-2014 12:15:00 5.8 C 6.66 g/m*3 3.36 C 11.3 km/h
3135 11-01-2014 12:20:00 6 C 6.68 g/m*3 3.92 C 9.7 km/h
3136 11-01-2014 12:25:00 6.1 C 6.72 g/m*3 4.4 C 8.1 km/h
3137 11-01-2014 12:30:00 6.2 C 6.69 g/m*3 3.84 C 11.3 km/h
3138 11-01-2014 12:35:00 6.2 C 6.69 g/m*3 4.52 C 8.1 km/h
3139 11-01-2014 12:40:00 6.2 C 6.62 g/m*3 4.98 C 6.4 km/h
3140 11-01-2014 12:45:00 6.3 C 6.66 g/m*3 4.64 C 8.1 km/h
3141 11-01-2014 12:50:00 6.3 C 6.66 g/m*3 3.96 C 11.3 km/h
3142 11-01-2014 12:55:00 6.6 C 6.72 g/m*3 4.32 C 11.3 km/h
3143 11-01-2014 13:00:00 6.6 C 6.72 g/m*3 4.63 C 9.7 km/h
3144 11-01-2014 13:05:00 6.6 C 6.72 g/m*3 4.04 C 12.9 km/h
3145 11-01-2014 13:10:00 6.6 C 6.72 g/m*3 4.99 C 8.1 km/h
3146 11-01-2014 13:15:00 6.9 C 6.7 g/m*3 4.99 C 9.7 km/h
3147 11-01-2014 13:20:00 6.9 C 6.7 g/m*3 6.9 C 4.8 km/h
3148 11-01-2014 13:25:00 6.9 C 6.7 g/m*3 5.79 C 6.4 km/h
3149 11-01-2014 13:30:00 6.8 C 6.65 g/m*3 6.8 C 4.8 km/h
3150 11-01-2014 13:35:00 6.9 C 6.7 g/m*3 5.79 C 6.4 km/h
Sensor: Nr:Datum:Temp:Abs-Feuchte:Windchill:Wind:
Aussen-T/F 3151 11-01-2014 13:40:00 6.8 C 6.65 g/m*3 4.56 C 11.3 km/h
3152 11-01-2014 13:45:00 6.9 C 6.7 g/m*3 4.68 C 11.3 km/h
3153 11-01-2014 13:50:00 7.1 C 6.71 g/m*3 4.92 C 11.3 km/h
3154 11-01-2014 13:55:00 7.2 C 6.83 g/m*3 5.69 C 8.1 km/h
3155 11-01-2014 14:00:00 7.3 C 6.79 g/m*3 4.23 C 17.7 km/h
3156 11-01-2014 14:05:00 7.5 C 6.8 g/m*3 4.9 C 14.5 km/h
3157 11-01-2014 14:10:00 7.7 C 6.81 g/m*3 5.15 C 14.5 km/h
3158 11-01-2014 14:15:00 7.9 C 6.9 g/m*3 5.89 C 11.3 km/h
3159 11-01-2014 14:20:00 7.9 C 6.82 g/m*3 4.8 C 19.3 km/h
3160 11-01-2014 14:25:00 8 C 6.86 g/m*3 4.93 C 19.3 km/h
3161 11-01-2014 14:30:00 7.8 C 6.77 g/m*3 5.77 C 11.3 km/h
3162 11-01-2014 14:35:00 7.8 C 6.86 g/m*3 5.27 C 14.5 km/h
3163 11-01-2014 14:40:00 7.7 C 6.81 g/m*3 5.94 C 9.7 km/h
3164 11-01-2014 14:45:00 7.6 C 6.77 g/m*3 6.16 C 8.1 km/h
3165 11-01-2014 14:50:00 7.5 C 6.8 g/m*3 6.48 C 6.4 km/h
3166 11-01-2014 14:55:00 7.3 C 6.72 g/m*3 7.3 C 3.2 km/h
3167 11-01-2014 15:00:00 7.2 C 6.75 g/m*3 7.2 C 3.2 km/h
3168 11-01-2014 15:05:00 6.9 C 6.7 g/m*3 6.9 C 3.2 km/h
3169 11-01-2014 15:10:00 6.7 C 6.69 g/m*3 6.7 C 3.2 km/h
3170 11-01-2014 15:15:00 6.5 C 6.67 g/m*3 6.5 C 0 km/h
3171 11-01-2014 15:20:00 6.5 C 6.67 g/m*3 4.51 C 9.7 km/h
3172 11-01-2014 15:25:00 6.8 C 6.73 g/m*3 6.8 C 3.2 km/h
3173 11-01-2014 15:30:00 7.1 C 6.86 g/m*3 5.23 C 9.7 km/h
3174 11-01-2014 15:35:00 7.4 C 6.84 g/m*3 4.56 C 16.1 km/h
3175 11-01-2014 15:40:00 7.7 C 6.89 g/m*3 4.93 C 16.1 km/h
Sensor: Nr:Datum:Temp:Abs-Feuchte:Windchill:Wind:
Aussen-T/F 3176 11-01-2014 15:45:00 7.7 C 6.89 g/m*3 4.93 C 16.1 km/h
3177 11-01-2014 15:50:00 7.6 C 6.85 g/m*3 5.26 C 12.9 km/h
3178 11-01-2014 15:55:00 7.5 C 6.88 g/m*3 5.7 C 9.7 km/h
3179 11-01-2014 16:00:00 7.5 C 6.88 g/m*3 6.05 C 8.1 km/h
3180 11-01-2014 16:05:00 7.6 C 6.93 g/m*3 5.53 C 11.3 km/h
3181 11-01-2014 16:10:00 7.7 C 6.89 g/m*3 5.94 C 9.7 km/h
3182 11-01-2014 16:15:00 7.7 C 6.97 g/m*3 5.94 C 9.7 km/h
3183 11-01-2014 16:20:00 7.7 C 6.97 g/m*3 5.38 C 12.9 km/h
3184 11-01-2014 16:25:00 7.6 C 7.01 g/m*3 5.53 C 11.3 km/h
3185 11-01-2014 16:30:00 7.5 C 6.96 g/m*3 5.41 C 11.3 km/h
3186 11-01-2014 16:35:00 7.3 C 7.03 g/m*3 4.9 C 12.9 km/h
3187 11-01-2014 16:40:00 7.2 C 7.06 g/m*3 5.69 C 8.1 km/h
3188 11-01-2014 16:45:00 7 C 7.05 g/m*3 4.8 C 11.3 km/h
3189 11-01-2014 16:50:00 6.9 C 7.08 g/m*3 5.79 C 6.4 km/h
3190 11-01-2014 16:55:00 6.7 C 6.99 g/m*3 5.11 C 8.1 km/h
3191 11-01-2014 17:00:00 6.7 C 7.07 g/m*3 3.69 C 16.1 km/h
3192 11-01-2014 17:05:00 6.6 C 7.02 g/m*3 6.6 C 3.2 km/h
3193 11-01-2014 17:10:00 6.6 C 7.02 g/m*3 6.6 C 4.8 km/h
3194 11-01-2014 17:15:00 6.5 C 7.05 g/m*3 4.87 C 8.1 km/h
3195 11-01-2014 17:20:00 6.4 C 7 g/m*3 4.75 C 8.1 km/h
3196 11-01-2014 17:25:00 6.4 C 7 g/m*3 4.75 C 8.1 km/h
3197 11-01-2014 17:30:00 6.4 C 7 g/m*3 6.4 C 3.2 km/h
3198 11-01-2014 17:35:00 6.4 C 7 g/m*3 6.4 C 4.8 km/h
3199 11-01-2014 17:40:00 6.3 C 6.96 g/m*3 6.3 C 3.2 km/h
3200 11-01-2014 17:45:00 6.3 C 6.96 g/m*3 6.3 C 1.6 km/h
Sensor: Nr:Datum:Temp:Abs-Feuchte:Windchill:Wind:
Aussen-T/F 3201 11-01-2014 17:50:00 6.2 C 6.99 g/m*3 6.2 C 1.6 km/h
3202 11-01-2014 17:55:00 6.2 C 6.99 g/m*3 6.2 C 1.6 km/h
3203 11-01-2014 18:00:00 6.2 C 6.99 g/m*3 3.84 C 11.3 km/h
3204 11-01-2014 18:05:00 6.2 C 6.84 g/m*3 6.2 C 4.8 km/h
3205 11-01-2014 18:10:00 6.4 C 6.71 g/m*3 4.39 C 9.7 km/h
3206 11-01-2014 18:15:00 6.5 C 6.67 g/m*3 4.87 C 8.1 km/h
3207 11-01-2014 18:20:00 6.6 C 6.64 g/m*3 6.6 C 4.8 km/h
3208 11-01-2014 18:25:00 6.4 C 6.48 g/m*3 4.39 C 9.7 km/h
3209 11-01-2014 18:30:00 6.4 C 6.48 g/m*3 5.21 C 6.4 km/h
3210 11-01-2014 18:35:00 6.3 C 6.51 g/m*3 5.1 C 6.4 km/h
3211 11-01-2014 18:40:00 6.2 C 6.4 g/m*3 4.98 C 6.4 km/h
3212 11-01-2014 18:45:00 6.1 C 6.5 g/m*3 6.1 C 4.8 km/h
3213 11-01-2014 18:50:00 5.8 C 6.45 g/m*3 5.8 C 3.2 km/h
3214 11-01-2014 18:55:00 5.8 C 6.45 g/m*3 5.8 C 1.6 km/h
3215 11-01-2014 19:00:00 5.7 C 6.48 g/m*3 5.7 C 4.8 km/h
3216 11-01-2014 19:05:00 5.8 C 6.52 g/m*3 5.8 C 3.2 km/h
3217 11-01-2014 19:10:00 5.7 C 6.48 g/m*3 5.7 C 0 km/h
3218 11-01-2014 19:15:00 5.6 C 6.36 g/m*3 3.11 C 11.3 km/h
3219 11-01-2014 19:20:00 5.8 C 6.3 g/m*3 4.05 C 8.1 km/h
3220 11-01-2014 19:25:00 6.1 C 6.28 g/m*3 4.4 C 8.1 km/h
3221 11-01-2014 19:30:00 6.2 C 6.32 g/m*3 4.52 C 8.1 km/h
3222 11-01-2014 19:35:00 6.1 C 6.28 g/m*3 6.1 C 3.2 km/h
3223 11-01-2014 19:40:00 5.9 C 6.27 g/m*3 5.9 C 3.2 km/h
3224 11-01-2014 19:45:00 5.4 C 6.14 g/m*3 5.4 C 1.6 km/h
3225 11-01-2014 19:50:00 5.1 C 6.16 g/m*3 5.1 C 1.6 km/h